Provisional Data: Little Muncy Creek near Moreland, PA


Please select a monitoring station.
Please select start date.
Please select start date.

Toggle Unit: C/F Toggle Unit: C/F
Sample Time Temperature (C) Temperature (F) Specific Conductivity (mS/cm) pH   Turbidity (NTU+) DO (mg/L)
6/3/2022 12:00:00 AM 20.23 68.414 0.124 7.31 21.75 7.75
6/3/2022 12:15:00 AM 20.19 68.342 0.125 7.31 24.11 7.71
6/3/2022 12:30:00 AM 20.14 68.252 0.125 7.3 35.7 7.71
6/3/2022 12:45:00 AM 20.09 68.162 0.125 7.3 24.35 7.77
6/3/2022 1:00:00 AM 20.04 68.07201 0.125 7.31 25.3 7.76
6/3/2022 1:15:00 AM 19.99 67.982 0.125 7.3 25.84 7.75
6/3/2022 1:30:00 AM 19.93 67.874 0.125 7.29 25.61 7.77
6/3/2022 1:45:00 AM 19.87 67.766 0.125 7.33 24.39 7.81
6/3/2022 2:00:00 AM 19.81 67.658 0.125 7.3 22.46 7.77
6/3/2022 2:15:00 AM 19.75 67.55 0.124 7.32 27.01 7.86
6/3/2022 2:30:00 AM 19.54 67.172 0.116 7.24 304.64 7.46
6/3/2022 2:45:00 AM 19.1 66.38 0.117 7.36 380.52 8.1
6/3/2022 3:00:00 AM 18.59 65.462 0.105 7.34 454.26 8.2
6/3/2022 3:15:00 AM 18.29 64.922 0.102 7.37 510.94 8.35
6/3/2022 3:30:00 AM 18.21 64.778 0.103 7.49 516.68 8.45
6/3/2022 3:45:00 AM 18.2 64.76 0.103 7.54 545.11 8.49
6/3/2022 4:00:00 AM 18.2 64.76 0.101 7.53 552.99 8.52
6/3/2022 4:15:00 AM 18.19 64.742 0.1 7.52 556.79 8.53
6/3/2022 4:30:00 AM 18.15 64.67 0.098 7.5 525.36 8.56
6/3/2022 4:45:00 AM 18.11 64.598 0.097 7.48 504.43 8.58
6/3/2022 5:00:00 AM 18.05 64.49 0.095 7.45 441.9 8.59
6/3/2022 5:15:00 AM 17.99 64.382 0.094 7.41 419.68 8.61
6/3/2022 5:30:00 AM 17.93 64.274 0.094 7.41 387.11 8.62
6/3/2022 5:45:00 AM 17.87 64.166 0.093 7.4 357.3 8.64
6/3/2022 6:00:00 AM 17.81 64.058 0.091 7.38 320.08 8.65
6/3/2022 6:15:00 AM 17.76 63.968 0.09 7.37 294.31 8.66
6/3/2022 6:30:00 AM 17.73 63.914 0.089 7.36 241.53 8.68
6/3/2022 6:45:00 AM 17.68 63.824 0.089 7.35 261.24 8.69
6/3/2022 7:00:00 AM 17.65 63.77 0.088 7.35 183.08 8.7
6/3/2022 7:15:00 AM 17.62 63.716 0.088 7.34 208.56 8.7
6/3/2022 7:30:00 AM 17.59 63.662 0.088 7.34 164.09 8.71
6/3/2022 7:45:00 AM 17.56 63.608 0.087 7.34 156.24 8.71
6/3/2022 8:00:00 AM 17.54 63.572 0.086 7.33 143.96 8.73
6/3/2022 8:15:00 AM 17.52 63.536 0.086 7.33 129.04 8.74
6/3/2022 8:30:00 AM 17.51 63.518 0.086 7.33 137.55 8.76
6/3/2022 8:45:00 AM 17.5 63.5 0.086 7.33 108.8 8.75
6/3/2022 9:00:00 AM 17.5 63.5 0.086 7.33 91.32 8.77
6/3/2022 9:15:00 AM 17.51 63.518 0.086 7.33 85.58 8.79
6/3/2022 9:30:00 AM 17.53 63.554 0.086 7.33 68.13 8.8
6/3/2022 9:45:00 AM 17.55 63.59 0.087 7.34 76.63 8.82
6/3/2022 10:00:00 AM 17.6 63.68 0.087 7.34 109.25 8.84
6/3/2022 10:15:00 AM 17.66 63.788 0.087 7.34 86.35 8.85
6/3/2022 10:30:00 AM 17.73 63.914 0.087 7.35 61.36 8.87
6/3/2022 10:45:00 AM 17.82 64.076 0.087 7.36 62.49 8.88
6/3/2022 11:00:00 AM 17.93 64.274 0.087 7.37 56.96 8.91
6/3/2022 11:15:00 AM 18.05 64.49 0.088 7.39 48.25 8.93
6/3/2022 11:30:00 AM 18.19 64.742 0.088 7.4 68.61 8.95
6/3/2022 11:45:00 AM 18.34 65.012 0.088 7.41 72.75 8.96
6/3/2022 12:00:00 PM 18.5 65.3 0.088 7.42 75.65 8.99
6/3/2022 12:15:00 PM 18.69 65.642 0.088 7.44 38.87 9
6/3/2022 12:30:00 PM 18.89 66.002 0.089 7.45 42.53 9
6/3/2022 12:45:00 PM 19.08 66.344 0.089 7.46 33.22 9.01
6/3/2022 1:00:00 PM 19.26 66.668 0.089 7.47 27.33 9.01
6/3/2022 1:15:00 PM 19.46 67.028 0.09 7.49 38.53 9
6/3/2022 1:30:00 PM 19.64 67.352 0.09 7.49 33.83 8.99
6/3/2022 1:45:00 PM 19.81 67.658 0.09 7.51 29.48 8.98
6/3/2022 2:00:00 PM 19.97 67.946 0.09 7.52 48.15 8.98
6/3/2022 2:15:00 PM 20.13 68.234 0.091 7.52 28.15 8.96
6/3/2022 2:30:00 PM 20.28 68.504 0.091 7.54 25.07 8.94
6/3/2022 2:45:00 PM 20.41 68.738 0.091 7.55 25.52 8.91
6/3/2022 3:00:00 PM 20.54 68.972 0.091 7.55 22.29 8.88
6/3/2022 3:15:00 PM 20.59 69.062 0.092 7.55 26.13 8.83
6/3/2022 3:30:00 PM 20.71 69.278 0.092 7.55 36.77 8.77
6/3/2022 3:45:00 PM 20.79 69.422 0.092 7.55 27.59 8.73
6/3/2022 4:00:00 PM 20.81 69.458 0.092 7.54 65.24 8.68
6/3/2022 4:15:00 PM 20.84 69.512 0.093 7.52 35.63 8.63
6/3/2022 4:30:00 PM 20.87 69.566 0.093 7.52 43.3 8.57
6/3/2022 4:45:00 PM 20.88 69.584 0.093 7.49 192.24 8.48
6/3/2022 5:00:00 PM 20.89 69.602 0.093 7.48 54.99 8.44
6/3/2022 5:15:00 PM 20.89 69.602 0.094 7.46 64.72 8.38
6/3/2022 5:30:00 PM 20.86 69.548 0.094 7.44 70.9 8.33
6/3/2022 5:45:00 PM 20.9 69.62 0.094 7.44 43.97 8.32
6/3/2022 6:00:00 PM 20.88 69.584 0.094 7.43 71.51 8.27
6/3/2022 6:15:00 PM 20.86 69.548 0.094 7.42 68.92 8.27
6/3/2022 6:30:00 PM 20.82 69.476 0.095 7.43 66.48 8.25
6/3/2022 6:45:00 PM 20.77 69.386 0.095 7.41 49.8 8.23
6/3/2022 7:00:00 PM 20.72 69.296 0.095 7.41 36.25 8.21
6/3/2022 7:15:00 PM 20.67 69.206 0.095 7.4 31.42 8.21
6/3/2022 7:30:00 PM 20.61 69.098 0.095 7.4 44.27 8.21
6/3/2022 7:45:00 PM 20.55 68.99 0.095 7.4 536.47 8.21
6/3/2022 8:00:00 PM 20.49 68.882 0.095 7.38 55.03 8.21
6/3/2022 8:15:00 PM 20.42 68.756 0.096 7.38 25.05 8.21
6/3/2022 8:30:00 PM 20.34 68.612 0.096 7.37 22.49 8.21
6/3/2022 8:45:00 PM 20.27 68.486 0.096 7.37 22.23 8.19
6/3/2022 9:00:00 PM 20.18 68.324 0.096 7.36 26.07 8.2
6/3/2022 9:15:00 PM 20.08 68.144 0.096 7.35 18.29 8.21
6/3/2022 9:30:00 PM 19.98 67.964 0.096 7.36 21.73 8.22
6/3/2022 9:45:00 PM 19.88 67.784 0.097 7.34 26.13 8.22
6/3/2022 10:00:00 PM 19.78 67.604 0.097 7.35 21.44 8.24
6/3/2022 10:15:00 PM 19.68 67.424 0.097 7.35 24.92 8.25
6/3/2022 10:30:00 PM 19.57 67.226 0.097 7.34 21.1 8.26
6/3/2022 10:45:00 PM 19.47 67.046 0.097 7.33 37.68 8.26
6/3/2022 11:00:00 PM 19.35 66.83 0.098 7.33 30.74 8.29
6/3/2022 11:15:00 PM 19.24 66.632 0.098 7.33 19.99 8.31
6/3/2022 11:30:00 PM 19.13 66.434 0.098 7.32 19.05 8.33
6/3/2022 11:45:00 PM 19.01 66.218 0.098 7.33 55.8 8.35
6/4/2022 12:00:00 AM 18.9 66.02 0.098 7.32 27.81 8.38
6/4/2022 12:15:00 AM 18.79 65.82201 0.098 7.33 26.36 8.4
6/4/2022 12:30:00 AM 18.68 65.624 0.099 7.32 18.36 8.4
6/4/2022 12:45:00 AM 18.57 65.426 0.099 7.32 19.78 8.44
6/4/2022 1:00:00 AM 18.46 65.228 0.099 7.31 19.55 8.46
6/4/2022 1:15:00 AM 18.35 65.03 0.099 7.32 20.35 8.47
6/4/2022 1:30:00 AM 18.24 64.832 0.099 7.32 21.68 8.5
6/4/2022 1:45:00 AM 18.13 64.634 0.099 7.33 24.01 8.52
6/4/2022 2:00:00 AM 18.03 64.454 0.099 7.32 21.46 8.55
6/4/2022 2:15:00 AM 17.93 64.274 0.099 7.33 22.23 8.56
6/4/2022 2:30:00 AM 17.82 64.076 0.099 7.31 17.67 8.58
6/4/2022 2:45:00 AM 17.72 63.896 0.1 7.32 23.92 8.6
6/4/2022 3:00:00 AM 17.62 63.716 0.1 7.32 22.17 8.62
6/4/2022 3:15:00 AM 17.51 63.518 0.1 7.32 20.78 8.64
6/4/2022 3:30:00 AM 17.41 63.338 0.1 7.32 21.12 8.66
6/4/2022 3:45:00 AM 17.31 63.158 0.1 7.32 37.05 8.69
6/4/2022 4:00:00 AM 17.22 62.996 0.1 7.32 20.88 8.71
6/4/2022 4:15:00 AM 17.12 62.816 0.1 7.32 22.21 8.73
6/4/2022 4:30:00 AM 17.02 62.636 0.101 7.32 20.59 8.74
6/4/2022 4:45:00 AM 16.92 62.456 0.101 7.31 16.06 8.77
6/4/2022 5:00:00 AM 16.83 62.294 0.101 7.32 69.71 8.77
6/4/2022 5:15:00 AM 16.74 62.132 0.101 7.32 32.9 8.81
6/4/2022 5:30:00 AM 16.65 61.97 0.101 7.31 23.49 8.83
6/4/2022 5:45:00 AM 16.56 61.808 0.101 7.31 19.91 8.85
6/4/2022 6:00:00 AM 16.48 61.664 0.101 7.32 16.68 8.88
6/4/2022 6:15:00 AM 16.4 61.52 0.101 7.33 20.54 8.92
6/4/2022 6:30:00 AM 16.32 61.376 0.101 7.33 18.73 8.94
6/4/2022 6:45:00 AM 16.25 61.25 0.101 7.33 46.21 8.97
6/4/2022 7:00:00 AM 16.19 61.142 0.101 7.34 28.49 9.01
6/4/2022 7:15:00 AM 16.14 61.052 0.101 7.33 13.76 9.05
6/4/2022 7:30:00 AM 16.11 60.998 0.101 7.34 15.27 9.1
6/4/2022 7:45:00 AM 16.09 60.962 0.1 7.35 45.31 9.15
6/4/2022 8:00:00 AM 16.07 60.926 0.101 7.37 20.38 9.17
6/4/2022 8:15:00 AM 16.07 60.926 0.101 7.39 14.37 9.22
6/4/2022 8:30:00 AM 16.07 60.926 0.101 7.39 14.99 9.25
6/4/2022 8:45:00 AM 16.08 60.944 0.101 7.4 14.56 9.3
6/4/2022 9:00:00 AM 16.1 60.98 0.101 7.41 14.39 9.33
6/4/2022 9:15:00 AM 16.14 61.052 0.101 7.42 12.75 9.36
6/4/2022 9:30:00 AM 16.19 61.142 0.101 7.44 13.51 9.4
6/4/2022 9:45:00 AM 16.25 61.25 0.101 7.45 13.88 9.45
6/4/2022 10:00:00 AM 16.33 61.394 0.101 7.46 14.11 9.45
6/4/2022 10:15:00 AM 16.41 61.538 0.101 7.47 14.62 9.48
6/4/2022 10:30:00 AM 16.5 61.7 0.101 7.48 15.61 9.51
6/4/2022 10:45:00 AM 16.62 61.916 0.102 7.49 12.62 9.53
6/4/2022 11:00:00 AM 16.77 62.186 0.101 7.51 13.54 9.56
6/4/2022 11:15:00 AM 16.93 62.474 0.101 7.53 13.08 9.58
6/4/2022 11:30:00 AM 17.1 62.78 0.101 7.54 12.96 9.6
6/4/2022 11:45:00 AM 17.32 63.176 0.101 7.56 13.22 9.61
6/4/2022 12:00:00 PM 17.52 63.536 0.101 7.57 12.86 9.62
6/4/2022 12:15:00 PM 17.75 63.95 0.102 7.58 13 9.61
6/4/2022 12:30:00 PM 17.98 64.364 0.101 7.6 12.84 9.62
6/4/2022 12:45:00 PM 18.23 64.814 0.101 7.62 12.71 9.61
6/4/2022 1:00:00 PM 18.47 65.246 0.101 7.63 13.23 9.59
6/4/2022 1:15:00 PM 18.71 65.67799 0.101 7.65 27.6 9.59
6/4/2022 1:30:00 PM 18.93 66.074 0.101 7.67 20.19 9.56
6/4/2022 1:45:00 PM 19.14 66.452 0.101 7.66 15.96 9.54
6/4/2022 2:00:00 PM 19.31 66.758 0.101 7.69 11.79 9.51
6/4/2022 2:15:00 PM 19.49 67.082 0.101 7.69 11.88 9.47
6/4/2022 2:30:00 PM 19.66 67.388 0.101 7.69 11.39 9.4
6/4/2022 2:45:00 PM 19.8 67.64 0.101 7.69 10.77 9.39
6/4/2022 3:00:00 PM 19.94 67.892 0.101 7.69 13.14 9.32
6/4/2022 3:15:00 PM 20.02 68.036 0.101 7.69 24.65 9.24
6/4/2022 3:30:00 PM 20.12 68.216 0.102 7.69 21.6 9.22
6/4/2022 3:45:00 PM 20.16 68.288 0.101 7.67 22.61 9.17
6/4/2022 4:00:00 PM 20.21 68.378 0.101 7.66 13.83 9.14
6/4/2022 4:15:00 PM 20.22 68.396 0.101 7.65 11.74 9.05
6/4/2022 4:30:00 PM 20.22 68.396 0.102 7.63 10.1 8.98
6/4/2022 4:45:00 PM 20.21 68.378 0.101 7.61 9.69 8.91
6/4/2022 5:00:00 PM 20.21 68.378 0.101 7.59 8.33 8.85
6/4/2022 5:15:00 PM 20.21 68.378 0.101 7.56 11.25 8.78
6/4/2022 5:30:00 PM 20.2 68.36 0.101 7.56 8.84 8.72
6/4/2022 5:45:00 PM 20.19 68.342 0.101 7.53 9.39 8.66
6/4/2022 6:00:00 PM 20.17 68.306 0.101 7.52 8.9 8.62
6/4/2022 6:15:00 PM 20.15 68.27 0.102 7.5 11.36 8.57
6/4/2022 6:30:00 PM 20.13 68.234 0.102 7.47 8.67 8.53
6/4/2022 6:45:00 PM 20.11 68.198 0.102 7.48 9.29 8.48
6/4/2022 7:00:00 PM 20.07 68.126 0.102 7.46 10.28 8.46
6/4/2022 7:15:00 PM 20.03 68.054 0.102 7.45 13.25 8.42
6/4/2022 7:30:00 PM 19.97 67.946 0.102 7.43 21.46 8.37
6/4/2022 7:45:00 PM 19.91 67.838 0.102 7.43 17.43 8.33
6/4/2022 8:00:00 PM 19.85 67.73 0.102 7.42 100.78 8.35
6/4/2022 8:15:00 PM 19.78 67.604 0.102 7.42 11.12 8.35
6/4/2022 8:30:00 PM 19.7 67.46 0.102 7.41 11.38 8.34
6/4/2022 8:45:00 PM 19.62 67.316 0.102 7.4 10.17 8.33
6/4/2022 9:00:00 PM 19.55 67.19 0.102 7.38 10.24 8.31
6/4/2022 9:15:00 PM 19.47 67.046 0.102 7.38 11.05 8.31
6/4/2022 9:30:00 PM 19.38 66.884 0.102 7.37 11.63 8.3
6/4/2022 9:45:00 PM 19.3 66.74 0.102 7.36 12.81 8.3
6/4/2022 10:00:00 PM 19.2 66.56 0.102 7.35 12.62 8.32
6/4/2022 10:15:00 PM 19.11 66.398 0.102 7.35 11.18 8.32
6/4/2022 10:30:00 PM 19 66.2 0.102 7.35 12.46 8.33
6/4/2022 10:45:00 PM 18.9 66.02 0.102 7.34 12.98 8.34
6/4/2022 11:00:00 PM 18.78 65.804 0.102 7.35 11.7 8.37
6/4/2022 11:15:00 PM 18.67 65.606 0.102 7.33 12.9 8.39
6/4/2022 11:30:00 PM 18.55 65.39 0.102 7.33 11.85 8.4
6/4/2022 11:45:00 PM 18.42 65.156 0.103 7.34 12.27 8.41
6/5/2022 12:00:00 AM 18.29 64.922 0.103 7.33 12.77 8.45
6/5/2022 12:15:00 AM 18.17 64.706 0.103 7.33 10.15 8.47
6/5/2022 12:30:00 AM 18.05 64.49 0.103 7.33 12.84 8.48
6/5/2022 12:45:00 AM 17.91 64.238 0.103 7.33 11.84 8.52
6/5/2022 1:00:00 AM 17.79 64.022 0.103 7.33 10.5 8.52
6/5/2022 1:15:00 AM 17.67 63.806 0.103 7.33 10.75 8.57
6/5/2022 1:30:00 AM 17.55 63.59 0.103 7.32 11.1 8.59
6/5/2022 1:45:00 AM 17.44 63.392 0.103 7.32 12.02 8.62
6/5/2022 2:00:00 AM 17.32 63.176 0.103 7.32 13.46 8.64
6/5/2022 2:15:00 AM 17.2 62.96 0.103 7.32 11.47 8.67
6/5/2022 2:30:00 AM 17.1 62.78 0.103 7.32 10.68 8.69
6/5/2022 2:45:00 AM 17 62.6 0.103 7.32 10.65 8.7
6/5/2022 3:00:00 AM 16.91 62.438 0.103 7.32 13.73 8.74
6/5/2022 3:15:00 AM 16.81 62.258 0.103 7.31 10.9 8.75
6/5/2022 3:30:00 AM 16.73 62.114 0.103 7.31 10.06 8.77
6/5/2022 3:45:00 AM 16.64 61.952 0.103 7.32 10.14 8.8
6/5/2022 4:00:00 AM 16.55 61.79 0.103 7.31 11.52 8.82
6/5/2022 4:15:00 AM 16.46 61.628 0.103 7.32 11.39 8.84
6/5/2022 4:30:00 AM 16.38 61.484 0.103 7.3 13.45 8.83
6/5/2022 4:45:00 AM 16.3 61.34 0.103 7.32 20.73 8.85
6/5/2022 5:00:00 AM 16.24 61.232 0.103 7.31 12.35 8.88
6/5/2022 5:15:00 AM 16.16 61.088 0.103 7.32 12.74 8.91
6/5/2022 5:30:00 AM 16.08 60.944 0.103 7.32 12.02 8.93
6/5/2022 5:45:00 AM 16.01 60.818 0.103 7.32 11.68 8.96
6/5/2022 6:00:00 AM 15.94 60.692 0.103 7.33 10.37 8.97
6/5/2022 6:15:00 AM 15.87 60.566 0.103 7.32 9.24 9.01
6/5/2022 6:30:00 AM 15.79 60.422 0.103 7.34 9.07 9.07
6/5/2022 6:45:00 AM 15.74 60.332 0.103 7.34 9.3 9.12
6/5/2022 7:00:00 AM 15.69 60.242 0.103 7.35 8.66 9.16
6/5/2022 7:15:00 AM 15.65 60.17 0.103 7.37 8.63 9.23
6/5/2022 7:30:00 AM 15.63 60.134 0.103 7.36 8.23 9.28
6/5/2022 7:45:00 AM 15.61 60.098 0.103 7.39 9.08 9.33
6/5/2022 8:00:00 AM 15.56 60.008 0.103 7.4 8.76 9.37
6/5/2022 8:15:00 AM 15.56 60.008 0.103 7.41 8.37 9.44
6/5/2022 8:30:00 AM 15.55 59.99 0.103 7.43 8.07 9.49
6/5/2022 8:45:00 AM 15.59 60.062 0.103 7.44 7.94 9.55
6/5/2022 9:00:00 AM 15.63 60.134 0.103 7.46 7.6 9.58
6/5/2022 9:15:00 AM 15.64 60.152 0.103 7.47 11.21 9.62
6/5/2022 9:30:00 AM 15.73 60.314 0.103 7.48 8.26 9.68
6/5/2022 9:45:00 AM 15.75 60.35 0.103 7.5 8.51 9.73
6/5/2022 10:00:00 AM 15.8 60.44 0.103 7.52 8.21 9.76
6/5/2022 10:15:00 AM 15.82 60.476 0.103 7.53 7.98 9.79
6/5/2022 10:30:00 AM 15.93 60.674 0.103 7.55 8.78 9.86
6/5/2022 10:45:00 AM 15.98 60.764 0.103 7.59 14.25 9.89
6/5/2022 11:00:00 AM 16.02 60.836 0.103 7.6 10.48 9.91
6/5/2022 11:15:00 AM 16.06 60.908 0.103 7.63 9.59 9.96
6/5/2022 11:30:00 AM 16.2 61.16 0.103 7.64 8.51 9.96
6/5/2022 11:45:00 AM 16.34 61.412 0.103 7.68 7.32 10.02
6/5/2022 12:00:00 PM 16.5 61.7 0.103 7.69 7.05 10.03
6/5/2022 12:15:00 PM 16.67 62.006 0.103 7.68 7.24 10.02
6/5/2022 12:30:00 PM 16.82 62.276 0.103 7.73 7.08 10.06
6/5/2022 12:45:00 PM 16.94 62.492 0.103 7.74 7.06 10.05
6/5/2022 1:00:00 PM 17.09 62.762 0.103 7.75 7.3 10.04
6/5/2022 1:15:00 PM 17.25 63.05 0.103 7.78 7.15 10.04
6/5/2022 1:30:00 PM 17.49 63.482 0.103 7.78 7.27 10.03
6/5/2022 1:45:00 PM 17.67 63.806 0.103 7.8 6.85 10.01
6/5/2022 2:00:00 PM 17.82 64.076 0.103 7.82 6.6 10
6/5/2022 2:15:00 PM 18 64.4 0.103 7.83 6.89 9.97
6/5/2022 2:30:00 PM 18.1 64.58 0.103 7.84 7.37 9.93
6/5/2022 2:45:00 PM 18.24 64.832 0.103 7.84 7.07 9.91
6/5/2022 3:00:00 PM 18.32 64.976 0.103 7.82 7.17 9.88
6/5/2022 3:15:00 PM 18.41 65.138 0.103 7.83 6.74 9.8
6/5/2022 3:30:00 PM 18.54 65.372 0.103 7.77 7.07 9.76
6/5/2022 3:45:00 PM 18.65 65.57 0.103 7.82 6.91 9.7
6/5/2022 4:00:00 PM 18.63 65.534 0.103 7.8 7.21 9.66
6/5/2022 4:15:00 PM 18.64 65.552 0.103 7.77 9.28 9.55
6/5/2022 4:30:00 PM 18.66 65.588 0.103 7.75 7.38 9.5
6/5/2022 4:45:00 PM 18.65 65.57 0.103 7.72 8.2 9.37
6/5/2022 5:00:00 PM 18.61 65.498 0.103 7.68 8.52 9.29
6/5/2022 5:15:00 PM 18.6 65.48 0.103 7.64 13.4 9.21
6/5/2022 5:30:00 PM 18.61 65.498 0.103 7.61 15.17 9.11
6/5/2022 5:45:00 PM 18.62 65.516 0.103 7.61 8.22 8.89
6/5/2022 6:00:00 PM 18.62 65.516 0.103 7.58 7.94 9.03
6/5/2022 6:15:00 PM 18.62 65.516 0.103 7.55 8.29 8.99
6/5/2022 6:30:00 PM 18.63 65.534 0.103 7.53 13.29 8.89
6/5/2022 6:45:00 PM 18.62 65.516 0.103 7.52 6.13 8.86
6/5/2022 7:00:00 PM 18.62 65.516 0.103 7.51 10.21 8.73
6/5/2022 7:15:00 PM 18.6 65.48 0.103 7.49 7.63 8.75
6/5/2022 7:30:00 PM 18.58 65.444 0.103 7.47 7.81 8.66
6/5/2022 7:45:00 PM 18.55 65.39 0.103 7.47 6.29 8.69
6/5/2022 8:00:00 PM 18.51 65.318 0.103 7.44 5.75 8.71
6/5/2022 8:15:00 PM 18.46 65.228 0.103 7.43 12.54 8.64
6/5/2022 8:30:00 PM 18.41 65.138 0.103 7.4 5.4 8.64
6/5/2022 8:45:00 PM 18.34 65.012 0.103 7.41 5.51 8.62
6/5/2022 9:00:00 PM 18.27 64.886 0.103 7.4 5.48 8.61
6/5/2022 9:15:00 PM 18.21 64.778 0.103 7.39 5.4 8.58
6/5/2022 9:30:00 PM 18.15 64.67 0.103 7.38 6.13 8.57
6/5/2022 9:45:00 PM 18.08 64.544 0.103 7.37 5.79 8.57
6/5/2022 10:00:00 PM 18.03 64.454 0.103 7.37 6.1 8.55
6/5/2022 10:15:00 PM 17.98 64.364 0.103 7.36 6.34 8.54
6/5/2022 10:30:00 PM 17.92 64.256 0.103 7.36 6.75 8.55
6/5/2022 10:45:00 PM 17.85 64.13 0.103 7.34 6.44 8.55
6/5/2022 11:00:00 PM 17.79 64.022 0.103 7.34 7.13 8.54
6/5/2022 11:15:00 PM 17.73 63.914 0.103 7.34 6.49 8.57
6/5/2022 11:30:00 PM 17.66 63.788 0.103 7.34 6.31 8.58
6/5/2022 11:45:00 PM 17.59 63.662 0.103 7.33 7.22 8.56
6/6/2022 12:00:00 AM 17.52 63.536 0.103 7.33 7.91 8.6
6/6/2022 12:15:00 AM 17.44 63.392 0.103 7.33 6.08 8.62
6/6/2022 12:30:00 AM 17.36 63.248 0.103 7.33 7.08 8.62
6/6/2022 12:45:00 AM 17.27 63.086 0.103 7.32 6.22 8.62
6/6/2022 1:00:00 AM 17.18 62.924 0.103 7.32 7.21 8.65
6/6/2022 1:15:00 AM 17.09 62.762 0.104 7.32 6.08 8.67
6/6/2022 1:30:00 AM 17.01 62.618 0.103 7.32 6.71 8.68
6/6/2022 1:45:00 AM 16.92 62.456 0.104 7.32 6.42 8.72
6/6/2022 2:00:00 AM 16.82 62.276 0.104 7.32 6.77 8.72
6/6/2022 2:15:00 AM 16.73 62.114 0.104 7.32 6.21 8.73
6/6/2022 2:30:00 AM 16.64 61.952 0.104 7.31 11.75 8.73
6/6/2022 2:45:00 AM 16.55 61.79 0.104 7.32 6.14 8.78
6/6/2022 3:00:00 AM 16.46 61.628 0.104 7.31 6.61 8.82
6/6/2022 3:15:00 AM 16.38 61.484 0.104 7.31 6.24 8.83
6/6/2022 3:30:00 AM 16.29 61.322 0.104 7.31 7.42 8.84
6/6/2022 3:45:00 AM 16.2 61.16 0.104 7.31 6.33 8.85
6/6/2022 4:00:00 AM 16.12 61.016 0.104 7.31 7.93 8.89
6/6/2022 4:15:00 AM 16.04 60.872 0.104 7.31 6.54 8.92
6/6/2022 4:30:00 AM 15.96 60.728 0.104 7.31 7.79 8.87
6/6/2022 4:45:00 AM 15.88 60.584 0.104 7.31 8.37 8.88
6/6/2022 5:00:00 AM 15.8 60.44 0.104 7.31 6.2 8.97
6/6/2022 5:15:00 AM 15.72 60.296 0.104 7.31 11.6 8.97
6/6/2022 5:30:00 AM 15.65 60.17 0.104 7.31 8.75 8.97
6/6/2022 5:45:00 AM 15.58 60.044 0.104 7.31 6.09 9
6/6/2022 6:00:00 AM 15.5 59.9 0.104 7.32 7.1 9.03
6/6/2022 6:15:00 AM 15.44 59.792 0.105 7.32 5.53 9.06
6/6/2022 6:30:00 AM 15.37 59.666 0.104 7.31 5.58 9.13
6/6/2022 6:45:00 AM 15.33 59.594 0.104 7.33 5.78 9.15
6/6/2022 7:00:00 AM 15.28 59.504 0.104 7.34 5.99 9.23
6/6/2022 7:15:00 AM 15.25 59.45 0.104 7.35 5.76 9.29
6/6/2022 7:30:00 AM 15.24 59.432 0.104 7.37 5.13 9.34
6/6/2022 7:45:00 AM 15.24 59.432 0.104 7.37 5.02 9.39
6/6/2022 8:00:00 AM 15.25 59.45 0.104 7.39 5.62 9.42
6/6/2022 8:15:00 AM 15.27 59.486 0.104 7.4 5.16 9.48
6/6/2022 8:30:00 AM 15.3 59.54 0.104 7.42 5.04 9.52
6/6/2022 8:45:00 AM 15.35 59.63 0.104 7.42 4.94 9.56
6/6/2022 9:00:00 AM 15.4 59.72 0.104 7.44 4.89 9.6
6/6/2022 9:15:00 AM 15.47 59.846 0.104 7.45 4.71 9.66
6/6/2022 9:30:00 AM 15.56 60.008 0.104 7.47 4.64 9.7
6/6/2022 9:45:00 AM 15.66 60.188 0.104 7.49 4.77 9.73
6/6/2022 10:00:00 AM 15.75 60.35 0.104 7.49 6.16 9.74
6/6/2022 10:15:00 AM 15.85 60.53 0.104 7.52 13.4 9.8
6/6/2022 10:30:00 AM 15.96 60.728 0.104 7.53 8.58 9.83
6/6/2022 10:45:00 AM 16.12 61.016 0.104 7.56 5.38 9.87
6/6/2022 11:00:00 AM 16.31 61.358 0.104 7.57 30.56 9.88
6/6/2022 11:15:00 AM 16.48 61.664 0.104 7.59 5.08 9.94
6/6/2022 11:30:00 AM 16.67 62.006 0.104 7.61 4.71 9.93
6/6/2022 11:45:00 AM 16.86 62.348 0.104 7.63 4.58 9.99
6/6/2022 12:00:00 PM 17.03 62.654 0.104 7.65 4.11 9.98
6/6/2022 12:15:00 PM 17.29 63.122 0.104 7.68 4.45 10.01
6/6/2022 12:30:00 PM 17.52 63.536 0.104 7.7 4.26 9.99
6/6/2022 12:45:00 PM 17.77 63.986 0.104 7.72 4.13 10.01
6/6/2022 1:00:00 PM 18 64.4 0.104 7.73 4.2 9.98
6/6/2022 1:15:00 PM 18.3 64.94 0.104 7.77 7.77 9.97
6/6/2022 1:30:00 PM 18.54 65.372 0.104 7.79 4.51 9.93
6/6/2022 1:45:00 PM 18.8 65.84 0.104 7.8 4.95 9.96
6/6/2022 2:00:00 PM 18.97 66.146 0.104 7.82 4.37 9.92
6/6/2022 2:15:00 PM 19.12 66.416 0.104 7.84 4.4 9.91
6/6/2022 2:30:00 PM 19.3 66.74 0.104 7.84 4 9.87
6/6/2022 2:45:00 PM 19.47 67.046 0.104 7.87 4.27 9.81
6/6/2022 3:00:00 PM 19.59 67.262 0.104 7.88 4.17 9.82
6/6/2022 3:15:00 PM 19.7 67.46 0.104 7.88 4.4 9.76
6/6/2022 3:30:00 PM 19.75 67.55 0.104 7.88 4.13 9.74
6/6/2022 3:45:00 PM 19.76 67.568 0.104 7.88 4.26 9.69
6/6/2022 4:00:00 PM 19.8 67.64 0.104 7.88 11.14 9.61
6/6/2022 4:15:00 PM 19.78 67.604 0.104 7.86 5.34 9.56
6/6/2022 4:30:00 PM 19.77 67.586 0.104 7.84 6.81 9.48
6/6/2022 4:45:00 PM 19.75 67.55 0.104 7.82 5.84 9.41
6/6/2022 5:00:00 PM 19.7 67.46 0.104 7.8 5.99 9.34
6/6/2022 5:15:00 PM 19.68 67.424 0.103 7.76 6.33 9.26
6/6/2022 5:30:00 PM 19.67 67.406 0.104 7.74 6.59 9.21
6/6/2022 5:45:00 PM 19.65 67.37 0.104 7.72 7.18 9.15
6/6/2022 6:00:00 PM 19.63 67.334 0.104 7.69 11.4 9.04
6/6/2022 6:15:00 PM 19.63 67.334 0.104 7.67 7.72 9.05
6/6/2022 6:30:00 PM 19.63 67.334 0.103 7.64 7.58 8.97
6/6/2022 6:45:00 PM 19.61 67.298 0.104 7.6 7.84 8.92
6/6/2022 7:00:00 PM 19.6 67.28 0.104 7.6 8.52 8.87
6/6/2022 7:15:00 PM 19.57 67.226 0.104 7.58 7.9 8.84
6/6/2022 7:30:00 PM 19.53 67.154 0.104 7.57 6.89 8.76
6/6/2022 7:45:00 PM 19.49 67.082 0.104 7.54 6.95 8.69
6/6/2022 8:00:00 PM 19.45 67.01 0.104 7.52 6.84 8.64
6/6/2022 8:15:00 PM 19.4 66.92 0.104 7.5 6.45 8.6
6/6/2022 8:30:00 PM 19.35 66.83 0.104 7.47 6.26 8.56
6/6/2022 8:45:00 PM 19.31 66.758 0.104 7.45 12.16 8.46
6/6/2022 9:00:00 PM 19.26 66.668 0.104 7.44 6.54 8.47
6/6/2022 9:15:00 PM 19.21 66.578 0.104 7.42 6.75 8.43
6/6/2022 9:30:00 PM 19.17 66.506 0.104 7.41 6.84 8.41
6/6/2022 9:45:00 PM 19.14 66.452 0.104 7.4 6.09 8.4
6/6/2022 10:00:00 PM 19.11 66.398 0.104 7.39 6.85 8.39
6/6/2022 10:15:00 PM 19.07 66.326 0.105 7.38 6.46 8.36
6/6/2022 10:30:00 PM 19.04 66.272 0.104 7.37 6.62 8.34
6/6/2022 10:45:00 PM 19.01 66.218 0.105 7.36 6.39 8.34
6/6/2022 11:00:00 PM 18.98 66.164 0.105 7.36 5.72 8.28
6/6/2022 11:15:00 PM 18.95 66.11 0.105 7.37 5.79 8.34
6/6/2022 11:30:00 PM 18.92 66.056 0.105 7.36 5.68 8.34
6/6/2022 11:45:00 PM 18.89 66.002 0.105 7.35 6.72 8.35
6/7/2022 12:00:00 AM 18.85 65.93 0.105 7.35 7.33 8.34
6/7/2022 12:15:00 AM 18.8 65.84 0.105 7.34 7.31 8.33
6/7/2022 12:30:00 AM 18.75 65.75 0.105 7.34 6.07 8.34
6/7/2022 12:45:00 AM 18.71 65.67799 0.105 7.33 6.04 8.33
6/7/2022 1:00:00 AM 18.65 65.57 0.105 7.33 5.48 8.33
6/7/2022 1:15:00 AM 18.59 65.462 0.105 7.32 5.43 8.36
6/7/2022 1:30:00 AM 18.53 65.354 0.105 7.33 5.92 8.35
6/7/2022 1:45:00 AM 18.45 65.21 0.105 7.32 5.59 8.36
6/7/2022 2:00:00 AM 18.39 65.102 0.105 7.32 5.94 8.39
6/7/2022 2:15:00 AM 18.31 64.958 0.106 7.32 6.32 8.37
6/7/2022 2:30:00 AM 18.23 64.814 0.105 7.32 7.06 8.36
6/7/2022 2:45:00 AM 18.16 64.688 0.105 7.31 6.04 8.42
6/7/2022 3:00:00 AM 18.08 64.544 0.105 7.31 6.79 8.44
6/7/2022 3:15:00 AM 18 64.4 0.105 7.32 6.22 8.47
6/7/2022 3:30:00 AM 17.92 64.256 0.105 7.31 6.34 8.45
6/7/2022 3:45:00 AM 17.84 64.112 0.105 7.32 6.18 8.45
6/7/2022 4:00:00 AM 17.76 63.968 0.105 7.31 6.25 8.44
6/7/2022 4:15:00 AM 17.68 63.824 0.105 7.31 5.93 8.52
6/7/2022 4:30:00 AM 17.6 63.68 0.105 7.31 5.39 8.53
6/7/2022 4:45:00 AM 17.52 63.536 0.106 7.31 6.9 8.55
6/7/2022 5:00:00 AM 17.45 63.41 0.106 7.31 20.08 8.57
6/7/2022 5:15:00 AM 17.37 63.266 0.106 7.3 8.3 8.58
6/7/2022 5:30:00 AM 17.28 63.104 0.106 7.31 9.61 8.6
6/7/2022 5:45:00 AM 17.21 62.978 0.106 7.31 6.56 8.62
6/7/2022 6:00:00 AM 17.14 62.852 0.106 7.32 5.98 8.64
6/7/2022 6:15:00 AM 17.09 62.762 0.106 7.32 6.02 8.7
6/7/2022 6:30:00 AM 17.05 62.69 0.106 7.33 7.93 8.76
6/7/2022 6:45:00 AM 17.01 62.618 0.106 7.34 5.24 8.82
6/7/2022 7:00:00 AM 16.97 62.546 0.106 7.35 5.45 8.81
6/7/2022 7:15:00 AM 16.94 62.492 0.106 7.36 5.7 8.96
6/7/2022 7:30:00 AM 16.97 62.546 0.106 7.38 5.18 9.06
6/7/2022 7:45:00 AM 16.99 62.582 0.106 7.4 4.95 9.14
6/7/2022 8:00:00 AM 16.98 62.564 0.106 7.41 5.47 9.18
6/7/2022 8:15:00 AM 16.97 62.546 0.106 7.42 4.98 9.17
6/7/2022 8:30:00 AM 17.01 62.618 0.106 7.44 4.77 9.28
6/7/2022 8:45:00 AM 17.08 62.744 0.106 7.48 4.95 9.38
6/7/2022 9:00:00 AM 17.17 62.906 0.105 7.51 5.3 9.44
6/7/2022 9:15:00 AM 17.15 62.87 0.106 7.53 5.14 9.47
6/7/2022 9:30:00 AM 17.15 62.87 0.106 7.54 6.45 9.54
6/7/2022 9:45:00 AM 17.2 62.96 0.106 7.57 5.48 9.54
6/7/2022 10:00:00 AM 17.24 63.032 0.106 7.58 5.26 9.59
6/7/2022 10:15:00 AM 17.24 63.032 0.106 7.61 4.35 9.63
6/7/2022 10:30:00 AM 17.27 63.086 0.106 7.62 5.91 9.66
6/7/2022 10:45:00 AM 17.44 63.392 0.105 7.64 4.08 9.7
6/7/2022 11:00:00 AM 17.58 63.644 0.106 7.66 4.3 9.73
6/7/2022 11:15:00 AM 17.55 63.59 0.105 7.69 4.82 9.76
6/7/2022 11:30:00 AM 17.52 63.536 0.105 7.69 4.98 9.74
6/7/2022 11:45:00 AM 17.55 63.59 0.105 7.72 4.59 9.75
6/7/2022 12:00:00 PM 17.55 63.59 0.105 7.73 4.2 9.76
6/7/2022 12:15:00 PM 17.55 63.59 0.106 7.72 4.12 9.72
6/7/2022 12:30:00 PM 17.55 63.59 0.105 7.65 4.1 9.67
6/7/2022 12:45:00 PM 17.57 63.626 0.105 7.7 4.18 9.68
6/7/2022 1:00:00 PM 17.6 63.68 0.105 7.71 3.94 9.67
6/7/2022 1:15:00 PM 17.61 63.698 0.105 7.7 4.22 9.63
6/7/2022 1:30:00 PM 17.62 63.716 0.105 7.71 4.03 9.6
6/7/2022 1:45:00 PM 17.66 63.788 0.105 7.73 4.17 9.64
6/7/2022 2:00:00 PM 17.65 63.77 0.105 7.71 3.62 9.56
6/7/2022 2:15:00 PM 17.62 63.716 0.105 7.65 4.74 9.42
6/7/2022 2:30:00 PM 17.61 63.698 0.105 7.61 4.87 9.37
6/7/2022 2:45:00 PM 17.64 63.752 0.104 7.58 11.05 9.35
6/7/2022 3:00:00 PM 17.73 63.914 0.104 7.63 5.69 9.46
6/7/2022 3:15:00 PM 17.79 64.022 0.105 7.65 7.14 9.44
6/7/2022 3:30:00 PM 17.79 64.022 0.104 7.66 5.18 9.47
6/7/2022 3:45:00 PM 17.8 64.04 0.104 7.65 5.58 9.47
6/7/2022 4:00:00 PM 17.82 64.076 0.104 7.66 4.98 9.45
6/7/2022 4:15:00 PM 17.8 64.04 0.104 7.63 5.87 9.35
6/7/2022 4:30:00 PM 17.79 64.022 0.103 7.59 5.8 9.24
6/7/2022 4:45:00 PM 17.77 63.986 0.104 7.55 4.89 9.18
6/7/2022 5:00:00 PM 17.78 64.004 0.103 7.52 5.62 9.08
6/7/2022 5:15:00 PM 17.76 63.968 0.104 7.5 4.93 9
6/7/2022 5:30:00 PM 17.76 63.968 0.104 7.49 5.34 8.97
6/7/2022 5:45:00 PM 17.75 63.95 0.104 7.47 5.42 8.94
6/7/2022 6:00:00 PM 17.74 63.932 0.104 7.43 5.4 8.88
6/7/2022 6:15:00 PM 17.74 63.932 0.103 7.43 10.62 8.84
6/7/2022 6:30:00 PM 17.73 63.914 0.104 7.43 8.11 8.81
6/7/2022 6:45:00 PM 17.74 63.932 0.103 7.41 6.37 8.79
6/7/2022 7:00:00 PM 17.73 63.914 0.103 7.41 8.22 8.78
6/7/2022 7:15:00 PM 17.72 63.896 0.103 7.4 25.14 8.75
6/7/2022 7:30:00 PM 17.7 63.86 0.103 7.38 6.77 8.73
6/7/2022 7:45:00 PM 17.69 63.842 0.103 7.37 6.45 8.69
6/7/2022 8:00:00 PM 17.68 63.824 0.104 7.38 6.77 8.68
6/7/2022 8:15:00 PM 17.67 63.806 0.104 7.36 7.21 8.65
6/7/2022 8:30:00 PM 17.67 63.806 0.105 7.36 8.32 8.64
6/7/2022 8:45:00 PM 17.65 63.77 0.106 7.37 10.41 8.62
6/7/2022 9:00:00 PM 17.64 63.752 0.106 7.37 8.51 8.63
6/7/2022 9:15:00 PM 17.61 63.698 0.106 7.36 10.55 8.63
6/7/2022 9:30:00 PM 17.59 63.662 0.107 7.36 9.75 8.63
6/7/2022 9:45:00 PM 17.57 63.626 0.107 7.35 10.09 8.63
6/7/2022 10:00:00 PM 17.55 63.59 0.107 7.36 10.15 8.65
6/7/2022 10:15:00 PM 17.53 63.554 0.108 7.35 11.01 8.65
6/7/2022 10:30:00 PM 17.51 63.518 0.107 7.35 12.68 8.67
6/7/2022 10:45:00 PM 17.48 63.464 0.107 7.35 12.95 8.67
6/7/2022 11:00:00 PM 17.46 63.428 0.108 7.35 11.78 8.69
6/7/2022 11:15:00 PM 17.44 63.392 0.108 7.35 11.86 8.69
6/7/2022 11:30:00 PM 17.42 63.356 0.108 7.35 13.06 8.7
6/7/2022 11:45:00 PM 17.4 63.32 0.108 7.35 14.75 8.71
6/8/2022 12:00:00 AM 17.39 63.302 0.107 7.32 18.96 8.72
6/8/2022 12:15:00 AM 17.37 63.266 0.107 7.33 11.64 8.74
6/8/2022 12:30:00 AM 17.35 63.23 0.108 7.35 17.65 8.74
6/8/2022 12:45:00 AM 17.32 63.176 0.107 7.35 14.06 8.74
6/8/2022 1:00:00 AM 17.3 63.14 0.107 7.35 82.13 8.76
6/8/2022 1:15:00 AM 17.28 63.104 0.107 7.34 14.83 8.76
6/8/2022 1:30:00 AM 17.26 63.068 0.107 7.35 15.45 8.78
6/8/2022 1:45:00 AM 17.24 63.032 0.107 7.35 15.83 8.78
6/8/2022 2:00:00 AM 17.22 62.996 0.106 7.35 17.52 8.79
6/8/2022 2:15:00 AM 17.19 62.942 0.107 7.35 19.51 8.8
6/8/2022 2:30:00 AM 17.16 62.888 0.107 7.35 19.2 8.8
6/8/2022 2:45:00 AM 17.14 62.852 0.107 7.35 15.38 8.8
6/8/2022 3:00:00 AM 17.12 62.816 0.106 7.33 14.54 8.81
6/8/2022 3:15:00 AM 17.1 62.78 0.106 7.34 21.96 8.82
6/8/2022 3:30:00 AM 17.07 62.726 0.106 7.34 15.85 8.82
6/8/2022 3:45:00 AM 17.05 62.69 0.106 7.33 16.61 8.82
6/8/2022 4:00:00 AM 17.03 62.654 0.105 7.32 24.54 8.82
6/8/2022 4:15:00 AM 17.02 62.636 0.104 7.34 12.63 8.83
6/8/2022 4:30:00 AM 17.01 62.618 0.104 7.33 17.85 8.84
6/8/2022 4:45:00 AM 17.01 62.618 0.104 7.33 15.72 8.84
6/8/2022 5:00:00 AM 17 62.6 0.103 7.32 15.5 8.84
6/8/2022 5:15:00 AM 16.98 62.564 0.103 7.33 16.13 8.84
6/8/2022 5:30:00 AM 16.97 62.546 0.103 7.33 15.34 8.84
6/8/2022 5:45:00 AM 16.97 62.546 0.103 7.33 16.27 8.84
6/8/2022 6:00:00 AM 16.96 62.528 0.102 7.33 35.25 8.86
6/8/2022 6:15:00 AM 16.93 62.474 0.102 7.34 15.14 8.88
6/8/2022 6:30:00 AM 16.91 62.438 0.102 7.35 29.27 8.89
6/8/2022 6:45:00 AM 16.88 62.384 0.102 7.36 15.19 8.92
6/8/2022 7:00:00 AM 16.86 62.348 0.102 7.37 17.98 8.95
6/8/2022 7:15:00 AM 16.85 62.33 0.102 7.38 16.86 8.97
6/8/2022 7:30:00 AM 16.85 62.33 0.102 7.39 19.81 9.02
6/8/2022 7:45:00 AM 16.85 62.33 0.102 7.41 19.29 9.06
6/8/2022 8:00:00 AM 16.85 62.33 0.102 7.41 17.43 9.09
6/8/2022 8:15:00 AM 16.85 62.33 0.102 7.43 18.69 9.13
6/8/2022 8:30:00 AM 16.87 62.366 0.102 7.44 17.67 9.16
6/8/2022 8:45:00 AM 16.89 62.402 0.102 7.45 16.4 9.2
6/8/2022 9:00:00 AM 16.93 62.474 0.102 7.46 15.13 9.24
6/8/2022 9:15:00 AM 16.97 62.546 0.102 7.48 14.67 9.28
6/8/2022 9:30:00 AM 17.02 62.636 0.102 7.49 14.61 9.32
6/8/2022 9:45:00 AM 17.02 62.636 0.102 7.5 14.38 9.35
6/8/2022 10:00:00 AM 17.11 62.798 0.102 7.52 14.61 9.4
6/8/2022 10:15:00 AM 17.12 62.816 0.102 7.53 14.3 9.43
6/8/2022 10:30:00 AM 17.3 63.14 0.102 7.56 14.18 9.51
6/8/2022 10:45:00 AM 17.39 63.302 0.102 7.59 14.2 9.55
6/8/2022 11:00:00 AM 17.54 63.572 0.102 7.61 13.52 9.61
6/8/2022 11:15:00 AM 17.64 63.752 0.102 7.63 14.41 9.64
6/8/2022 11:30:00 AM 17.82 64.076 0.102 7.66 14.04 9.67
6/8/2022 11:45:00 AM 17.96 64.328 0.102 7.68 14.22 9.7
6/8/2022 12:00:00 PM 18.12 64.616 0.101 7.7 14.17 9.72
6/8/2022 12:15:00 PM 18.38 65.084 0.102 7.73 13.8 9.74
6/8/2022 12:30:00 PM 18.68 65.624 0.102 7.75 13.64 9.75
6/8/2022 12:45:00 PM 18.83 65.894 0.102 7.78 13.81 9.75
6/8/2022 1:00:00 PM 19.07 66.326 0.102 7.78 14.02 9.75
6/8/2022 1:15:00 PM 19.27 66.686 0.101 7.79 13.69 9.74
6/8/2022 1:30:00 PM 19.49 67.082 0.101 7.83 13.69 9.72
6/8/2022 1:45:00 PM 19.72 67.496 0.101 7.85 13.37 9.71
6/8/2022 2:00:00 PM 19.92 67.856 0.101 7.87 13.37 9.69
6/8/2022 2:15:00 PM 20.12 68.216 0.101 7.88 13.4 9.66
6/8/2022 2:30:00 PM 20.29 68.522 0.101 7.89 14.44 9.62
6/8/2022 2:45:00 PM 20.41 68.738 0.101 7.9 14.32 9.57
6/8/2022 3:00:00 PM 20.54 68.972 0.101 7.84 14.57 9.52
6/8/2022 3:15:00 PM 20.62 69.116 0.102 7.87 14.84 9.46
6/8/2022 3:30:00 PM 20.7 69.26 0.101 7.86 14.66 9.39
6/8/2022 3:45:00 PM 20.74 69.332 0.101 7.83 15.68 9.32
6/8/2022 4:00:00 PM 20.8 69.44 0.101 7.82 26.54 9.25
6/8/2022 4:15:00 PM 20.79 69.422 0.101 7.79 17.16 9.16
6/8/2022 4:30:00 PM 20.79 69.422 0.102 7.77 17.84 9.04
6/8/2022 4:45:00 PM 20.78 69.404 0.101 7.74 15.5 8.89
6/8/2022 5:00:00 PM 20.77 69.386 0.101 7.68 13.28 8.86
6/8/2022 5:15:00 PM 20.75 69.35 0.102 7.63 11.44 8.79
6/8/2022 5:30:00 PM 20.74 69.332 0.101 7.63 12.28 8.7
6/8/2022 5:45:00 PM 20.73 69.314 0.101 7.58 10.61 8.64
6/8/2022 6:00:00 PM 20.74 69.332 0.101 7.56 10.65 8.58
6/8/2022 6:15:00 PM 20.73 69.314 0.101 7.54 9.51 8.51
6/8/2022 6:30:00 PM 20.71 69.278 0.101 7.53 9.37 8.46
6/8/2022 6:45:00 PM 20.68 69.224 0.102 7.52 9.44 8.42
6/8/2022 7:00:00 PM 20.66 69.188 0.102 7.5 10.76 8.37
6/8/2022 7:15:00 PM 20.62 69.116 0.102 7.47 9.76 8.33
6/8/2022 7:30:00 PM 20.58 69.044 0.102 7.47 9.27 8.32
6/8/2022 7:45:00 PM 20.53 68.954 0.102 7.46 10.69 8.29
6/8/2022 8:00:00 PM 20.48 68.864 0.102 7.44 9.74 8.26
6/8/2022 8:15:00 PM 20.42 68.756 0.102 7.43 9.38 8.24
6/8/2022 8:30:00 PM 20.37 68.666 0.102 7.42 10.23 8.19
6/8/2022 8:45:00 PM 20.3 68.54 0.102 7.41 9.81 8.17
6/8/2022 9:00:00 PM 20.24 68.432 0.102 7.4 10.33 8.16
6/8/2022 9:15:00 PM 20.18 68.324 0.102 7.39 11.73 8.14
6/8/2022 9:30:00 PM 20.12 68.216 0.102 7.37 10.17 8.13
6/8/2022 9:45:00 PM 20.06 68.108 0.102 7.37 9.85 8.11
6/8/2022 10:00:00 PM 20 68 0.102 7.36 9.78 8.12
6/8/2022 10:15:00 PM 19.95 67.91 0.102 7.36 10.16 8.12
6/8/2022 10:30:00 PM 19.89 67.802 0.102 7.35 10.9 8.11
6/8/2022 10:45:00 PM 19.84 67.712 0.102 7.35 10.74 8.11
6/8/2022 11:00:00 PM 19.79 67.622 0.103 7.34 11.7 8.1
6/8/2022 11:15:00 PM 19.73 67.514 0.103 7.33 10.78 8.11
6/8/2022 11:30:00 PM 19.68 67.424 0.102 7.34 9.99 8.11
6/8/2022 11:45:00 PM 19.63 67.334 0.103 7.34 12.2 8.12
6/9/2022 12:00:00 AM 19.54 67.172 0.102 7.32 10.67 8.15
6/9/2022 12:15:00 AM 19.49 67.082 0.103 7.34 10.08 8.15
6/9/2022 12:30:00 AM 19.44 66.992 0.103 7.34 17.44 8.15
6/9/2022 12:45:00 AM 19.37 66.866 0.103 7.33 10.99 8.16
6/9/2022 1:00:00 AM 19.3 66.74 0.103 7.34 11.91 8.18
6/9/2022 1:15:00 AM 19.22 66.596 0.102 7.33 11.48 8.2
6/9/2022 1:30:00 AM 19.14 66.452 0.102 7.33 12.25 8.21
6/9/2022 1:45:00 AM 19.05 66.29 0.101 7.32 11.51 8.23
6/9/2022 2:00:00 AM 18.94 66.092 0.1 7.32 14.27 8.29
6/9/2022 2:15:00 AM 18.84 65.912 0.099 7.33 13.3 8.31
6/9/2022 2:30:00 AM 18.74 65.732 0.099 7.32 15.38 8.32
6/9/2022 2:45:00 AM 18.62 65.516 0.099 7.31 17.8 8.36
6/9/2022 3:00:00 AM 18.54 65.372 0.1 7.32 22.9 8.36
6/9/2022 3:15:00 AM 18.46 65.228 0.102 7.32 22.4 8.35
6/9/2022 3:30:00 AM 18.37 65.066 0.105 7.33 31.86 8.36
6/9/2022 3:45:00 AM 18.25 64.85 0.11 7.34 48.16 8.38
6/9/2022 4:00:00 AM 18.08 64.544 0.114 7.38 91.74 8.44
6/9/2022 4:15:00 AM 17.89 64.202 0.121 7.38 348.19 8.51
6/9/2022 4:30:00 AM 17.79 64.022 0.129 7.38 110.26 8.55
6/9/2022 4:45:00 AM 17.72 63.896 0.122 7.4 117.09 8.58
6/9/2022 5:00:00 AM 17.68 63.824 0.121 7.4 125.57 8.58
6/9/2022 5:15:00 AM 17.64 63.752 0.119 7.38 108.57 8.61
6/9/2022 5:30:00 AM 17.58 63.644 0.117 7.37 107.38 8.63
6/9/2022 5:45:00 AM 17.5 63.5 0.115 7.35 115.43 8.65
6/9/2022 6:00:00 AM 17.42 63.356 0.113 7.36 128.56 8.67
6/9/2022 6:15:00 AM 17.35 63.23 0.113 7.43 147.89 8.7
6/9/2022 6:30:00 AM 17.29 63.122 0.113 7.48 116.01 8.73
6/9/2022 6:45:00 AM 17.23 63.014 0.111 7.49 120.1 8.76
6/9/2022 7:00:00 AM 17.17 62.906 0.109 7.46 127.32 8.78
6/9/2022 7:15:00 AM 17.1 62.78 0.105 7.43 108.03 8.82
6/9/2022 7:30:00 AM 17.02 62.636 0.102 7.4 139.28 8.85
6/9/2022 7:45:00 AM 16.93 62.474 0.101 7.38 91.41 8.89
6/9/2022 8:00:00 AM 16.88 62.384 0.099 7.37 100.4 8.91
6/9/2022 8:15:00 AM 16.87 62.366 0.098 7.35 76.51 8.91
6/9/2022 8:30:00 AM 16.9 62.42 0.097 7.36 98.35 8.92
6/9/2022 8:45:00 AM 16.91 62.438 0.097 7.37 63.22 8.93
6/9/2022 9:00:00 AM 16.93 62.474 0.097 7.36 135.33 8.93
6/9/2022 9:15:00 AM 16.96 62.528 0.096 7.36 71.56 8.94
6/9/2022 9:30:00 AM 16.99 62.582 0.097 7.37 63.17 8.95
6/9/2022 9:45:00 AM 17.05 62.69 0.097 7.38 56.81 8.96
6/9/2022 10:00:00 AM 17.1 62.78 0.098 7.39 57.97 8.96
6/9/2022 10:15:00 AM 17.14 62.852 0.098 7.39 54.97 8.99
6/9/2022 10:30:00 AM 17.16 62.888 0.098 7.39 48.8 8.98
6/9/2022 10:45:00 AM 17.24 63.032 0.097 7.4 48.65 9.01
6/9/2022 11:00:00 AM 17.3 63.14 0.096 7.4 48.16 9.02
6/9/2022 11:15:00 AM 17.37 63.266 0.096 7.42 45.59 9.05
6/9/2022 11:30:00 AM 17.39 63.302 0.096 7.41 57.12 9.04
6/9/2022 11:45:00 AM 17.5 63.5 0.096 7.43 44.07 9.06
6/9/2022 12:00:00 PM 17.55 63.59 0.096 7.43 40.91 9.07
6/9/2022 12:15:00 PM 17.76 63.968 0.096 7.45 40.77 9.11
6/9/2022 12:30:00 PM 17.8 64.04 0.096 7.45 39.25 9.09
6/9/2022 12:45:00 PM 17.99 64.382 0.096 7.47 43.13 9.15
6/9/2022 1:00:00 PM 18.1 64.58 0.096 7.47 36.03 9.15
6/9/2022 1:15:00 PM 18.16 64.688 0.096 7.49 30.08 9.12
6/9/2022 1:30:00 PM 18.14 64.652 0.095 7.49 30.45 9.1
6/9/2022 1:45:00 PM 18.19 64.742 0.095 7.48 27.93 9.11
6/9/2022 2:00:00 PM 18.26 64.868 0.095 7.5 26.87 9.13
6/9/2022 2:15:00 PM 18.43 65.174 0.095 7.52 26.91 9.17
6/9/2022 2:30:00 PM 18.41 65.138 0.095 7.51 150.89 9.16
6/9/2022 2:45:00 PM 18.34 65.012 0.095 7.51 23.25 9.08
6/9/2022 3:00:00 PM 18.32 64.976 0.095 7.5 19.27 9.05
6/9/2022 3:15:00 PM 18.37 65.066 0.095 7.51 21.24 9.06
6/9/2022 3:30:00 PM 18.46 65.228 0.095 7.52 84.99 9.08
6/9/2022 3:45:00 PM 18.64 65.552 0.088 7.55 21.99 9.15
6/9/2022 4:00:00 PM 18.72 65.696 0.095 7.55 20.98 9.15
6/9/2022 4:15:00 PM 18.82 65.876 0.096 7.56 17.56 9.15
6/9/2022 4:30:00 PM 18.78 65.804 0.096 7.55 17.69 9.06
6/9/2022 4:45:00 PM 18.85 65.93 0.096 7.55 17.39 9.06
6/9/2022 5:00:00 PM 18.76 65.768 0.096 7.52 16.83 8.98
6/9/2022 5:15:00 PM 18.84 65.912 0.097 7.54 17.61 9
6/9/2022 5:30:00 PM 18.77 65.786 0.097 7.52 16.21 8.93
6/9/2022 5:45:00 PM 18.76 65.768 0.096 7.51 17.06 8.92
6/9/2022 6:00:00 PM 18.75 65.75 0.097 7.51 16.35 8.93
6/9/2022 6:15:00 PM 18.7 65.66 0.097 7.5 15.78 8.88
6/9/2022 6:30:00 PM 18.66 65.588 0.097 7.49 14.49 8.89
6/9/2022 6:45:00 PM 18.62 65.516 0.097 7.48 13.21 8.86
6/9/2022 7:00:00 PM 18.58 65.444 0.097 7.47 15.87 8.85
6/9/2022 7:15:00 PM 18.53 65.354 0.098 7.47 14.26 8.83
6/9/2022 7:30:00 PM 18.45 65.21 0.098 7.46 14.33 8.81
6/9/2022 7:45:00 PM 18.38 65.084 0.098 7.44 14.33 8.8
6/9/2022 8:00:00 PM 18.32 64.976 0.098 7.44 13.95 8.78
6/9/2022 8:15:00 PM 18.26 64.868 0.098 7.43 14.11 8.77
6/9/2022 8:30:00 PM 18.2 64.76 0.098 7.41 13.81 8.76
6/9/2022 8:45:00 PM 18.14 64.652 0.098 7.4 14 8.75
6/9/2022 9:00:00 PM 18.07 64.526 0.099 7.4 13.78 8.74
6/9/2022 9:15:00 PM 18 64.4 0.099 7.38 13.05 8.73
6/9/2022 9:30:00 PM 17.93 64.274 0.099 7.39 13.27 8.73
6/9/2022 9:45:00 PM 17.86 64.148 0.1 7.38 13.4 8.73
6/9/2022 10:00:00 PM 17.79 64.022 0.1 7.37 13.67 8.73
6/9/2022 10:15:00 PM 17.72 63.896 0.1 7.37 12.92 8.74
6/9/2022 10:30:00 PM 17.65 63.77 0.1 7.35 14.94 8.75
6/9/2022 10:45:00 PM 17.58 63.644 0.1 7.36 13.29 8.75
6/9/2022 11:00:00 PM 17.51 63.518 0.1 7.35 14.23 8.76
6/9/2022 11:15:00 PM 17.44 63.392 0.1 7.35 57.27 8.77
6/9/2022 11:30:00 PM 17.37 63.266 0.1 7.35 14.68 8.79
6/9/2022 11:45:00 PM 17.29 63.122 0.101 7.34 13.72 8.8
6/10/2022 12:00:00 AM 17.22 62.996 0.101 7.33 14.51 8.81
6/10/2022 12:15:00 AM 17.15 62.87 0.101 7.34 13.45 8.82
6/10/2022 12:30:00 AM 17.08 62.744 0.101 7.34 13.36 8.83
6/10/2022 12:45:00 AM 17.01 62.618 0.101 7.34 14.43 8.85
6/10/2022 1:00:00 AM 16.94 62.492 0.101 7.33 13.91 8.86
6/10/2022 1:15:00 AM 16.86 62.348 0.101 7.33 13.68 8.88
6/10/2022 1:30:00 AM 16.79 62.222 0.102 7.33 12.56 8.89
6/10/2022 1:45:00 AM 16.72 62.096 0.102 7.33 15.15 8.9
6/10/2022 2:00:00 AM 16.65 61.97 0.102 7.33 13.71 8.91
6/10/2022 2:15:00 AM 16.59 61.862 0.102 7.33 13.62 8.92
6/10/2022 2:30:00 AM 16.52 61.736 0.102 7.33 33.28 8.94
6/10/2022 2:45:00 AM 16.46 61.628 0.102 7.33 13.86 8.95
6/10/2022 3:00:00 AM 16.39 61.502 0.103 7.33 13.49 8.97
6/10/2022 3:15:00 AM 16.32 61.376 0.103 7.32 13.03 8.98
6/10/2022 3:30:00 AM 16.25 61.25 0.103 7.32 30.35 8.99
6/10/2022 3:45:00 AM 16.18 61.124 0.103 7.31 11.78 9
6/10/2022 4:00:00 AM 16.11 60.998 0.103 7.33 14.63 9.02
6/10/2022 4:15:00 AM 16.05 60.89 0.103 7.33 13.08 9.04
6/10/2022 4:30:00 AM 15.98 60.764 0.103 7.33 12.86 9.06
6/10/2022 4:45:00 AM 15.91 60.638 0.103 7.33 23.99 9.07
6/10/2022 5:00:00 AM 15.85 60.53 0.103 7.33 14.23 9.08
6/10/2022 5:15:00 AM 15.78 60.404 0.103 7.32 12.25 9.09
6/10/2022 5:30:00 AM 15.71 60.278 0.103 7.32 14.99 9.11
6/10/2022 5:45:00 AM 15.64 60.152 0.104 7.32 24.99 9.13
6/10/2022 6:00:00 AM 15.58 60.044 0.103 7.33 12.76 9.15
6/10/2022 6:15:00 AM 15.51 59.918 0.103 7.32 13.29 9.18
6/10/2022 6:30:00 AM 15.45 59.81 0.104 7.33 11.33 9.21
6/10/2022 6:45:00 AM 15.4 59.72 0.103 7.34 13.85 9.24
6/10/2022 7:00:00 AM 15.36 59.648 0.104 7.35 12.58 9.28
6/10/2022 7:15:00 AM 15.33 59.594 0.103 7.35 12.25 9.32
6/10/2022 7:30:00 AM 15.31 59.558 0.103 7.36 11.34 9.36
6/10/2022 7:45:00 AM 15.3 59.54 0.104 7.36 11.13 9.39
6/10/2022 8:00:00 AM 15.29 59.522 0.103 7.38 11.18 9.43
6/10/2022 8:15:00 AM 15.29 59.522 0.103 7.38 10.81 9.46
6/10/2022 8:30:00 AM 15.3 59.54 0.104 7.4 10.18 9.5
6/10/2022 8:45:00 AM 15.32 59.576 0.104 7.41 10.14 9.54
6/10/2022 9:00:00 AM 15.36 59.648 0.104 7.42 9.97 9.58
6/10/2022 9:15:00 AM 15.4 59.72 0.103 7.44 11.53 9.62
6/10/2022 9:30:00 AM 15.46 59.828 0.103 7.46 10.25 9.66
6/10/2022 9:45:00 AM 15.51 59.918 0.104 7.47 9.24 9.68
6/10/2022 10:00:00 AM 15.6 60.08 0.103 7.48 9.63 9.7
6/10/2022 10:15:00 AM 15.69 60.242 0.103 7.49 9.57 9.72
6/10/2022 10:30:00 AM 15.79 60.422 0.103 7.51 9.1 9.76
6/10/2022 10:45:00 AM 15.9 60.62 0.103 7.52 9.4 9.78
6/10/2022 11:00:00 AM 16.04 60.872 0.103 7.54 10.29 9.81
6/10/2022 11:15:00 AM 16.19 61.142 0.103 7.55 9.08 9.83
6/10/2022 11:30:00 AM 16.33 61.394 0.103 7.57 8.28 9.83
6/10/2022 11:45:00 AM 16.48 61.664 0.103 7.58 9.52 9.84
6/10/2022 12:00:00 PM 16.62 61.916 0.103 7.6 9.11 9.84
6/10/2022 12:15:00 PM 16.95 62.51 0.103 7.63 9.02 9.86
6/10/2022 12:30:00 PM 17.06 62.708 0.103 7.64 9.07 9.85
6/10/2022 12:45:00 PM 17.33 63.194 0.103 7.66 8.65 9.86
6/10/2022 1:00:00 PM 17.57 63.626 0.103 7.68 9.31 9.85
6/10/2022 1:15:00 PM 17.71 63.878 0.103 7.69 9.06 9.82
6/10/2022 1:30:00 PM 17.87 64.166 0.103 7.71 8.54 9.8
6/10/2022 1:45:00 PM 18.05 64.49 0.103 7.72 9.05 9.79
6/10/2022 2:00:00 PM 18.18 64.724 0.103 7.73 8.51 9.76
6/10/2022 2:15:00 PM 18.33 64.994 0.103 7.75 8.73 9.75
6/10/2022 2:30:00 PM 18.34 65.012 0.103 7.73 8.92 9.68
6/10/2022 2:45:00 PM 18.59 65.462 0.103 7.77 9.25 9.71
6/10/2022 3:00:00 PM 18.72 65.696 0.103 7.77 8.99 9.66
6/10/2022 3:15:00 PM 18.88 65.984 0.103 7.79 8.57 9.64
6/10/2022 3:30:00 PM 19.06 66.308 0.102 7.79 8.55 9.6
6/10/2022 3:45:00 PM 19.21 66.578 0.102 7.79 9.22 9.55
6/10/2022 4:00:00 PM 19.27 66.686 0.103 7.78 8.66 9.5
6/10/2022 4:15:00 PM 19.21 66.578 0.103 7.75 10.69 9.38
6/10/2022 4:30:00 PM 19.29 66.722 0.102 7.73 11.61 9.35
6/10/2022 4:45:00 PM 19.28 66.704 0.103 7.71 14.1 9.25
6/10/2022 5:00:00 PM 19.25 66.65 0.102 7.67 14.44 9.19
6/10/2022 5:15:00 PM 19.29 66.722 0.102 7.67 13.34 9.17
6/10/2022 5:30:00 PM 19.28 66.704 0.102 7.65 14.2 9.13
6/10/2022 5:45:00 PM 19.24 66.632 0.102 7.63 14.73 9.07
6/10/2022 6:00:00 PM 19.23 66.614 0.102 7.61 15.46 9.04
6/10/2022 6:15:00 PM 19.21 66.578 0.102 7.6 13.69 8.99
6/10/2022 6:30:00 PM 19.2 66.56 0.102 7.58 14.88 8.96
6/10/2022 6:45:00 PM 19.18 66.524 0.103 7.57 29.43 8.9
6/10/2022 7:00:00 PM 19.17 66.506 0.103 7.55 16.61 8.86
6/10/2022 7:15:00 PM 19.18 66.524 0.103 7.53 18.02 8.84
6/10/2022 7:30:00 PM 19.16 66.488 0.103 7.5 16.57 8.79
6/10/2022 7:45:00 PM 19.14 66.452 0.103 7.5 16.02 8.76
6/10/2022 8:00:00 PM 19.11 66.398 0.103 7.47 16.3 8.72
6/10/2022 8:15:00 PM 19.07 66.326 0.102 7.47 18.34 8.68
6/10/2022 8:30:00 PM 19.03 66.254 0.103 7.45 19.2 8.65
6/10/2022 8:45:00 PM 18.98 66.164 0.103 7.43 15.76 8.61
6/10/2022 9:00:00 PM 18.93 66.074 0.103 7.42 16.35 8.59
6/10/2022 9:15:00 PM 18.87 65.966 0.103 7.4 17.08 8.56
6/10/2022 9:30:00 PM 18.8 65.84 0.103 7.4 17.48 8.55
6/10/2022 9:45:00 PM 18.73 65.714 0.103 7.37 17.36 8.55
6/10/2022 10:00:00 PM 18.65 65.57 0.103 7.38 18.29 8.55
6/10/2022 10:15:00 PM 18.56 65.408 0.103 7.37 16.09 8.55
6/10/2022 10:30:00 PM 18.47 65.246 0.103 7.37 15.85 8.56
6/10/2022 10:45:00 PM 18.36 65.048 0.103 7.34 26.88 8.56
6/10/2022 11:00:00 PM 18.26 64.868 0.103 7.35 16.47 8.58
6/10/2022 11:15:00 PM 18.15 64.67 0.103 7.35 15.27 8.59
6/10/2022 11:30:00 PM 18.05 64.49 0.103 7.34 18.45 8.61
6/10/2022 11:45:00 PM 17.94 64.292 0.103 7.33 21.38 8.63
6/11/2022 12:00:00 AM 17.83 64.094 0.103 7.34 23.99 8.65
6/11/2022 12:15:00 AM 17.72 63.896 0.103 7.33 21.58 8.67
6/11/2022 12:30:00 AM 17.62 63.716 0.104 7.33 16.71 8.69
6/11/2022 12:45:00 AM 17.51 63.518 0.104 7.33 20.03 8.7
6/11/2022 1:00:00 AM 17.41 63.338 0.104 7.33 17.27 8.72
6/11/2022 1:15:00 AM 17.32 63.176 0.104 7.32 17.95 8.74
6/11/2022 1:30:00 AM 17.22 62.996 0.104 7.31 19.62 8.77
6/11/2022 1:45:00 AM 17.12 62.816 0.104 7.32 16.44 8.78
6/11/2022 2:00:00 AM 17.03 62.654 0.104 7.32 19.02 8.8
6/11/2022 2:15:00 AM 16.94 62.492 0.104 7.32 19.06 8.81
6/11/2022 2:30:00 AM 16.85 62.33 0.104 7.32 20.35 8.84
6/11/2022 2:45:00 AM 16.76 62.168 0.104 7.3 20.18 8.85
6/11/2022 3:00:00 AM 16.67 62.006 0.104 7.32 15.61 8.87
6/11/2022 3:15:00 AM 16.59 61.862 0.104 7.3 35.45 8.88
6/11/2022 3:30:00 AM 16.5 61.7 0.104 7.31 11.31 8.91
6/11/2022 3:45:00 AM 16.42 61.556 0.104 7.32 10.95 8.93
6/11/2022 4:00:00 AM 16.34 61.412 0.104 7.32 15.33 8.94
6/11/2022 4:15:00 AM 16.25 61.25 0.104 7.32 70.95 8.94
6/11/2022 4:30:00 AM 16.17 61.106 0.097 7.3 70.42 8.98
6/11/2022 4:45:00 AM 16.09 60.962 0.104 7.31 13.41 9
6/11/2022 5:00:00 AM 16.02 60.836 0.104 7.29 12.88 9.01
6/11/2022 5:15:00 AM 15.94 60.692 0.104 7.31 12.45 9.04
6/11/2022 5:30:00 AM 15.86 60.548 0.105 7.31 11.68 9.05
6/11/2022 5:45:00 AM 15.78 60.404 0.104 7.31 13.76 9.08
6/11/2022 6:00:00 AM 15.71 60.278 0.104 7.32 11.29 9.11
6/11/2022 6:15:00 AM 15.65 60.17 0.104 7.32 10.79 9.16
6/11/2022 6:30:00 AM 15.58 60.044 0.104 7.33 10 9.19
6/11/2022 6:45:00 AM 15.52 59.936 0.104 7.32 11.18 9.22
6/11/2022 7:00:00 AM 15.48 59.864 0.104 7.34 10.97 9.29
6/11/2022 7:15:00 AM 15.47 59.846 0.104 7.34 12.19 9.38
6/11/2022 7:30:00 AM 15.44 59.792 0.104 7.37 10.47 9.42
6/11/2022 7:45:00 AM 15.39 59.702 0.104 7.38 9.96 9.45
6/11/2022 8:00:00 AM 15.36 59.648 0.104 7.39 10.18 9.48
6/11/2022 8:15:00 AM 15.33 59.594 0.104 7.4 9.29 9.5
6/11/2022 8:30:00 AM 15.32 59.576 0.104 7.42 9.45 9.58
6/11/2022 8:45:00 AM 15.34 59.612 0.104 7.43 8.8 9.67
6/11/2022 9:00:00 AM 15.35 59.63 0.104 7.46 9.31 9.73
6/11/2022 9:15:00 AM 15.35 59.63 0.103 7.48 9.45 9.79
6/11/2022 9:30:00 AM 15.4 59.72 0.103 7.5 8.8 9.84
6/11/2022 9:45:00 AM 15.43 59.774 0.104 7.52 9.43 9.9
6/11/2022 10:00:00 AM 15.52 59.936 0.103 7.54 9 9.97
6/11/2022 10:15:00 AM 15.6 60.08 0.103 7.58 8.83 10.02
6/11/2022 10:30:00 AM 15.61 60.098 0.103 7.59 8.91 10.06
6/11/2022 10:45:00 AM 15.64 60.152 0.104 7.63 9.47 10.09
6/11/2022 11:00:00 AM 15.68 60.224 0.103 7.65 9.5 10.1
6/11/2022 11:15:00 AM 15.71 60.278 0.103 7.66 9.25 10.1
6/11/2022 11:30:00 AM 15.72 60.296 0.103 7.64 8.75 10.07
6/11/2022 11:45:00 AM 15.75 60.35 0.103 7.66 8.69 10.06
6/11/2022 12:00:00 PM 15.78 60.404 0.103 7.65 9.06 10.04
6/11/2022 12:15:00 PM 15.8 60.44 0.103 7.66 8.55 10.02
6/11/2022 12:30:00 PM 15.85 60.53 0.103 7.67 9.05 10.03
6/11/2022 12:45:00 PM 15.89 60.602 0.103 7.68 9.79 10.03
6/11/2022 1:00:00 PM 15.95 60.71 0.103 7.7 8.67 10.06
6/11/2022 1:15:00 PM 15.99 60.782 0.103 7.71 9.25 10.06
6/11/2022 1:30:00 PM 16.06 60.908 0.103 7.73 9.4 10.09
6/11/2022 1:45:00 PM 16.19 61.142 0.103 7.76 8.5 10.13
6/11/2022 2:00:00 PM 16.28 61.304 0.103 7.78 8.37 10.13
6/11/2022 2:15:00 PM 16.55 61.79 0.103 7.81 9.2 10.18
6/11/2022 2:30:00 PM 16.75 62.15 0.103 7.83 8.64 10.18
6/11/2022 2:45:00 PM 16.96 62.528 0.103 7.85 8.74 10.17
6/11/2022 3:00:00 PM 17.13 62.834 0.103 7.84 8.87 10.14
6/11/2022 3:15:00 PM 17.28 63.104 0.102 7.85 8.56 10.09
6/11/2022 3:30:00 PM 17.36 63.248 0.102 7.84 8.85 10.04
6/11/2022 3:45:00 PM 17.46 63.428 0.102 7.81 9.31 9.99
6/11/2022 4:00:00 PM 17.51 63.518 0.103 7.81 8.98 9.91
6/11/2022 4:15:00 PM 17.53 63.554 0.102 7.79 9.22 9.83
6/11/2022 4:30:00 PM 17.56 63.608 0.102 7.75 9.04 9.75
6/11/2022 4:45:00 PM 17.57 63.626 0.102 7.73 9.35 9.67
6/11/2022 5:00:00 PM 17.6 63.68 0.102 7.7 9.14 9.6
6/11/2022 5:15:00 PM 17.62 63.716 0.102 7.68 9.52 9.53
6/11/2022 5:30:00 PM 17.65 63.77 0.102 7.65 9.32 9.46
6/11/2022 5:45:00 PM 17.69 63.842 0.103 7.64 9.1 9.4
6/11/2022 6:00:00 PM 17.73 63.914 0.102 7.61 9.44 9.33
6/11/2022 6:15:00 PM 17.76 63.968 0.102 7.59 9.25 9.26
6/11/2022 6:30:00 PM 17.79 64.022 0.102 7.56 10.01 9.2
6/11/2022 6:45:00 PM 17.81 64.058 0.103 7.55 9.71 9.14
6/11/2022 7:00:00 PM 17.81 64.058 0.102 7.53 9.15 9.09
6/11/2022 7:15:00 PM 17.81 64.058 0.102 7.51 9.31 9.06
6/11/2022 7:30:00 PM 17.79 64.022 0.102 7.49 9.37 9.02
6/11/2022 7:45:00 PM 17.77 63.986 0.102 7.49 9.47 8.99
6/11/2022 8:00:00 PM 17.73 63.914 0.102 7.45 9.66 8.96
6/11/2022 8:15:00 PM 17.69 63.842 0.102 7.45 11.2 8.92
6/11/2022 8:30:00 PM 17.64 63.752 0.103 7.44 10.45 8.9
6/11/2022 8:45:00 PM 17.59 63.662 0.102 7.42 9.8 8.87
6/11/2022 9:00:00 PM 17.54 63.572 0.102 7.41 10.79 8.85
6/11/2022 9:15:00 PM 17.49 63.482 0.102 7.39 11.43 8.83
6/11/2022 9:30:00 PM 17.44 63.392 0.102 7.39 10.95 8.81
6/11/2022 9:45:00 PM 17.39 63.302 0.103 7.38 11.44 8.81
6/11/2022 10:00:00 PM 17.34 63.212 0.102 7.37 10.47 8.8
6/11/2022 10:15:00 PM 17.28 63.104 0.103 7.34 11.77 8.79
6/11/2022 10:30:00 PM 17.22 62.996 0.103 7.34 12.82 8.8
6/11/2022 10:45:00 PM 17.17 62.906 0.103 7.33 12.73 8.79
6/11/2022 11:00:00 PM 17.11 62.798 0.103 7.34 12.79 8.79
6/11/2022 11:15:00 PM 17.06 62.708 0.103 7.34 11.61 8.8
6/11/2022 11:30:00 PM 16.99 62.582 0.103 7.34 14.09 8.81
6/11/2022 11:45:00 PM 16.93 62.474 0.103 7.33 12.05 8.82
6/12/2022 12:00:00 AM 16.87 62.366 0.103 7.33 12.68 8.83
6/12/2022 12:15:00 AM 16.81 62.258 0.103 7.33 13.97 8.82
6/12/2022 12:30:00 AM 16.74 62.132 0.103 7.33 13 8.85
6/12/2022 12:45:00 AM 16.67 62.006 0.103 7.33 12.4 8.87
6/12/2022 1:00:00 AM 16.61 61.898 0.103 7.32 13.7 8.88
6/12/2022 1:15:00 AM 16.54 61.772 0.103 7.32 13.03 8.89
6/12/2022 1:30:00 AM 16.48 61.664 0.103 7.32 13.35 8.91
6/12/2022 1:45:00 AM 16.41 61.538 0.103 7.32 12.98 8.91
6/12/2022 2:00:00 AM 16.35 61.43 0.103 7.32 14.95 8.93
6/12/2022 2:15:00 AM 16.28 61.304 0.104 7.3 16.81 8.94
6/12/2022 2:30:00 AM 16.21 61.178 0.103 7.31 13.71 8.96
6/12/2022 2:45:00 AM 16.15 61.07 0.103 7.31 13.37 8.98
6/12/2022 3:00:00 AM 16.09 60.962 0.103 7.31 13.79 8.98
6/12/2022 3:15:00 AM 16.04 60.872 0.103 7.31 13.22 9
6/12/2022 3:30:00 AM 15.99 60.782 0.104 7.31 13.26 9
6/12/2022 3:45:00 AM 15.94 60.692 0.103 7.3 13.81 9.01
6/12/2022 4:00:00 AM 15.89 60.602 0.103 7.31 13.4 9.02
6/12/2022 4:15:00 AM 15.85 60.53 0.104 7.31 12.01 9.04
6/12/2022 4:30:00 AM 15.81 60.458 0.104 7.31 11.89 9.05
6/12/2022 4:45:00 AM 15.76 60.368 0.104 7.3 14.76 9.05
6/12/2022 5:00:00 AM 15.72 60.296 0.104 7.31 13.16 9.08
6/12/2022 5:15:00 AM 15.68 60.224 0.105 7.3 14.69 9.07
6/12/2022 5:30:00 AM 15.64 60.152 0.104 7.31 13.01 9.1
6/12/2022 5:45:00 AM 15.61 60.098 0.104 7.31 13.28 9.1
6/12/2022 6:00:00 AM 15.57 60.026 0.104 7.32 13.23 9.13
6/12/2022 6:15:00 AM 15.54 59.972 0.104 7.31 13.55 9.15
6/12/2022 6:30:00 AM 15.51 59.918 0.104 7.32 12.88 9.18
6/12/2022 6:45:00 AM 15.49 59.882 0.104 7.33 12.6 9.22
6/12/2022 7:00:00 AM 15.48 59.864 0.104 7.34 13.03 9.3
6/12/2022 7:15:00 AM 15.47 59.846 0.104 7.35 12.75 9.32
6/12/2022 7:30:00 AM 15.45 59.81 0.104 7.36 12.55 9.34
6/12/2022 7:45:00 AM 15.44 59.792 0.104 7.36 12.47 9.38
6/12/2022 8:00:00 AM 15.43 59.774 0.103 7.37 12.18 9.4
6/12/2022 8:15:00 AM 15.44 59.792 0.104 7.38 11.84 9.47
6/12/2022 8:30:00 AM 15.46 59.828 0.104 7.41 11.97 9.56
6/12/2022 8:45:00 AM 15.49 59.882 0.104 7.43 11.95 9.64
6/12/2022 9:00:00 AM 15.5 59.9 0.103 7.45 10.29 9.68
6/12/2022 9:15:00 AM 15.5 59.9 0.103 7.46 9.5 9.68
6/12/2022 9:30:00 AM 15.56 60.008 0.103 7.48 9.85 9.78
6/12/2022 9:45:00 AM 15.59 60.062 0.103 7.49 9.61 9.81
6/12/2022 10:00:00 AM 15.63 60.134 0.103 7.52 9.65 9.87
6/12/2022 10:15:00 AM 15.68 60.224 0.103 7.55 9.47 9.93
6/12/2022 10:30:00 AM 15.74 60.332 0.103 7.58 9.57 9.98
6/12/2022 10:45:00 AM 15.82 60.476 0.103 7.61 9.25 10.03
6/12/2022 11:00:00 AM 15.9 60.62 0.103 7.63 9.32 10.08
6/12/2022 11:15:00 AM 15.99 60.782 0.103 7.66 9.12 10.11
6/12/2022 11:30:00 AM 16.08 60.944 0.103 7.7 9.38 10.15
6/12/2022 11:45:00 AM 16.18 61.124 0.103 7.71 9.26 10.19
6/12/2022 12:00:00 PM 16.23 61.214 0.103 7.72 8.83 10.15
6/12/2022 12:15:00 PM 16.26 61.268 0.103 7.72 9 10.11
6/12/2022 12:30:00 PM 16.32 61.376 0.103 7.75 9.15 10.15
6/12/2022 12:45:00 PM 16.47 61.646 0.103 7.77 9.25 10.15
6/12/2022 1:00:00 PM 16.62 61.916 0.102 7.79 9.12 10.16
6/12/2022 1:15:00 PM 16.63 61.934 0.103 7.81 9.18 10.13
6/12/2022 1:30:00 PM 16.75 62.15 0.102 7.83 8.95 10.15
6/12/2022 1:45:00 PM 16.89 62.402 0.102 7.86 9.37 10.18
6/12/2022 2:00:00 PM 17.06 62.708 0.103 7.88 9.1 10.2
6/12/2022 2:15:00 PM 17.25 63.05 0.102 7.91 9.27 10.18
6/12/2022 2:30:00 PM 17.24 63.032 0.102 7.92 8.93 10.15
6/12/2022 2:45:00 PM 17.32 63.176 0.102 7.93 9.45 10.14
6/12/2022 3:00:00 PM 17.49 63.482 0.102 7.95 8.91 10.14
6/12/2022 3:15:00 PM 17.53 63.554 0.102 7.96 9.18 10.11
6/12/2022 3:30:00 PM 17.5 63.5 0.102 7.95 9.12 10.05
6/12/2022 3:45:00 PM 17.52 63.536 0.102 7.92 8.97 9.97
6/12/2022 4:00:00 PM 17.53 63.554 0.102 7.87 9.18 9.88
6/12/2022 4:15:00 PM 17.58 63.644 0.102 7.87 9.7 9.87
6/12/2022 4:30:00 PM 17.6 63.68 0.102 7.85 10.22 9.83
6/12/2022 4:45:00 PM 17.61 63.698 0.102 7.81 9.85 9.74
6/12/2022 5:00:00 PM 17.7 63.86 0.102 7.81 9.54 9.75
6/12/2022 5:15:00 PM 17.73 63.914 0.102 7.82 9.54 9.72
6/12/2022 5:30:00 PM 17.73 63.914 0.102 7.78 9.37 9.63
6/12/2022 5:45:00 PM 17.74 63.932 0.102 7.7 9.69 9.5
6/12/2022 6:00:00 PM 17.78 64.004 0.102 7.69 9.21 9.48
6/12/2022 6:15:00 PM 17.82 64.076 0.102 7.67 9.82 9.4
6/12/2022 6:30:00 PM 17.84 64.112 0.102 7.64 9.46 9.31
6/12/2022 6:45:00 PM 17.86 64.148 0.102 7.62 9.78 9.26
6/12/2022 7:00:00 PM 17.87 64.166 0.102 7.59 11.35 9.18
6/12/2022 7:15:00 PM 17.87 64.166 0.102 7.56 10.54 9.11
6/12/2022 7:30:00 PM 17.86 64.148 0.102 7.53 10.68 9.06
6/12/2022 7:45:00 PM 17.85 64.13 0.102 7.52 10.23 9.03
6/12/2022 8:00:00 PM 17.84 64.112 0.102 7.5 10.39 9
6/12/2022 8:15:00 PM 17.82 64.076 0.102 7.47 10.03 8.98
6/12/2022 8:30:00 PM 17.78 64.004 0.102 7.45 10.05 8.92
6/12/2022 8:45:00 PM 17.75 63.95 0.103 7.42 10.68 8.87
6/12/2022 9:00:00 PM 17.72 63.896 0.102 7.41 12.08 8.84
6/12/2022 9:15:00 PM 17.69 63.842 0.102 7.39 11.35 8.8
6/12/2022 9:30:00 PM 17.66 63.788 0.102 7.38 12.52 8.77
6/12/2022 9:45:00 PM 17.62 63.716 0.103 7.37 11.82 8.77
6/12/2022 10:00:00 PM 17.58 63.644 0.103 7.36 11.65 8.76
6/12/2022 10:15:00 PM 17.55 63.59 0.102 7.34 11.64 8.74
6/12/2022 10:30:00 PM 17.51 63.518 0.103 7.33 13.73 8.73
6/12/2022 10:45:00 PM 17.48 63.464 0.102 7.31 12.01 8.72
6/12/2022 11:00:00 PM 17.44 63.392 0.102 7.31 63.55 8.73
6/12/2022 11:15:00 PM 17.4 63.32 0.103 7.31 12.13 8.74
6/12/2022 11:30:00 PM 17.37 63.266 0.102 7.3 14.47 8.74
6/12/2022 11:45:00 PM 17.33 63.194 0.103 7.29 12.19 8.74
6/13/2022 12:00:00 AM 17.29 63.122 0.103 7.29 12.27 8.74
6/13/2022 12:15:00 AM 17.27 63.086 0.103 7.29 11.56 8.74
6/13/2022 12:30:00 AM 17.24 63.032 0.103 7.28 13.66 8.73
6/13/2022 12:45:00 AM 17.21 62.978 0.103 7.28 12.15 8.74
6/13/2022 1:00:00 AM 17.18 62.924 0.103 7.27 12.91 8.75
6/13/2022 1:15:00 AM 17.15 62.87 0.103 7.28 12.54 8.75
6/13/2022 1:30:00 AM 17.12 62.816 0.103 7.27 13.69 8.76
6/13/2022 1:45:00 AM 17.09 62.762 0.103 7.27 13.28 8.77
6/13/2022 2:00:00 AM 17.06 62.708 0.103 7.27 12.95 8.77
6/13/2022 2:15:00 AM 17.04 62.672 0.103 7.27 13.63 8.76
6/13/2022 2:30:00 AM 17.03 62.654 0.103 7.27 14.17 8.77
6/13/2022 2:45:00 AM 17.01 62.618 0.103 7.27 31.64 8.78
6/13/2022 3:00:00 AM 16.99 62.582 0.103 7.27 24.96 8.79
6/13/2022 3:15:00 AM 16.98 62.564 0.103 7.27 15.71 8.79
6/13/2022 3:30:00 AM 16.96 62.528 0.103 7.26 47.57 8.81
6/13/2022 3:45:00 AM 16.94 62.492 0.103 7.26 14.01 8.8
6/13/2022 4:00:00 AM 16.92 62.456 0.103 7.25 14.95 8.79
6/13/2022 4:15:00 AM 16.9 62.42 0.103 7.26 14.14 8.81
6/13/2022 4:30:00 AM 16.89 62.402 0.103 7.26 15 8.79
6/13/2022 4:45:00 AM 16.87 62.366 0.104 7.26 13.81 8.79
6/13/2022 5:00:00 AM 16.86 62.348 0.104 7.25 14.44 8.8
6/13/2022 5:15:00 AM 16.85 62.33 0.104 7.25 12.06 8.81
6/13/2022 5:30:00 AM 16.83 62.294 0.104 7.25 13.52 8.82
6/13/2022 5:45:00 AM 16.82 62.276 0.104 7.25 12.13 8.83
6/13/2022 6:00:00 AM 16.81 62.258 0.104 7.25 12.51 8.83
6/13/2022 6:15:00 AM 16.8 62.24 0.104 7.26 12.21 8.86
6/13/2022 6:30:00 AM 16.79 62.222 0.104 7.26 12.02 8.91
6/13/2022 6:45:00 AM 16.79 62.222 0.103 7.27 13.93 8.94
6/13/2022 7:00:00 AM 16.79 62.222 0.103 7.26 12.1 8.95
6/13/2022 7:15:00 AM 16.78 62.204 0.104 7.28 11.5 9.01
6/13/2022 7:30:00 AM 16.78 62.204 0.103 7.29 11.46 9.05
6/13/2022 7:45:00 AM 16.78 62.204 0.103 7.29 10.85 9.09
6/13/2022 8:00:00 AM 16.79 62.222 0.103 7.31 11.08 9.15
6/13/2022 8:15:00 AM 16.8 62.24 0.103 7.31 10.43 9.21
6/13/2022 8:30:00 AM 16.82 62.276 0.103 7.35 10.06 9.28
6/13/2022 8:45:00 AM 16.84 62.312 0.103 7.37 10.3 9.36
6/13/2022 9:00:00 AM 16.92 62.456 0.103 7.4 10.7 9.46
6/13/2022 9:15:00 AM 16.94 62.492 0.103 7.43 10.41 9.51
6/13/2022 9:30:00 AM 16.99 62.582 0.103 7.45 9.73 9.59
6/13/2022 9:45:00 AM 17.08 62.744 0.103 7.49 9.65 9.68
6/13/2022 10:00:00 AM 17.11 62.798 0.103 7.52 9.82 9.69
6/13/2022 10:15:00 AM 17.17 62.906 0.103 7.56 10 9.77
6/13/2022 10:30:00 AM 17.27 63.086 0.103 7.57 12.57 9.81
6/13/2022 10:45:00 AM 17.43 63.374 0.103 7.62 10.26 9.86
6/13/2022 11:00:00 AM 17.57 63.626 0.103 7.65 10.04 9.89
6/13/2022 11:15:00 AM 17.73 63.914 0.103 7.66 9.88 9.93
6/13/2022 11:30:00 AM 17.94 64.292 0.103 7.72 9.6 9.94
6/13/2022 11:45:00 AM 18.2 64.76 0.103 7.74 9.86 9.95
6/13/2022 12:00:00 PM 18.39 65.102 0.103 7.75 9.65 9.95
6/13/2022 12:15:00 PM 18.67 65.606 0.103 7.78 29.45 9.95
6/13/2022 12:30:00 PM 18.9 66.02 0.103 7.81 12.98 9.95
6/13/2022 12:45:00 PM 19.18 66.524 0.103 7.84 10.08 9.95
6/13/2022 1:00:00 PM 19.43 66.974 0.103 7.87 10.97 9.93
6/13/2022 1:15:00 PM 19.73 67.514 0.103 7.91 11.42 9.93
6/13/2022 1:30:00 PM 19.95 67.91 0.104 7.91 10.67 9.88
6/13/2022 1:45:00 PM 20.22 68.396 0.104 7.95 10.7 9.86
6/13/2022 2:00:00 PM 20.44 68.792 0.104 7.96 10.96 9.83
6/13/2022 2:15:00 PM 20.65 69.17 0.104 7.97 10.86 9.79
6/13/2022 2:30:00 PM 20.68 69.224 0.104 7.95 10.63 9.69
6/13/2022 2:45:00 PM 20.9 69.62 0.104 7.97 9.77 9.67
6/13/2022 3:00:00 PM 21.07 69.926 0.104 7.98 10.79 9.62
6/13/2022 3:15:00 PM 21.17 70.106 0.104 7.96 10.08 9.57
6/13/2022 3:30:00 PM 21.28 70.304 0.104 7.94 9.9 9.52
6/13/2022 3:45:00 PM 21.29 70.32201 0.104 7.93 10.88 9.4
6/13/2022 4:00:00 PM 21.43 70.574 0.104 7.92 9.77 9.36
6/13/2022 4:15:00 PM 21.45 70.61 0.103 7.9 10.67 9.27
6/13/2022 4:30:00 PM 21.36 70.448 0.103 7.85 10.01 9.16
6/13/2022 4:45:00 PM 21.43 70.574 0.103 7.83 9.6 9.12
6/13/2022 5:00:00 PM 21.51 70.718 0.103 7.81 9.77 9.05
6/13/2022 5:15:00 PM 21.52 70.736 0.103 7.77 9.95 8.94
6/13/2022 5:30:00 PM 21.52 70.736 0.103 7.72 11.78 8.83
6/13/2022 5:45:00 PM 21.52 70.736 0.103 7.68 10.13 8.75
6/13/2022 6:00:00 PM 21.54 70.772 0.103 7.67 10.2 8.68
6/13/2022 6:15:00 PM 21.55 70.79 0.103 7.63 9.84 8.62
6/13/2022 6:30:00 PM 21.54 70.772 0.103 7.6 9.9 8.56
6/13/2022 6:45:00 PM 21.52 70.736 0.103 7.58 9.92 8.47
6/13/2022 7:00:00 PM 21.51 70.718 0.103 7.55 12.09 8.41
6/13/2022 7:15:00 PM 21.48 70.664 0.103 7.53 10.08 8.35
6/13/2022 7:30:00 PM 21.44 70.592 0.103 7.49 9.76 8.29
6/13/2022 7:45:00 PM 21.4 70.52 0.103 7.47 10.2 8.24
6/13/2022 8:00:00 PM 21.35 70.43 0.103 7.46 10.09 8.21
6/13/2022 8:15:00 PM 21.3 70.34 0.103 7.44 9.99 8.16
6/13/2022 8:30:00 PM 21.23 70.214 0.103 7.42 10.43 8.12
6/13/2022 8:45:00 PM 21.17 70.106 0.103 7.41 10.27 8.09
6/13/2022 9:00:00 PM 21.1 69.98 0.103 7.38 10.94 8.05
6/13/2022 9:15:00 PM 21.02 69.836 0.103 7.38 10.12 8.04
6/13/2022 9:30:00 PM 20.95 69.71 0.103 7.35 11.94 8.02
6/13/2022 9:45:00 PM 20.87 69.566 0.103 7.35 12.09 8.01
6/13/2022 10:00:00 PM 20.78 69.404 0.104 7.31 10.48 8.01
6/13/2022 10:15:00 PM 20.7 69.26 0.104 7.32 12.42 8
6/13/2022 10:30:00 PM 20.62 69.116 0.104 7.31 11.61 8.02
6/13/2022 10:45:00 PM 20.55 68.99 0.104 7.32 11.12 8.03
6/13/2022 11:00:00 PM 20.46 68.828 0.104 7.32 10.69 8.02
6/13/2022 11:15:00 PM 20.38 68.684 0.104 7.31 11.34 8.02
6/13/2022 11:30:00 PM 20.3 68.54 0.104 7.3 11.78 8.04
6/13/2022 11:45:00 PM 20.2 68.36 0.104 7.31 12.2 8.05
6/14/2022 12:00:00 AM 20.12 68.216 0.104 7.3 10.71 8.06
6/14/2022 12:15:00 AM 20.03 68.054 0.104 7.3 11.12 8.08
6/14/2022 12:30:00 AM 19.94 67.892 0.104 7.27 11 8.09
6/14/2022 12:45:00 AM 19.86 67.748 0.104 7.29 12.24 8.09
6/14/2022 1:00:00 AM 19.78 67.604 0.104 7.3 11.08 8.12
6/14/2022 1:15:00 AM 19.69 67.442 0.104 7.29 11.43 8.13
6/14/2022 1:30:00 AM 19.61 67.298 0.104 7.29 12.11 8.15
6/14/2022 1:45:00 AM 19.54 67.172 0.104 7.29 11.63 8.16
6/14/2022 2:00:00 AM 19.46 67.028 0.105 7.29 10.55 8.18
6/14/2022 2:15:00 AM 19.38 66.884 0.104 7.25 11.71 8.19
6/14/2022 2:30:00 AM 19.3 66.74 0.104 7.28 12.56 8.22
6/14/2022 2:45:00 AM 19.23 66.614 0.104 7.28 16.61 8.23
6/14/2022 3:00:00 AM 19.16 66.488 0.105 7.28 13.93 8.25
6/14/2022 3:15:00 AM 19.09 66.362 0.104 7.27 15.34 8.25
6/14/2022 3:30:00 AM 19.03 66.254 0.105 7.28 12.32 8.28
6/14/2022 3:45:00 AM 18.96 66.128 0.105 7.28 17.71 8.3
6/14/2022 4:00:00 AM 18.9 66.02 0.105 7.28 17.11 8.31
6/14/2022 4:15:00 AM 18.83 65.894 0.105 7.28 17.05 8.27
6/14/2022 4:30:00 AM 18.76 65.768 0.105 7.27 13.61 8.34
6/14/2022 4:45:00 AM 18.7 65.66 0.105 7.28 73.22 8.35
6/14/2022 5:00:00 AM 18.64 65.552 0.105 7.28 12.69 8.36
6/14/2022 5:15:00 AM 18.58 65.444 0.105 7.27 12.61 8.34
6/14/2022 5:30:00 AM 18.52 65.336 0.106 7.26 13.06 8.38
6/14/2022 5:45:00 AM 18.47 65.246 0.105 7.28 10.91 8.4
6/14/2022 6:00:00 AM 18.42 65.156 0.105 7.28 12.96 8.42
6/14/2022 6:15:00 AM 18.37 65.066 0.105 7.28 11.18 8.45
6/14/2022 6:30:00 AM 18.33 64.994 0.105 7.28 11.03 8.44
6/14/2022 6:45:00 AM 18.29 64.922 0.105 7.29 11.58 8.52
6/14/2022 7:00:00 AM 18.25 64.85 0.105 7.3 10.31 8.55
6/14/2022 7:15:00 AM 18.21 64.778 0.105 7.31 10.71 8.61
6/14/2022 7:30:00 AM 18.18 64.724 0.105 7.3 9.83 8.66
6/14/2022 7:45:00 AM 18.16 64.688 0.105 7.33 10.24 8.72
6/14/2022 8:00:00 AM 18.15 64.67 0.105 7.35 9.34 8.81
6/14/2022 8:15:00 AM 18.13 64.634 0.105 7.35 9.7 8.87
6/14/2022 8:30:00 AM 18.13 64.634 0.105 7.39 9.35 9
6/14/2022 8:45:00 AM 18.16 64.688 0.105 7.41 11.12 9.1
6/14/2022 9:00:00 AM 18.17 64.706 0.105 7.46 9.49 9.21
6/14/2022 9:15:00 AM -99999.99 -179968 -99999.99 -99999.99 -99999.99 -99999.99
6/14/2022 9:30:00 AM -99999.99 -179968 -99999.99 -99999.99 -99999.99 -99999.99
6/14/2022 9:45:00 AM -99999.99 -179968 -99999.99 -99999.99 -99999.99 -99999.99
6/14/2022 10:00:00 AM -99999.99 -179968 -99999.99 -99999.99 -99999.99 -99999.99
6/14/2022 10:15:00 AM -99999.99 -179968 -99999.99 -99999.99 -99999.99 -99999.99
6/14/2022 10:30:00 AM -99999.99 -179968 -99999.99 -99999.99 -99999.99 -99999.99
6/14/2022 10:45:00 AM -99999.99 -179968 -99999.99 -99999.99 -99999.99 -99999.99
6/14/2022 11:00:00 AM -99999.99 -179968 -99999.99 -99999.99 -99999.99 -99999.99
6/14/2022 11:15:00 AM -99999.99 -179968 -99999.99 -99999.99 -99999.99 -99999.99
6/14/2022 11:30:00 AM -99999.99 -179968 -99999.99 -99999.99 -99999.99 -99999.99
6/14/2022 11:45:00 AM -99999.99 -179968 -99999.99 -99999.99 -99999.99 -99999.99
6/14/2022 12:00:00 PM -99999.99 -179968 -99999.99 -99999.99 -99999.99 -99999.99
6/14/2022 12:15:00 PM -99999.99 -179968 -99999.99 -99999.99 -99999.99 -99999.99
6/14/2022 12:30:00 PM -99999.99 -179968 -99999.99 -99999.99 -99999.99 -99999.99
6/14/2022 12:45:00 PM -99999.99 -179968 -99999.99 -99999.99 -99999.99 -99999.99
6/14/2022 1:00:00 PM -99999.99 -179968 -99999.99 -99999.99 -99999.99 -99999.99
6/14/2022 1:15:00 PM -99999.99 -179968 -99999.99 -99999.99 -99999.99 -99999.99
6/14/2022 1:30:00 PM -99999.99 -179968 -99999.99 -99999.99 -99999.99 -99999.99
6/14/2022 1:45:00 PM -99999.99 -179968 -99999.99 -99999.99 -99999.99 -99999.99
6/14/2022 2:00:00 PM -99999.99 -179968 -99999.99 -99999.99 -99999.99 -99999.99
6/14/2022 2:15:00 PM -99999.99 -179968 -99999.99 -99999.99 -99999.99 -99999.99
6/14/2022 2:30:00 PM -99999.99 -179968 -99999.99 -99999.99 -99999.99 -99999.99
6/14/2022 2:45:00 PM -99999.99 -179968 -99999.99 -99999.99 -99999.99 -99999.99
6/14/2022 3:00:00 PM -99999.99 -179968 -99999.99 -99999.99 -99999.99 -99999.99
6/14/2022 3:15:00 PM -99999.99 -179968 -99999.99 -99999.99 -99999.99 -99999.99
6/14/2022 3:30:00 PM -99999.99 -179968 -99999.99 -99999.99 -99999.99 -99999.99
6/14/2022 3:45:00 PM -99999.99 -179968 -99999.99 -99999.99 -99999.99 -99999.99
6/14/2022 4:00:00 PM -99999.99 -179968 -99999.99 -99999.99 -99999.99 -99999.99
6/14/2022 4:15:00 PM -99999.99 -179968 -99999.99 -99999.99 -99999.99 -99999.99
6/14/2022 4:30:00 PM -99999.99 -179968 -99999.99 -99999.99 -99999.99 -99999.99
6/14/2022 4:45:00 PM -99999.99 -179968 -99999.99 -99999.99 -99999.99 -99999.99
6/14/2022 5:00:00 PM -99999.99 -179968 -99999.99 -99999.99 -99999.99 -99999.99
6/14/2022 5:15:00 PM -99999.99 -179968 -99999.99 -99999.99 -99999.99 -99999.99
6/14/2022 5:30:00 PM -99999.99 -179968 -99999.99 -99999.99 -99999.99 -99999.99
6/14/2022 5:45:00 PM -99999.99 -179968 -99999.99 -99999.99 -99999.99 -99999.99
6/14/2022 6:00:00 PM -99999.99 -179968 -99999.99 -99999.99 -99999.99 -99999.99
6/14/2022 6:15:00 PM -99999.99 -179968 -99999.99 -99999.99 -99999.99 -99999.99
6/14/2022 6:30:00 PM -99999.99 -179968 -99999.99 -99999.99 -99999.99 -99999.99
6/14/2022 6:45:00 PM -99999.99 -179968 -99999.99 -99999.99 -99999.99 -99999.99
6/14/2022 7:00:00 PM -99999.99 -179968 -99999.99 -99999.99 -99999.99 -99999.99
6/14/2022 7:15:00 PM -99999.99 -179968 -99999.99 -99999.99 -99999.99 -99999.99
6/14/2022 7:30:00 PM -99999.99 -179968 -99999.99 -99999.99 -99999.99 -99999.99
6/14/2022 7:45:00 PM -99999.99 -179968 -99999.99 -99999.99 -99999.99 -99999.99
6/14/2022 8:00:00 PM -99999.99 -179968 -99999.99 -99999.99 -99999.99 -99999.99
6/14/2022 8:15:00 PM -99999.99 -179968 -99999.99 -99999.99 -99999.99 -99999.99
6/14/2022 8:30:00 PM -99999.99 -179968 -99999.99 -99999.99 -99999.99 -99999.99
6/14/2022 8:45:00 PM -99999.99 -179968 -99999.99 -99999.99 -99999.99 -99999.99
6/14/2022 9:00:00 PM -99999.99 -179968 -99999.99 -99999.99 -99999.99 -99999.99
6/14/2022 9:15:00 PM -99999.99 -179968 -99999.99 -99999.99 -99999.99 -99999.99
6/14/2022 9:30:00 PM -99999.99 -179968 -99999.99 -99999.99 -99999.99 -99999.99
6/14/2022 9:45:00 PM -99999.99 -179968 -99999.99 -99999.99 -99999.99 -99999.99
6/14/2022 10:00:00 PM -99999.99 -179968 -99999.99 -99999.99 -99999.99 -99999.99
6/14/2022 10:15:00 PM -99999.99 -179968 -99999.99 -99999.99 -99999.99 -99999.99
6/14/2022 10:30:00 PM -99999.99 -179968 -99999.99 -99999.99 -99999.99 -99999.99
6/14/2022 10:45:00 PM -99999.99 -179968 -99999.99 -99999.99 -99999.99 -99999.99
6/14/2022 11:00:00 PM -99999.99 -179968 -99999.99 -99999.99 -99999.99 -99999.99
6/14/2022 11:15:00 PM -99999.99 -179968 -99999.99 -99999.99 -99999.99 -99999.99
6/14/2022 11:30:00 PM -99999.99 -179968 -99999.99 -99999.99 -99999.99 -99999.99
6/14/2022 11:45:00 PM -99999.99 -179968 -99999.99 -99999.99 -99999.99 -99999.99
6/15/2022 12:00:00 AM -99999.99 -179968 -99999.99 -99999.99 -99999.99 -99999.99
6/15/2022 12:15:00 AM -99999.99 -179968 -99999.99 -99999.99 -99999.99 -99999.99
6/15/2022 12:30:00 AM -99999.99 -179968 -99999.99 -99999.99 -99999.99 -99999.99
6/15/2022 12:45:00 AM -99999.99 -179968 -99999.99 -99999.99 -99999.99 -99999.99
6/15/2022 1:00:00 AM -99999.99 -179968 -99999.99 -99999.99 -99999.99 -99999.99
6/15/2022 1:15:00 AM -99999.99 -179968 -99999.99 -99999.99 -99999.99 -99999.99
6/15/2022 1:30:00 AM -99999.99 -179968 -99999.99 -99999.99 -99999.99 -99999.99
6/15/2022 1:45:00 AM -99999.99 -179968 -99999.99 -99999.99 -99999.99 -99999.99
6/15/2022 2:00:00 AM -99999.99 -179968 -99999.99 -99999.99 -99999.99 -99999.99
6/15/2022 2:15:00 AM -99999.99 -179968 -99999.99 -99999.99 -99999.99 -99999.99
6/15/2022 2:30:00 AM -99999.99 -179968 -99999.99 -99999.99 -99999.99 -99999.99
6/15/2022 2:45:00 AM -99999.99 -179968 -99999.99 -99999.99 -99999.99 -99999.99
6/15/2022 3:00:00 AM -99999.99 -179968 -99999.99 -99999.99 -99999.99 -99999.99
6/15/2022 3:15:00 AM -99999.99 -179968 -99999.99 -99999.99 -99999.99 -99999.99
6/15/2022 3:30:00 AM -99999.99 -179968 -99999.99 -99999.99 -99999.99 -99999.99
6/15/2022 3:45:00 AM -99999.99 -179968 -99999.99 -99999.99 -99999.99 -99999.99
6/15/2022 4:00:00 AM -99999.99 -179968 -99999.99 -99999.99 -99999.99 -99999.99
6/15/2022 4:15:00 AM -99999.99 -179968 -99999.99 -99999.99 -99999.99 -99999.99
6/15/2022 4:30:00 AM -99999.99 -179968 -99999.99 -99999.99 -99999.99 -99999.99
6/15/2022 4:45:00 AM -99999.99 -179968 -99999.99 -99999.99 -99999.99 -99999.99
6/15/2022 5:00:00 AM -99999.99 -179968 -99999.99 -99999.99 -99999.99 -99999.99
6/15/2022 5:15:00 AM -99999.99 -179968 -99999.99 -99999.99 -99999.99 -99999.99
6/15/2022 5:30:00 AM -99999.99 -179968 -99999.99 -99999.99 -99999.99 -99999.99
6/15/2022 5:45:00 AM -99999.99 -179968 -99999.99 -99999.99 -99999.99 -99999.99
6/15/2022 6:00:00 AM -99999.99 -179968 -99999.99 -99999.99 -99999.99 -99999.99
6/15/2022 6:15:00 AM -99999.99 -179968 -99999.99 -99999.99 -99999.99 -99999.99
6/15/2022 6:30:00 AM -99999.99 -179968 -99999.99 -99999.99 -99999.99 -99999.99
6/15/2022 6:45:00 AM -99999.99 -179968 -99999.99 -99999.99 -99999.99 -99999.99
6/15/2022 7:00:00 AM -99999.99 -179968 -99999.99 -99999.99 -99999.99 -99999.99
6/15/2022 7:15:00 AM -99999.99 -179968 -99999.99 -99999.99 -99999.99 -99999.99
6/15/2022 7:30:00 AM -99999.99 -179968 -99999.99 -99999.99 -99999.99 -99999.99
6/15/2022 7:45:00 AM -99999.99 -179968 -99999.99 -99999.99 -99999.99 -99999.99
6/15/2022 8:00:00 AM -99999.99 -179968 -99999.99 -99999.99 -99999.99 -99999.99
6/15/2022 8:15:00 AM -99999.99 -179968 -99999.99 -99999.99 -99999.99 -99999.99
6/15/2022 8:30:00 AM -99999.99 -179968 -99999.99 -99999.99 -99999.99 -99999.99
6/15/2022 8:45:00 AM -99999.99 -179968 -99999.99 -99999.99 -99999.99 -99999.99
6/15/2022 9:00:00 AM -99999.99 -179968 -99999.99 -99999.99 -99999.99 -99999.99
6/15/2022 9:15:00 AM -99999.99 -179968 -99999.99 -99999.99 -99999.99 -99999.99
6/15/2022 9:30:00 AM -99999.99 -179968 -99999.99 -99999.99 -99999.99 -99999.99
6/15/2022 9:45:00 AM -99999.99 -179968 -99999.99 -99999.99 -99999.99 -99999.99
6/15/2022 10:00:00 AM -99999.99 -179968 -99999.99 -99999.99 -99999.99 -99999.99
6/15/2022 10:15:00 AM -99999.99 -179968 -99999.99 -99999.99 -99999.99 -99999.99
6/15/2022 10:30:00 AM -99999.99 -179968 -99999.99 -99999.99 -99999.99 -99999.99
6/15/2022 10:45:00 AM -99999.99 -179968 -99999.99 -99999.99 -99999.99 -99999.99
6/15/2022 11:00:00 AM -99999.99 -179968 -99999.99 -99999.99 -99999.99 -99999.99
6/15/2022 11:15:00 AM -99999.99 -179968 -99999.99 -99999.99 -99999.99 -99999.99
6/15/2022 11:30:00 AM -99999.99 -179968 -99999.99 -99999.99 -99999.99 -99999.99
6/15/2022 11:45:00 AM -99999.99 -179968 -99999.99 -99999.99 -99999.99 -99999.99
6/15/2022 12:00:00 PM -99999.99 -179968 -99999.99 -99999.99 -99999.99 -99999.99
6/15/2022 12:15:00 PM -99999.99 -179968 -99999.99 -99999.99 -99999.99 -99999.99
6/15/2022 12:30:00 PM -99999.99 -179968 -99999.99 -99999.99 -99999.99 -99999.99
6/15/2022 12:45:00 PM -99999.99 -179968 -99999.99 -99999.99 -99999.99 -99999.99
6/15/2022 1:00:00 PM -99999.99 -179968 -99999.99 -99999.99 -99999.99 -99999.99
6/15/2022 1:15:00 PM -99999.99 -179968 -99999.99 -99999.99 -99999.99 -99999.99
6/15/2022 1:30:00 PM -99999.99 -179968 -99999.99 -99999.99 -99999.99 -99999.99
6/15/2022 1:45:00 PM -99999.99 -179968 -99999.99 -99999.99 -99999.99 -99999.99
6/15/2022 2:00:00 PM -99999.99 -179968 -99999.99 -99999.99 -99999.99 -99999.99
6/15/2022 2:15:00 PM -99999.99 -179968 -99999.99 -99999.99 -99999.99 -99999.99
6/15/2022 2:30:00 PM -99999.99 -179968 -99999.99 -99999.99 -99999.99 -99999.99
6/15/2022 2:45:00 PM -99999.99 -179968 -99999.99 -99999.99 -99999.99 -99999.99
6/15/2022 3:00:00 PM -99999.99 -179968 -99999.99 -99999.99 -99999.99 -99999.99
6/15/2022 3:15:00 PM -99999.99 -179968 -99999.99 -99999.99 -99999.99 -99999.99
6/15/2022 3:30:00 PM -99999.99 -179968 -99999.99 -99999.99 -99999.99 -99999.99
6/15/2022 3:45:00 PM -99999.99 -179968 -99999.99 -99999.99 -99999.99 -99999.99
6/15/2022 4:00:00 PM -99999.99 -179968 -99999.99 -99999.99 -99999.99 -99999.99
6/15/2022 4:15:00 PM -99999.99 -179968 -99999.99 -99999.99 -99999.99 -99999.99
6/15/2022 4:30:00 PM -99999.99 -179968 -99999.99 -99999.99 -99999.99 -99999.99
6/15/2022 4:45:00 PM -99999.99 -179968 -99999.99 -99999.99 -99999.99 -99999.99
6/15/2022 5:00:00 PM -99999.99 -179968 -99999.99 -99999.99 -99999.99 -99999.99
6/15/2022 5:15:00 PM -99999.99 -179968 -99999.99 -99999.99 -99999.99 -99999.99
6/15/2022 5:30:00 PM -99999.99 -179968 -99999.99 -99999.99 -99999.99 -99999.99
6/15/2022 5:45:00 PM -99999.99 -179968 -99999.99 -99999.99 -99999.99 -99999.99
6/15/2022 6:00:00 PM -99999.99 -179968 -99999.99 -99999.99 -99999.99 -99999.99
6/15/2022 6:15:00 PM -99999.99 -179968 -99999.99 -99999.99 -99999.99 -99999.99
6/15/2022 6:30:00 PM -99999.99 -179968 -99999.99 -99999.99 -99999.99 -99999.99
6/15/2022 6:45:00 PM -99999.99 -179968 -99999.99 -99999.99 -99999.99 -99999.99
6/15/2022 7:00:00 PM -99999.99 -179968 -99999.99 -99999.99 -99999.99 -99999.99
6/15/2022 7:15:00 PM -99999.99 -179968 -99999.99 -99999.99 -99999.99 -99999.99
6/15/2022 7:30:00 PM -99999.99 -179968 -99999.99 -99999.99 -99999.99 -99999.99
6/15/2022 7:45:00 PM -99999.99 -179968 -99999.99 -99999.99 -99999.99 -99999.99
6/15/2022 8:00:00 PM -99999.99 -179968 -99999.99 -99999.99 -99999.99 -99999.99
6/15/2022 8:15:00 PM -99999.99 -179968 -99999.99 -99999.99 -99999.99 -99999.99
6/15/2022 8:30:00 PM -99999.99 -179968 -99999.99 -99999.99 -99999.99 -99999.99
6/15/2022 8:45:00 PM -99999.99 -179968 -99999.99 -99999.99 -99999.99 -99999.99
6/15/2022 9:00:00 PM -99999.99 -179968 -99999.99 -99999.99 -99999.99 -99999.99
6/15/2022 9:15:00 PM -99999.99 -179968 -99999.99 -99999.99 -99999.99 -99999.99
6/15/2022 9:30:00 PM -99999.99 -179968 -99999.99 -99999.99 -99999.99 -99999.99
6/15/2022 9:45:00 PM -99999.99 -179968 -99999.99 -99999.99 -99999.99 -99999.99
6/15/2022 10:00:00 PM -99999.99 -179968 -99999.99 -99999.99 -99999.99 -99999.99
6/15/2022 10:15:00 PM -99999.99 -179968 -99999.99 -99999.99 -99999.99 -99999.99
6/15/2022 10:30:00 PM -99999.99 -179968 -99999.99 -99999.99 -99999.99 -99999.99
6/15/2022 10:45:00 PM -99999.99 -179968 -99999.99 -99999.99 -99999.99 -99999.99
6/15/2022 11:00:00 PM -99999.99 -179968 -99999.99 -99999.99 -99999.99 -99999.99
6/15/2022 11:15:00 PM -99999.99 -179968 -99999.99 -99999.99 -99999.99 -99999.99
6/15/2022 11:30:00 PM -99999.99 -179968 -99999.99 -99999.99 -99999.99 -99999.99
6/15/2022 11:45:00 PM -99999.99 -179968 -99999.99 -99999.99 -99999.99 -99999.99
6/16/2022 12:00:00 AM -99999.99 -179968 -99999.99 -99999.99 -99999.99 -99999.99
6/16/2022 12:15:00 AM -99999.99 -179968 -99999.99 -99999.99 -99999.99 -99999.99
6/16/2022 12:30:00 AM -99999.99 -179968 -99999.99 -99999.99 -99999.99 -99999.99
6/16/2022 12:45:00 AM -99999.99 -179968 -99999.99 -99999.99 -99999.99 -99999.99
6/16/2022 1:00:00 AM -99999.99 -179968 -99999.99 -99999.99 -99999.99 -99999.99
6/16/2022 1:15:00 AM -99999.99 -179968 -99999.99 -99999.99 -99999.99 -99999.99
6/16/2022 1:30:00 AM -99999.99 -179968 -99999.99 -99999.99 -99999.99 -99999.99
6/16/2022 1:45:00 AM -99999.99 -179968 -99999.99 -99999.99 -99999.99 -99999.99
6/16/2022 2:00:00 AM -99999.99 -179968 -99999.99 -99999.99 -99999.99 -99999.99
6/16/2022 2:15:00 AM -99999.99 -179968 -99999.99 -99999.99 -99999.99 -99999.99
6/16/2022 2:30:00 AM -99999.99 -179968 -99999.99 -99999.99 -99999.99 -99999.99
6/16/2022 2:45:00 AM -99999.99 -179968 -99999.99 -99999.99 -99999.99 -99999.99
6/16/2022 3:00:00 AM -99999.99 -179968 -99999.99 -99999.99 -99999.99 -99999.99
6/16/2022 3:15:00 AM -99999.99 -179968 -99999.99 -99999.99 -99999.99 -99999.99
6/16/2022 3:30:00 AM -99999.99 -179968 -99999.99 -99999.99 -99999.99 -99999.99
6/16/2022 3:45:00 AM -99999.99 -179968 -99999.99 -99999.99 -99999.99 -99999.99
6/16/2022 4:00:00 AM -99999.99 -179968 -99999.99 -99999.99 -99999.99 -99999.99
6/16/2022 4:15:00 AM -99999.99 -179968 -99999.99 -99999.99 -99999.99 -99999.99
6/16/2022 4:30:00 AM -99999.99 -179968 -99999.99 -99999.99 -99999.99 -99999.99
6/16/2022 4:45:00 AM -99999.99 -179968 -99999.99 -99999.99 -99999.99 -99999.99
6/16/2022 5:00:00 AM -99999.99 -179968 -99999.99 -99999.99 -99999.99 -99999.99
6/16/2022 5:15:00 AM -99999.99 -179968 -99999.99 -99999.99 -99999.99 -99999.99
6/16/2022 5:30:00 AM -99999.99 -179968 -99999.99 -99999.99 -99999.99 -99999.99
6/16/2022 5:45:00 AM -99999.99 -179968 -99999.99 -99999.99 -99999.99 -99999.99
6/16/2022 6:00:00 AM -99999.99 -179968 -99999.99 -99999.99 -99999.99 -99999.99
6/16/2022 6:15:00 AM -99999.99 -179968 -99999.99 -99999.99 -99999.99 -99999.99
6/16/2022 6:30:00 AM -99999.99 -179968 -99999.99 -99999.99 -99999.99 -99999.99
6/16/2022 6:45:00 AM -99999.99 -179968 -99999.99 -99999.99 -99999.99 -99999.99
6/16/2022 7:00:00 AM -99999.99 -179968 -99999.99 -99999.99 -99999.99 -99999.99
6/16/2022 7:15:00 AM -99999.99 -179968 -99999.99 -99999.99 -99999.99 -99999.99
6/16/2022 7:30:00 AM -99999.99 -179968 -99999.99 -99999.99 -99999.99 -99999.99
6/16/2022 7:45:00 AM -99999.99 -179968 -99999.99 -99999.99 -99999.99 -99999.99
6/16/2022 8:00:00 AM -99999.99 -179968 -99999.99 -99999.99 -99999.99 -99999.99
6/16/2022 8:15:00 AM -99999.99 -179968 -99999.99 -99999.99 -99999.99 -99999.99
6/16/2022 8:30:00 AM -99999.99 -179968 -99999.99 -99999.99 -99999.99 -99999.99
6/16/2022 8:45:00 AM -99999.99 -179968 -99999.99 -99999.99 -99999.99 -99999.99
6/16/2022 9:00:00 AM -99999.99 -179968 -99999.99 -99999.99 -99999.99 -99999.99
6/16/2022 9:15:00 AM -99999.99 -179968 -99999.99 -99999.99 -99999.99 -99999.99
6/16/2022 9:30:00 AM -99999.99 -179968 -99999.99 -99999.99 -99999.99 -99999.99
6/16/2022 9:45:00 AM -99999.99 -179968 -99999.99 -99999.99 -99999.99 -99999.99
6/16/2022 10:00:00 AM -99999.99 -179968 -99999.99 -99999.99 -99999.99 -99999.99
6/16/2022 10:15:00 AM -99999.99 -179968 -99999.99 -99999.99 -99999.99 -99999.99
6/16/2022 10:30:00 AM -99999.99 -179968 -99999.99 -99999.99 -99999.99 -99999.99
6/16/2022 10:45:00 AM -99999.99 -179968 -99999.99 -99999.99 -99999.99 -99999.99
6/16/2022 11:00:00 AM -99999.99 -179968 -99999.99 -99999.99 -99999.99 -99999.99
6/16/2022 11:15:00 AM -99999.99 -179968 -99999.99 -99999.99 -99999.99 -99999.99
6/16/2022 11:30:00 AM -99999.99 -179968 -99999.99 -99999.99 -99999.99 -99999.99
6/16/2022 11:45:00 AM -99999.99 -179968 -99999.99 -99999.99 -99999.99 -99999.99
6/16/2022 12:00:00 PM -99999.99 -179968 -99999.99 -99999.99 -99999.99 -99999.99
6/16/2022 12:15:00 PM -99999.99 -179968 -99999.99 -99999.99 -99999.99 -99999.99
6/16/2022 12:30:00 PM -99999.99 -179968 -99999.99 -99999.99 -99999.99 -99999.99
6/16/2022 12:45:00 PM -99999.99 -179968 -99999.99 -99999.99 -99999.99 -99999.99
6/16/2022 1:00:00 PM -99999.99 -179968 -99999.99 -99999.99 -99999.99 -99999.99
6/16/2022 1:15:00 PM -99999.99 -179968 -99999.99 -99999.99 -99999.99 -99999.99
6/16/2022 1:30:00 PM -99999.99 -179968 -99999.99 -99999.99 -99999.99 -99999.99
6/16/2022 1:45:00 PM -99999.99 -179968 -99999.99 -99999.99 -99999.99 -99999.99
6/16/2022 2:00:00 PM -99999.99 -179968 -99999.99 -99999.99 -99999.99 -99999.99
6/16/2022 2:15:00 PM -99999.99 -179968 -99999.99 -99999.99 -99999.99 -99999.99
6/16/2022 2:30:00 PM -99999.99 -179968 -99999.99 -99999.99 -99999.99 -99999.99
6/16/2022 2:45:00 PM -99999.99 -179968 -99999.99 -99999.99 -99999.99 -99999.99
6/16/2022 3:00:00 PM -99999.99 -179968 -99999.99 -99999.99 -99999.99 -99999.99
6/16/2022 3:15:00 PM -99999.99 -179968 -99999.99 -99999.99 -99999.99 -99999.99
6/16/2022 3:30:00 PM -99999.99 -179968 -99999.99 -99999.99 -99999.99 -99999.99
6/16/2022 3:45:00 PM -99999.99 -179968 -99999.99 -99999.99 -99999.99 -99999.99
6/16/2022 4:00:00 PM -99999.99 -179968 -99999.99 -99999.99 -99999.99 -99999.99
6/16/2022 4:15:00 PM -99999.99 -179968 -99999.99 -99999.99 -99999.99 -99999.99
6/16/2022 4:30:00 PM -99999.99 -179968 -99999.99 -99999.99 -99999.99 -99999.99
6/16/2022 4:45:00 PM -99999.99 -179968 -99999.99 -99999.99 -99999.99 -99999.99
6/16/2022 5:00:00 PM -99999.99 -179968 -99999.99 -99999.99 -99999.99 -99999.99
6/16/2022 5:15:00 PM -99999.99 -179968 -99999.99 -99999.99 -99999.99 -99999.99
6/16/2022 5:30:00 PM -99999.99 -179968 -99999.99 -99999.99 -99999.99 -99999.99
6/16/2022 5:45:00 PM -99999.99 -179968 -99999.99 -99999.99 -99999.99 -99999.99
6/16/2022 6:00:00 PM -99999.99 -179968 -99999.99 -99999.99 -99999.99 -99999.99
6/16/2022 6:15:00 PM -99999.99 -179968 -99999.99 -99999.99 -99999.99 -99999.99
6/16/2022 6:30:00 PM -99999.99 -179968 -99999.99 -99999.99 -99999.99 -99999.99
6/16/2022 6:45:00 PM -99999.99 -179968 -99999.99 -99999.99 -99999.99 -99999.99
6/16/2022 7:00:00 PM -99999.99 -179968 -99999.99 -99999.99 -99999.99 -99999.99
6/16/2022 7:15:00 PM -99999.99 -179968 -99999.99 -99999.99 -99999.99 -99999.99
6/16/2022 7:30:00 PM -99999.99 -179968 -99999.99 -99999.99 -99999.99 -99999.99
6/16/2022 7:45:00 PM -99999.99 -179968 -99999.99 -99999.99 -99999.99 -99999.99
6/16/2022 8:00:00 PM -99999.99 -179968 -99999.99 -99999.99 -99999.99 -99999.99
6/16/2022 8:15:00 PM -99999.99 -179968 -99999.99 -99999.99 -99999.99 -99999.99
6/16/2022 8:30:00 PM -99999.99 -179968 -99999.99 -99999.99 -99999.99 -99999.99
6/16/2022 8:45:00 PM -99999.99 -179968 -99999.99 -99999.99 -99999.99 -99999.99
6/16/2022 9:00:00 PM -99999.99 -179968 -99999.99 -99999.99 -99999.99 -99999.99
6/16/2022 9:15:00 PM -99999.99 -179968 -99999.99 -99999.99 -99999.99 -99999.99
6/16/2022 9:30:00 PM -99999.99 -179968 -99999.99 -99999.99 -99999.99 -99999.99
6/16/2022 9:45:00 PM -99999.99 -179968 -99999.99 -99999.99 -99999.99 -99999.99
6/16/2022 10:00:00 PM -99999.99 -179968 -99999.99 -99999.99 -99999.99 -99999.99
6/16/2022 10:15:00 PM -99999.99 -179968 -99999.99 -99999.99 -99999.99 -99999.99
6/16/2022 10:30:00 PM -99999.99 -179968 -99999.99 -99999.99 -99999.99 -99999.99
6/16/2022 10:45:00 PM -99999.99 -179968 -99999.99 -99999.99 -99999.99 -99999.99
6/16/2022 11:00:00 PM -99999.99 -179968 -99999.99 -99999.99 -99999.99 -99999.99
6/16/2022 11:15:00 PM -99999.99 -179968 -99999.99 -99999.99 -99999.99 -99999.99
6/16/2022 11:30:00 PM -99999.99 -179968 -99999.99 -99999.99 -99999.99 -99999.99
6/16/2022 11:45:00 PM -99999.99 -179968 -99999.99 -99999.99 -99999.99 -99999.99
6/17/2022 12:00:00 AM -99999.99 -179968 -99999.99 -99999.99 -99999.99 -99999.99
6/17/2022 12:15:00 AM -99999.99 -179968 -99999.99 -99999.99 -99999.99 -99999.99
6/17/2022 12:30:00 AM -99999.99 -179968 -99999.99 -99999.99 -99999.99 -99999.99
6/17/2022 12:45:00 AM -99999.99 -179968 -99999.99 -99999.99 -99999.99 -99999.99
6/17/2022 1:00:00 AM -99999.99 -179968 -99999.99 -99999.99 -99999.99 -99999.99
6/17/2022 1:15:00 AM -99999.99 -179968 -99999.99 -99999.99 -99999.99 -99999.99
6/17/2022 1:30:00 AM -99999.99 -179968 -99999.99 -99999.99 -99999.99 -99999.99
6/17/2022 1:45:00 AM -99999.99 -179968 -99999.99 -99999.99 -99999.99 -99999.99
6/17/2022 2:00:00 AM -99999.99 -179968 -99999.99 -99999.99 -99999.99 -99999.99
6/17/2022 2:15:00 AM -99999.99 -179968 -99999.99 -99999.99 -99999.99 -99999.99
6/17/2022 2:30:00 AM -99999.99 -179968 -99999.99 -99999.99 -99999.99 -99999.99
6/17/2022 2:45:00 AM -99999.99 -179968 -99999.99 -99999.99 -99999.99 -99999.99
6/17/2022 3:00:00 AM -99999.99 -179968 -99999.99 -99999.99 -99999.99 -99999.99
6/17/2022 3:15:00 AM -99999.99 -179968 -99999.99 -99999.99 -99999.99 -99999.99
6/17/2022 3:30:00 AM -99999.99 -179968 -99999.99 -99999.99 -99999.99 -99999.99
6/17/2022 3:45:00 AM -99999.99 -179968 -99999.99 -99999.99 -99999.99 -99999.99
6/17/2022 4:00:00 AM -99999.99 -179968 -99999.99 -99999.99 -99999.99 -99999.99
6/17/2022 4:15:00 AM -99999.99 -179968 -99999.99 -99999.99 -99999.99 -99999.99
6/17/2022 4:30:00 AM -99999.99 -179968 -99999.99 -99999.99 -99999.99 -99999.99
6/17/2022 4:45:00 AM -99999.99 -179968 -99999.99 -99999.99 -99999.99 -99999.99
6/17/2022 5:00:00 AM -99999.99 -179968 -99999.99 -99999.99 -99999.99 -99999.99
6/17/2022 5:15:00 AM -99999.99 -179968 -99999.99 -99999.99 -99999.99 -99999.99
6/17/2022 5:30:00 AM -99999.99 -179968 -99999.99 -99999.99 -99999.99 -99999.99
6/17/2022 5:45:00 AM -99999.99 -179968 -99999.99 -99999.99 -99999.99 -99999.99
6/17/2022 6:00:00 AM -99999.99 -179968 -99999.99 -99999.99 -99999.99 -99999.99
6/17/2022 6:15:00 AM -99999.99 -179968 -99999.99 -99999.99 -99999.99 -99999.99
6/17/2022 6:30:00 AM -99999.99 -179968 -99999.99 -99999.99 -99999.99 -99999.99
6/17/2022 6:45:00 AM -99999.99 -179968 -99999.99 -99999.99 -99999.99 -99999.99
6/17/2022 7:00:00 AM -99999.99 -179968 -99999.99 -99999.99 -99999.99 -99999.99
6/17/2022 7:15:00 AM -99999.99 -179968 -99999.99 -99999.99 -99999.99 -99999.99
6/17/2022 7:30:00 AM -99999.99 -179968 -99999.99 -99999.99 -99999.99 -99999.99
6/17/2022 7:45:00 AM -99999.99 -179968 -99999.99 -99999.99 -99999.99 -99999.99
6/17/2022 8:00:00 AM -99999.99 -179968 -99999.99 -99999.99 -99999.99 -99999.99
6/17/2022 8:15:00 AM -99999.99 -179968 -99999.99 -99999.99 -99999.99 -99999.99
6/17/2022 8:30:00 AM -99999.99 -179968 -99999.99 -99999.99 -99999.99 -99999.99
6/17/2022 8:45:00 AM -99999.99 -179968 -99999.99 -99999.99 -99999.99 -99999.99
6/17/2022 9:00:00 AM -99999.99 -179968 -99999.99 -99999.99 -99999.99 -99999.99
6/17/2022 9:15:00 AM -99999.99 -179968 -99999.99 -99999.99 -99999.99 -99999.99
6/17/2022 9:30:00 AM -99999.99 -179968 -99999.99 -99999.99 -99999.99 -99999.99
6/17/2022 9:45:00 AM -99999.99 -179968 -99999.99 -99999.99 -99999.99 -99999.99
6/17/2022 10:00:00 AM -99999.99 -179968 -99999.99 -99999.99 -99999.99 -99999.99
6/17/2022 10:15:00 AM -99999.99 -179968 -99999.99 -99999.99 -99999.99 -99999.99
6/17/2022 10:30:00 AM -99999.99 -179968 -99999.99 -99999.99 -99999.99 -99999.99
6/17/2022 10:45:00 AM -99999.99 -179968 -99999.99 -99999.99 -99999.99 -99999.99
6/17/2022 11:00:00 AM -99999.99 -179968 -99999.99 -99999.99 -99999.99 -99999.99
6/17/2022 11:15:00 AM -99999.99 -179968 -99999.99 -99999.99 -99999.99 -99999.99
6/17/2022 11:30:00 AM -99999.99 -179968 -99999.99 -99999.99 -99999.99 -99999.99
6/17/2022 11:45:00 AM -99999.99 -179968 -99999.99 -99999.99 -99999.99 -99999.99
6/17/2022 12:00:00 PM -99999.99 -179968 -99999.99 -99999.99 -99999.99 -99999.99
6/17/2022 12:15:00 PM -99999.99 -179968 -99999.99 -99999.99 -99999.99 -99999.99
6/17/2022 12:30:00 PM -99999.99 -179968 -99999.99 -99999.99 -99999.99 -99999.99
6/17/2022 12:45:00 PM -99999.99 -179968 -99999.99 -99999.99 -99999.99 -99999.99
6/17/2022 1:00:00 PM -99999.99 -179968 -99999.99 -99999.99 -99999.99 -99999.99
6/17/2022 1:15:00 PM -99999.99 -179968 -99999.99 -99999.99 -99999.99 -99999.99
6/17/2022 1:30:00 PM -99999.99 -179968 -99999.99 -99999.99 -99999.99 -99999.99
6/17/2022 1:45:00 PM -99999.99 -179968 -99999.99 -99999.99 -99999.99 -99999.99
6/17/2022 2:00:00 PM -99999.99 -179968 -99999.99 -99999.99 -99999.99 -99999.99
6/17/2022 2:15:00 PM -99999.99 -179968 -99999.99 -99999.99 -99999.99 -99999.99
6/17/2022 2:30:00 PM -99999.99 -179968 -99999.99 -99999.99 -99999.99 -99999.99
6/17/2022 2:45:00 PM -99999.99 -179968 -99999.99 -99999.99 -99999.99 -99999.99
6/17/2022 3:00:00 PM -99999.99 -179968 -99999.99 -99999.99 -99999.99 -99999.99
6/17/2022 3:15:00 PM -99999.99 -179968 -99999.99 -99999.99 -99999.99 -99999.99
6/17/2022 3:30:00 PM -99999.99 -179968 -99999.99 -99999.99 -99999.99 -99999.99
6/17/2022 3:45:00 PM -99999.99 -179968 -99999.99 -99999.99 -99999.99 -99999.99
6/17/2022 4:00:00 PM -99999.99 -179968 -99999.99 -99999.99 -99999.99 -99999.99
6/17/2022 4:15:00 PM -99999.99 -179968 -99999.99 -99999.99 -99999.99 -99999.99
6/17/2022 4:30:00 PM -99999.99 -179968 -99999.99 -99999.99 -99999.99 -99999.99
6/17/2022 4:45:00 PM -99999.99 -179968 -99999.99 -99999.99 -99999.99 -99999.99
6/17/2022 5:00:00 PM -99999.99 -179968 -99999.99 -99999.99 -99999.99 -99999.99
6/17/2022 5:15:00 PM -99999.99 -179968 -99999.99 -99999.99 -99999.99 -99999.99
6/17/2022 5:30:00 PM -99999.99 -179968 -99999.99 -99999.99 -99999.99 -99999.99
6/17/2022 5:45:00 PM -99999.99 -179968 -99999.99 -99999.99 -99999.99 -99999.99
6/17/2022 6:00:00 PM -99999.99 -179968 -99999.99 -99999.99 -99999.99 -99999.99
6/17/2022 6:15:00 PM -99999.99 -179968 -99999.99 -99999.99 -99999.99 -99999.99
6/17/2022 6:30:00 PM -99999.99 -179968 -99999.99 -99999.99 -99999.99 -99999.99
6/17/2022 6:45:00 PM -99999.99 -179968 -99999.99 -99999.99 -99999.99 -99999.99
6/17/2022 7:00:00 PM -99999.99 -179968 -99999.99 -99999.99 -99999.99 -99999.99
6/17/2022 7:15:00 PM -99999.99 -179968 -99999.99 -99999.99 -99999.99 -99999.99
6/17/2022 7:30:00 PM -99999.99 -179968 -99999.99 -99999.99 -99999.99 -99999.99
6/17/2022 7:45:00 PM -99999.99 -179968 -99999.99 -99999.99 -99999.99 -99999.99
6/17/2022 8:00:00 PM -99999.99 -179968 -99999.99 -99999.99 -99999.99 -99999.99
6/17/2022 8:15:00 PM -99999.99 -179968 -99999.99 -99999.99 -99999.99 -99999.99
6/17/2022 8:30:00 PM -99999.99 -179968 -99999.99 -99999.99 -99999.99 -99999.99
6/17/2022 8:45:00 PM -99999.99 -179968 -99999.99 -99999.99 -99999.99 -99999.99
6/17/2022 9:00:00 PM -99999.99 -179968 -99999.99 -99999.99 -99999.99 -99999.99
6/17/2022 9:15:00 PM -99999.99 -179968 -99999.99 -99999.99 -99999.99 -99999.99
6/17/2022 9:30:00 PM -99999.99 -179968 -99999.99 -99999.99 -99999.99 -99999.99
6/17/2022 9:45:00 PM -99999.99 -179968 -99999.99 -99999.99 -99999.99 -99999.99
6/17/2022 10:00:00 PM -99999.99 -179968 -99999.99 -99999.99 -99999.99 -99999.99
6/17/2022 10:15:00 PM -99999.99 -179968 -99999.99 -99999.99 -99999.99 -99999.99
6/17/2022 10:30:00 PM -99999.99 -179968 -99999.99 -99999.99 -99999.99 -99999.99
6/17/2022 10:45:00 PM -99999.99 -179968 -99999.99 -99999.99 -99999.99 -99999.99
6/17/2022 11:00:00 PM -99999.99 -179968 -99999.99 -99999.99 -99999.99 -99999.99
6/17/2022 11:15:00 PM -99999.99 -179968 -99999.99 -99999.99 -99999.99 -99999.99
6/17/2022 11:30:00 PM -99999.99 -179968 -99999.99 -99999.99 -99999.99 -99999.99
6/17/2022 11:45:00 PM -99999.99 -179968 -99999.99 -99999.99 -99999.99 -99999.99
6/18/2022 12:00:00 AM -99999.99 -179968 -99999.99 -99999.99 -99999.99 -99999.99
6/18/2022 12:15:00 AM -99999.99 -179968 -99999.99 -99999.99 -99999.99 -99999.99
6/18/2022 12:30:00 AM -99999.99 -179968 -99999.99 -99999.99 -99999.99 -99999.99
6/18/2022 12:45:00 AM -99999.99 -179968 -99999.99 -99999.99 -99999.99 -99999.99
6/18/2022 1:00:00 AM -99999.99 -179968 -99999.99 -99999.99 -99999.99 -99999.99
6/18/2022 1:15:00 AM -99999.99 -179968 -99999.99 -99999.99 -99999.99 -99999.99
6/18/2022 1:30:00 AM -99999.99 -179968 -99999.99 -99999.99 -99999.99 -99999.99
6/18/2022 1:45:00 AM -99999.99 -179968 -99999.99 -99999.99 -99999.99 -99999.99
6/18/2022 2:00:00 AM -99999.99 -179968 -99999.99 -99999.99 -99999.99 -99999.99
6/18/2022 2:15:00 AM -99999.99 -179968 -99999.99 -99999.99 -99999.99 -99999.99
6/18/2022 2:30:00 AM -99999.99 -179968 -99999.99 -99999.99 -99999.99 -99999.99
6/18/2022 2:45:00 AM -99999.99 -179968 -99999.99 -99999.99 -99999.99 -99999.99
6/18/2022 3:00:00 AM -99999.99 -179968 -99999.99 -99999.99 -99999.99 -99999.99
6/18/2022 3:15:00 AM -99999.99 -179968 -99999.99 -99999.99 -99999.99 -99999.99
6/18/2022 3:30:00 AM -99999.99 -179968 -99999.99 -99999.99 -99999.99 -99999.99
6/18/2022 3:45:00 AM -99999.99 -179968 -99999.99 -99999.99 -99999.99 -99999.99
6/18/2022 4:00:00 AM -99999.99 -179968 -99999.99 -99999.99 -99999.99 -99999.99
6/18/2022 4:15:00 AM -99999.99 -179968 -99999.99 -99999.99 -99999.99 -99999.99
6/18/2022 4:30:00 AM -99999.99 -179968 -99999.99 -99999.99 -99999.99 -99999.99
6/18/2022 4:45:00 AM -99999.99 -179968 -99999.99 -99999.99 -99999.99 -99999.99
6/18/2022 5:00:00 AM -99999.99 -179968 -99999.99 -99999.99 -99999.99 -99999.99
6/18/2022 5:15:00 AM -99999.99 -179968 -99999.99 -99999.99 -99999.99 -99999.99
6/18/2022 5:30:00 AM -99999.99 -179968 -99999.99 -99999.99 -99999.99 -99999.99
6/18/2022 5:45:00 AM -99999.99 -179968 -99999.99 -99999.99 -99999.99 -99999.99
6/18/2022 6:00:00 AM -99999.99 -179968 -99999.99 -99999.99 -99999.99 -99999.99
6/18/2022 6:15:00 AM -99999.99 -179968 -99999.99 -99999.99 -99999.99 -99999.99
6/18/2022 6:30:00 AM -99999.99 -179968 -99999.99 -99999.99 -99999.99 -99999.99
6/18/2022 6:45:00 AM -99999.99 -179968 -99999.99 -99999.99 -99999.99 -99999.99
6/18/2022 7:00:00 AM -99999.99 -179968 -99999.99 -99999.99 -99999.99 -99999.99
6/18/2022 7:15:00 AM -99999.99 -179968 -99999.99 -99999.99 -99999.99 -99999.99
6/18/2022 7:30:00 AM -99999.99 -179968 -99999.99 -99999.99 -99999.99 -99999.99
6/18/2022 7:45:00 AM -99999.99 -179968 -99999.99 -99999.99 -99999.99 -99999.99
6/18/2022 8:00:00 AM -99999.99 -179968 -99999.99 -99999.99 -99999.99 -99999.99
6/18/2022 8:15:00 AM -99999.99 -179968 -99999.99 -99999.99 -99999.99 -99999.99
6/18/2022 8:30:00 AM -99999.99 -179968 -99999.99 -99999.99 -99999.99 -99999.99
6/18/2022 8:45:00 AM -99999.99 -179968 -99999.99 -99999.99 -99999.99 -99999.99
6/18/2022 9:00:00 AM -99999.99 -179968 -99999.99 -99999.99 -99999.99 -99999.99
6/18/2022 9:15:00 AM -99999.99 -179968 -99999.99 -99999.99 -99999.99 -99999.99
6/18/2022 9:30:00 AM -99999.99 -179968 -99999.99 -99999.99 -99999.99 -99999.99
6/18/2022 9:45:00 AM -99999.99 -179968 -99999.99 -99999.99 -99999.99 -99999.99
6/18/2022 10:00:00 AM -99999.99 -179968 -99999.99 -99999.99 -99999.99 -99999.99
6/18/2022 10:15:00 AM -99999.99 -179968 -99999.99 -99999.99 -99999.99 -99999.99
6/18/2022 10:30:00 AM -99999.99 -179968 -99999.99 -99999.99 -99999.99 -99999.99
6/18/2022 10:45:00 AM -99999.99 -179968 -99999.99 -99999.99 -99999.99 -99999.99
6/18/2022 11:00:00 AM -99999.99 -179968 -99999.99 -99999.99 -99999.99 -99999.99
6/18/2022 11:15:00 AM -99999.99 -179968 -99999.99 -99999.99 -99999.99 -99999.99
6/18/2022 11:30:00 AM -99999.99 -179968 -99999.99 -99999.99 -99999.99 -99999.99
6/18/2022 11:45:00 AM -99999.99 -179968 -99999.99 -99999.99 -99999.99 -99999.99
6/18/2022 12:00:00 PM -99999.99 -179968 -99999.99 -99999.99 -99999.99 -99999.99
6/18/2022 12:15:00 PM -99999.99 -179968 -99999.99 -99999.99 -99999.99 -99999.99
6/18/2022 12:30:00 PM -99999.99 -179968 -99999.99 -99999.99 -99999.99 -99999.99
6/18/2022 12:45:00 PM -99999.99 -179968 -99999.99 -99999.99 -99999.99 -99999.99
6/18/2022 1:00:00 PM -99999.99 -179968 -99999.99 -99999.99 -99999.99 -99999.99
6/18/2022 1:15:00 PM -99999.99 -179968 -99999.99 -99999.99 -99999.99 -99999.99
6/18/2022 1:30:00 PM -99999.99 -179968 -99999.99 -99999.99 -99999.99 -99999.99
6/18/2022 1:45:00 PM -99999.99 -179968 -99999.99 -99999.99 -99999.99 -99999.99
6/18/2022 2:00:00 PM -99999.99 -179968 -99999.99 -99999.99 -99999.99 -99999.99
6/18/2022 2:15:00 PM -99999.99 -179968 -99999.99 -99999.99 -99999.99 -99999.99
6/18/2022 2:30:00 PM -99999.99 -179968 -99999.99 -99999.99 -99999.99 -99999.99
6/18/2022 2:45:00 PM -99999.99 -179968 -99999.99 -99999.99 -99999.99 -99999.99
6/18/2022 3:00:00 PM -99999.99 -179968 -99999.99 -99999.99 -99999.99 -99999.99
6/18/2022 3:15:00 PM -99999.99 -179968 -99999.99 -99999.99 -99999.99 -99999.99
6/18/2022 3:30:00 PM -99999.99 -179968 -99999.99 -99999.99 -99999.99 -99999.99
6/18/2022 3:45:00 PM -99999.99 -179968 -99999.99 -99999.99 -99999.99 -99999.99
6/18/2022 4:00:00 PM -99999.99 -179968 -99999.99 -99999.99 -99999.99 -99999.99
6/18/2022 4:15:00 PM -99999.99 -179968 -99999.99 -99999.99 -99999.99 -99999.99
6/18/2022 4:30:00 PM -99999.99 -179968 -99999.99 -99999.99 -99999.99 -99999.99
6/18/2022 4:45:00 PM -99999.99 -179968 -99999.99 -99999.99 -99999.99 -99999.99
6/18/2022 5:00:00 PM -99999.99 -179968 -99999.99 -99999.99 -99999.99 -99999.99
6/18/2022 5:15:00 PM -99999.99 -179968 -99999.99 -99999.99 -99999.99 -99999.99
6/18/2022 5:30:00 PM -99999.99 -179968 -99999.99 -99999.99 -99999.99 -99999.99
6/18/2022 5:45:00 PM -99999.99 -179968 -99999.99 -99999.99 -99999.99 -99999.99
6/18/2022 6:00:00 PM -99999.99 -179968 -99999.99 -99999.99 -99999.99 -99999.99
6/18/2022 6:15:00 PM -99999.99 -179968 -99999.99 -99999.99 -99999.99 -99999.99
6/18/2022 6:30:00 PM -99999.99 -179968 -99999.99 -99999.99 -99999.99 -99999.99
6/18/2022 6:45:00 PM -99999.99 -179968 -99999.99 -99999.99 -99999.99 -99999.99
6/18/2022 7:00:00 PM -99999.99 -179968 -99999.99 -99999.99 -99999.99 -99999.99
6/18/2022 7:15:00 PM -99999.99 -179968 -99999.99 -99999.99 -99999.99 -99999.99
6/18/2022 7:30:00 PM -99999.99 -179968 -99999.99 -99999.99 -99999.99 -99999.99
6/18/2022 7:45:00 PM -99999.99 -179968 -99999.99 -99999.99 -99999.99 -99999.99
6/18/2022 8:00:00 PM -99999.99 -179968 -99999.99 -99999.99 -99999.99 -99999.99
6/18/2022 8:15:00 PM -99999.99 -179968 -99999.99 -99999.99 -99999.99 -99999.99
6/18/2022 8:30:00 PM -99999.99 -179968 -99999.99 -99999.99 -99999.99 -99999.99
6/18/2022 8:45:00 PM -99999.99 -179968 -99999.99 -99999.99 -99999.99 -99999.99
6/18/2022 9:00:00 PM -99999.99 -179968 -99999.99 -99999.99 -99999.99 -99999.99
6/18/2022 9:15:00 PM -99999.99 -179968 -99999.99 -99999.99 -99999.99 -99999.99
6/18/2022 9:30:00 PM -99999.99 -179968 -99999.99 -99999.99 -99999.99 -99999.99
6/18/2022 9:45:00 PM -99999.99 -179968 -99999.99 -99999.99 -99999.99 -99999.99
6/18/2022 10:00:00 PM -99999.99 -179968 -99999.99 -99999.99 -99999.99 -99999.99
6/18/2022 10:15:00 PM -99999.99 -179968 -99999.99 -99999.99 -99999.99 -99999.99
6/18/2022 10:30:00 PM -99999.99 -179968 -99999.99 -99999.99 -99999.99 -99999.99
6/18/2022 10:45:00 PM -99999.99 -179968 -99999.99 -99999.99 -99999.99 -99999.99
6/18/2022 11:00:00 PM -99999.99 -179968 -99999.99 -99999.99 -99999.99 -99999.99
6/18/2022 11:15:00 PM -99999.99 -179968 -99999.99 -99999.99 -99999.99 -99999.99
6/18/2022 11:30:00 PM -99999.99 -179968 -99999.99 -99999.99 -99999.99 -99999.99
6/18/2022 11:45:00 PM -99999.99 -179968 -99999.99 -99999.99 -99999.99 -99999.99
6/19/2022 12:00:00 AM -99999.99 -179968 -99999.99 -99999.99 -99999.99 -99999.99
6/19/2022 12:15:00 AM -99999.99 -179968 -99999.99 -99999.99 -99999.99 -99999.99
6/19/2022 12:30:00 AM -99999.99 -179968 -99999.99 -99999.99 -99999.99 -99999.99
6/19/2022 12:45:00 AM -99999.99 -179968 -99999.99 -99999.99 -99999.99 -99999.99
6/19/2022 1:00:00 AM -99999.99 -179968 -99999.99 -99999.99 -99999.99 -99999.99
6/19/2022 1:15:00 AM -99999.99 -179968 -99999.99 -99999.99 -99999.99 -99999.99
6/19/2022 1:30:00 AM -99999.99 -179968 -99999.99 -99999.99 -99999.99 -99999.99
6/19/2022 1:45:00 AM -99999.99 -179968 -99999.99 -99999.99 -99999.99 -99999.99
6/19/2022 2:00:00 AM -99999.99 -179968 -99999.99 -99999.99 -99999.99 -99999.99
6/19/2022 2:15:00 AM -99999.99 -179968 -99999.99 -99999.99 -99999.99 -99999.99
6/19/2022 2:30:00 AM -99999.99 -179968 -99999.99 -99999.99 -99999.99 -99999.99
6/19/2022 2:45:00 AM -99999.99 -179968 -99999.99 -99999.99 -99999.99 -99999.99
6/19/2022 3:00:00 AM -99999.99 -179968 -99999.99 -99999.99 -99999.99 -99999.99
6/19/2022 3:15:00 AM -99999.99 -179968 -99999.99 -99999.99 -99999.99 -99999.99
6/19/2022 3:30:00 AM -99999.99 -179968 -99999.99 -99999.99 -99999.99 -99999.99
6/19/2022 3:45:00 AM -99999.99 -179968 -99999.99 -99999.99 -99999.99 -99999.99
6/19/2022 4:00:00 AM -99999.99 -179968 -99999.99 -99999.99 -99999.99 -99999.99
6/19/2022 4:15:00 AM -99999.99 -179968 -99999.99 -99999.99 -99999.99 -99999.99
6/19/2022 4:30:00 AM -99999.99 -179968 -99999.99 -99999.99 -99999.99 -99999.99
6/19/2022 4:45:00 AM -99999.99 -179968 -99999.99 -99999.99 -99999.99 -99999.99
6/19/2022 5:00:00 AM -99999.99 -179968 -99999.99 -99999.99 -99999.99 -99999.99
6/19/2022 5:15:00 AM -99999.99 -179968 -99999.99 -99999.99 -99999.99 -99999.99
6/19/2022 5:30:00 AM -99999.99 -179968 -99999.99 -99999.99 -99999.99 -99999.99
6/19/2022 5:45:00 AM -99999.99 -179968 -99999.99 -99999.99 -99999.99 -99999.99
6/19/2022 6:00:00 AM -99999.99 -179968 -99999.99 -99999.99 -99999.99 -99999.99
6/19/2022 6:15:00 AM -99999.99 -179968 -99999.99 -99999.99 -99999.99 -99999.99
6/19/2022 6:30:00 AM -99999.99 -179968 -99999.99 -99999.99 -99999.99 -99999.99
6/19/2022 6:45:00 AM -99999.99 -179968 -99999.99 -99999.99 -99999.99 -99999.99
6/19/2022 7:00:00 AM -99999.99 -179968 -99999.99 -99999.99 -99999.99 -99999.99
6/19/2022 7:15:00 AM -99999.99 -179968 -99999.99 -99999.99 -99999.99 -99999.99
6/19/2022 7:30:00 AM -99999.99 -179968 -99999.99 -99999.99 -99999.99 -99999.99
6/19/2022 7:45:00 AM -99999.99 -179968 -99999.99 -99999.99 -99999.99 -99999.99
6/19/2022 8:00:00 AM -99999.99 -179968 -99999.99 -99999.99 -99999.99 -99999.99
6/19/2022 8:15:00 AM -99999.99 -179968 -99999.99 -99999.99 -99999.99 -99999.99
6/19/2022 8:30:00 AM -99999.99 -179968 -99999.99 -99999.99 -99999.99 -99999.99
6/19/2022 8:45:00 AM -99999.99 -179968 -99999.99 -99999.99 -99999.99 -99999.99
6/19/2022 9:00:00 AM -99999.99 -179968 -99999.99 -99999.99 -99999.99 -99999.99
6/19/2022 9:15:00 AM -99999.99 -179968 -99999.99 -99999.99 -99999.99 -99999.99
6/19/2022 9:30:00 AM -99999.99 -179968 -99999.99 -99999.99 -99999.99 -99999.99
6/19/2022 9:45:00 AM -99999.99 -179968 -99999.99 -99999.99 -99999.99 -99999.99
6/19/2022 10:00:00 AM -99999.99 -179968 -99999.99 -99999.99 -99999.99 -99999.99
6/19/2022 10:15:00 AM -99999.99 -179968 -99999.99 -99999.99 -99999.99 -99999.99
6/19/2022 10:30:00 AM -99999.99 -179968 -99999.99 -99999.99 -99999.99 -99999.99
6/19/2022 10:45:00 AM -99999.99 -179968 -99999.99 -99999.99 -99999.99 -99999.99
6/19/2022 11:00:00 AM -99999.99 -179968 -99999.99 -99999.99 -99999.99 -99999.99
6/19/2022 11:15:00 AM -99999.99 -179968 -99999.99 -99999.99 -99999.99 -99999.99
6/19/2022 11:30:00 AM -99999.99 -179968 -99999.99 -99999.99 -99999.99 -99999.99
6/19/2022 11:45:00 AM -99999.99 -179968 -99999.99 -99999.99 -99999.99 -99999.99
6/19/2022 12:00:00 PM -99999.99 -179968 -99999.99 -99999.99 -99999.99 -99999.99
6/19/2022 12:15:00 PM -99999.99 -179968 -99999.99 -99999.99 -99999.99 -99999.99
6/19/2022 12:30:00 PM -99999.99 -179968 -99999.99 -99999.99 -99999.99 -99999.99
6/19/2022 12:45:00 PM -99999.99 -179968 -99999.99 -99999.99 -99999.99 -99999.99
6/19/2022 1:00:00 PM -99999.99 -179968 -99999.99 -99999.99 -99999.99 -99999.99
6/19/2022 1:15:00 PM -99999.99 -179968 -99999.99 -99999.99 -99999.99 -99999.99
6/19/2022 1:30:00 PM -99999.99 -179968 -99999.99 -99999.99 -99999.99 -99999.99
6/19/2022 1:45:00 PM -99999.99 -179968 -99999.99 -99999.99 -99999.99 -99999.99
6/19/2022 2:00:00 PM -99999.99 -179968 -99999.99 -99999.99 -99999.99 -99999.99
6/19/2022 2:15:00 PM -99999.99 -179968 -99999.99 -99999.99 -99999.99 -99999.99
6/19/2022 2:30:00 PM -99999.99 -179968 -99999.99 -99999.99 -99999.99 -99999.99
6/19/2022 2:45:00 PM -99999.99 -179968 -99999.99 -99999.99 -99999.99 -99999.99
6/19/2022 3:00:00 PM -99999.99 -179968 -99999.99 -99999.99 -99999.99 -99999.99
6/19/2022 3:15:00 PM -99999.99 -179968 -99999.99 -99999.99 -99999.99 -99999.99
6/19/2022 3:30:00 PM -99999.99 -179968 -99999.99 -99999.99 -99999.99 -99999.99
6/19/2022 3:45:00 PM -99999.99 -179968 -99999.99 -99999.99 -99999.99 -99999.99
6/19/2022 4:00:00 PM -99999.99 -179968 -99999.99 -99999.99 -99999.99 -99999.99
6/19/2022 4:15:00 PM -99999.99 -179968 -99999.99 -99999.99 -99999.99 -99999.99
6/19/2022 4:30:00 PM -99999.99 -179968 -99999.99 -99999.99 -99999.99 -99999.99
6/19/2022 4:45:00 PM -99999.99 -179968 -99999.99 -99999.99 -99999.99 -99999.99
6/19/2022 5:00:00 PM -99999.99 -179968 -99999.99 -99999.99 -99999.99 -99999.99
6/19/2022 5:15:00 PM -99999.99 -179968 -99999.99 -99999.99 -99999.99 -99999.99
6/19/2022 5:30:00 PM -99999.99 -179968 -99999.99 -99999.99 -99999.99 -99999.99
6/19/2022 5:45:00 PM -99999.99 -179968 -99999.99 -99999.99 -99999.99 -99999.99
6/19/2022 6:00:00 PM -99999.99 -179968 -99999.99 -99999.99 -99999.99 -99999.99
6/19/2022 6:15:00 PM -99999.99 -179968 -99999.99 -99999.99 -99999.99 -99999.99
6/19/2022 6:30:00 PM -99999.99 -179968 -99999.99 -99999.99 -99999.99 -99999.99
6/19/2022 6:45:00 PM -99999.99 -179968 -99999.99 -99999.99 -99999.99 -99999.99
6/19/2022 7:00:00 PM -99999.99 -179968 -99999.99 -99999.99 -99999.99 -99999.99
6/19/2022 7:15:00 PM -99999.99 -179968 -99999.99 -99999.99 -99999.99 -99999.99
6/19/2022 7:30:00 PM -99999.99 -179968 -99999.99 -99999.99 -99999.99 -99999.99
6/19/2022 7:45:00 PM -99999.99 -179968 -99999.99 -99999.99 -99999.99 -99999.99
6/19/2022 8:00:00 PM -99999.99 -179968 -99999.99 -99999.99 -99999.99 -99999.99
6/19/2022 8:15:00 PM -99999.99 -179968 -99999.99 -99999.99 -99999.99 -99999.99
6/19/2022 8:30:00 PM -99999.99 -179968 -99999.99 -99999.99 -99999.99 -99999.99
6/19/2022 8:45:00 PM -99999.99 -179968 -99999.99 -99999.99 -99999.99 -99999.99
6/19/2022 9:00:00 PM -99999.99 -179968 -99999.99 -99999.99 -99999.99 -99999.99
6/19/2022 9:15:00 PM -99999.99 -179968 -99999.99 -99999.99 -99999.99 -99999.99
6/19/2022 9:30:00 PM -99999.99 -179968 -99999.99 -99999.99 -99999.99 -99999.99
6/19/2022 9:45:00 PM -99999.99 -179968 -99999.99 -99999.99 -99999.99 -99999.99
6/19/2022 10:00:00 PM -99999.99 -179968 -99999.99 -99999.99 -99999.99 -99999.99
6/19/2022 10:15:00 PM -99999.99 -179968 -99999.99 -99999.99 -99999.99 -99999.99
6/19/2022 10:30:00 PM -99999.99 -179968 -99999.99 -99999.99 -99999.99 -99999.99
6/19/2022 10:45:00 PM -99999.99 -179968 -99999.99 -99999.99 -99999.99 -99999.99
6/19/2022 11:00:00 PM -99999.99 -179968 -99999.99 -99999.99 -99999.99 -99999.99
6/19/2022 11:15:00 PM -99999.99 -179968 -99999.99 -99999.99 -99999.99 -99999.99
6/19/2022 11:30:00 PM -99999.99 -179968 -99999.99 -99999.99 -99999.99 -99999.99
6/19/2022 11:45:00 PM -99999.99 -179968 -99999.99 -99999.99 -99999.99 -99999.99
6/20/2022 12:00:00 AM -99999.99 -179968 -99999.99 -99999.99 -99999.99 -99999.99
6/20/2022 12:15:00 AM -99999.99 -179968 -99999.99 -99999.99 -99999.99 -99999.99
6/20/2022 12:30:00 AM -99999.99 -179968 -99999.99 -99999.99 -99999.99 -99999.99
6/20/2022 12:45:00 AM -99999.99 -179968 -99999.99 -99999.99 -99999.99 -99999.99
6/20/2022 1:00:00 AM -99999.99 -179968 -99999.99 -99999.99 -99999.99 -99999.99
6/20/2022 1:15:00 AM -99999.99 -179968 -99999.99 -99999.99 -99999.99 -99999.99
6/20/2022 1:30:00 AM -99999.99 -179968 -99999.99 -99999.99 -99999.99 -99999.99
6/20/2022 1:45:00 AM -99999.99 -179968 -99999.99 -99999.99 -99999.99 -99999.99
6/20/2022 2:00:00 AM -99999.99 -179968 -99999.99 -99999.99 -99999.99 -99999.99
6/20/2022 2:15:00 AM -99999.99 -179968 -99999.99 -99999.99 -99999.99 -99999.99
6/20/2022 2:30:00 AM -99999.99 -179968 -99999.99 -99999.99 -99999.99 -99999.99
6/20/2022 2:45:00 AM -99999.99 -179968 -99999.99 -99999.99 -99999.99 -99999.99
6/20/2022 3:00:00 AM -99999.99 -179968 -99999.99 -99999.99 -99999.99 -99999.99
6/20/2022 3:15:00 AM -99999.99 -179968 -99999.99 -99999.99 -99999.99 -99999.99
6/20/2022 3:30:00 AM -99999.99 -179968 -99999.99 -99999.99 -99999.99 -99999.99
6/20/2022 3:45:00 AM -99999.99 -179968 -99999.99 -99999.99 -99999.99 -99999.99
6/20/2022 4:00:00 AM -99999.99 -179968 -99999.99 -99999.99 -99999.99 -99999.99
6/20/2022 4:15:00 AM -99999.99 -179968 -99999.99 -99999.99 -99999.99 -99999.99
6/20/2022 4:30:00 AM -99999.99 -179968 -99999.99 -99999.99 -99999.99 -99999.99
6/20/2022 4:45:00 AM -99999.99 -179968 -99999.99 -99999.99 -99999.99 -99999.99
6/20/2022 5:00:00 AM -99999.99 -179968 -99999.99 -99999.99 -99999.99 -99999.99
6/20/2022 5:15:00 AM -99999.99 -179968 -99999.99 -99999.99 -99999.99 -99999.99
6/20/2022 5:30:00 AM -99999.99 -179968 -99999.99 -99999.99 -99999.99 -99999.99
6/20/2022 5:45:00 AM -99999.99 -179968 -99999.99 -99999.99 -99999.99 -99999.99
6/20/2022 6:00:00 AM -99999.99 -179968 -99999.99 -99999.99 -99999.99 -99999.99
6/20/2022 6:15:00 AM -99999.99 -179968 -99999.99 -99999.99 -99999.99 -99999.99
6/20/2022 6:30:00 AM -99999.99 -179968 -99999.99 -99999.99 -99999.99 -99999.99
6/20/2022 6:45:00 AM -99999.99 -179968 -99999.99 -99999.99 -99999.99 -99999.99
6/20/2022 7:00:00 AM -99999.99 -179968 -99999.99 -99999.99 -99999.99 -99999.99
6/20/2022 7:15:00 AM -99999.99 -179968 -99999.99 -99999.99 -99999.99 -99999.99
6/20/2022 7:30:00 AM -99999.99 -179968 -99999.99 -99999.99 -99999.99 -99999.99
6/20/2022 7:45:00 AM -99999.99 -179968 -99999.99 -99999.99 -99999.99 -99999.99
6/20/2022 8:00:00 AM -99999.99 -179968 -99999.99 -99999.99 -99999.99 -99999.99
6/20/2022 8:15:00 AM -99999.99 -179968 -99999.99 -99999.99 -99999.99 -99999.99
6/20/2022 8:30:00 AM -99999.99 -179968 -99999.99 -99999.99 -99999.99 -99999.99
6/20/2022 8:45:00 AM -99999.99 -179968 -99999.99 -99999.99 -99999.99 -99999.99
6/20/2022 9:00:00 AM -99999.99 -179968 -99999.99 -99999.99 -99999.99 -99999.99
6/20/2022 9:15:00 AM -99999.99 -179968 -99999.99 -99999.99 -99999.99 -99999.99
6/20/2022 9:30:00 AM -99999.99 -179968 -99999.99 -99999.99 -99999.99 -99999.99
6/20/2022 9:45:00 AM -99999.99 -179968 -99999.99 -99999.99 -99999.99 -99999.99
6/20/2022 10:00:00 AM -99999.99 -179968 -99999.99 -99999.99 -99999.99 -99999.99
6/20/2022 10:15:00 AM -99999.99 -179968 -99999.99 -99999.99 -99999.99 -99999.99
6/20/2022 10:30:00 AM -99999.99 -179968 -99999.99 -99999.99 -99999.99 -99999.99
6/20/2022 10:45:00 AM -99999.99 -179968 -99999.99 -99999.99 -99999.99 -99999.99
6/20/2022 11:00:00 AM -99999.99 -179968 -99999.99 -99999.99 -99999.99 -99999.99
6/20/2022 11:15:00 AM -99999.99 -179968 -99999.99 -99999.99 -99999.99 -99999.99
6/20/2022 11:30:00 AM -99999.99 -179968 -99999.99 -99999.99 -99999.99 -99999.99
6/20/2022 11:45:00 AM -99999.99 -179968 -99999.99 -99999.99 -99999.99 -99999.99
6/20/2022 12:00:00 PM -99999.99 -179968 -99999.99 -99999.99 -99999.99 -99999.99
6/20/2022 12:15:00 PM -99999.99 -179968 -99999.99 -99999.99 -99999.99 -99999.99
6/20/2022 12:30:00 PM -99999.99 -179968 -99999.99 -99999.99 -99999.99 -99999.99
6/20/2022 12:45:00 PM -99999.99 -179968 -99999.99 -99999.99 -99999.99 -99999.99
6/20/2022 1:00:00 PM -99999.99 -179968 -99999.99 -99999.99 -99999.99 -99999.99
6/20/2022 1:15:00 PM -99999.99 -179968 -99999.99 -99999.99 -99999.99 -99999.99
6/20/2022 1:30:00 PM -99999.99 -179968 -99999.99 -99999.99 -99999.99 -99999.99
6/20/2022 1:45:00 PM -99999.99 -179968 -99999.99 -99999.99 -99999.99 -99999.99
6/20/2022 2:00:00 PM -99999.99 -179968 -99999.99 -99999.99 -99999.99 -99999.99
6/20/2022 2:15:00 PM -99999.99 -179968 -99999.99 -99999.99 -99999.99 -99999.99
6/20/2022 2:30:00 PM -99999.99 -179968 -99999.99 -99999.99 -99999.99 -99999.99
6/20/2022 2:45:00 PM -99999.99 -179968 -99999.99 -99999.99 -99999.99 -99999.99
6/20/2022 3:00:00 PM -99999.99 -179968 -99999.99 -99999.99 -99999.99 -99999.99
6/20/2022 3:15:00 PM -99999.99 -179968 -99999.99 -99999.99 -99999.99 -99999.99
6/20/2022 3:30:00 PM -99999.99 -179968 -99999.99 -99999.99 -99999.99 -99999.99
6/20/2022 3:45:00 PM -99999.99 -179968 -99999.99 -99999.99 -99999.99 -99999.99
6/20/2022 4:00:00 PM -99999.99 -179968 -99999.99 -99999.99 -99999.99 -99999.99
6/20/2022 4:15:00 PM -99999.99 -179968 -99999.99 -99999.99 -99999.99 -99999.99
6/20/2022 4:30:00 PM -99999.99 -179968 -99999.99 -99999.99 -99999.99 -99999.99
6/20/2022 4:45:00 PM -99999.99 -179968 -99999.99 -99999.99 -99999.99 -99999.99
6/20/2022 5:00:00 PM -99999.99 -179968 -99999.99 -99999.99 -99999.99 -99999.99
6/20/2022 5:15:00 PM -99999.99 -179968 -99999.99 -99999.99 -99999.99 -99999.99
6/20/2022 5:30:00 PM -99999.99 -179968 -99999.99 -99999.99 -99999.99 -99999.99
6/20/2022 5:45:00 PM -99999.99 -179968 -99999.99 -99999.99 -99999.99 -99999.99
6/20/2022 6:00:00 PM -99999.99 -179968 -99999.99 -99999.99 -99999.99 -99999.99
6/20/2022 6:15:00 PM -99999.99 -179968 -99999.99 -99999.99 -99999.99 -99999.99
6/20/2022 6:30:00 PM -99999.99 -179968 -99999.99 -99999.99 -99999.99 -99999.99
6/20/2022 6:45:00 PM -99999.99 -179968 -99999.99 -99999.99 -99999.99 -99999.99
6/20/2022 7:00:00 PM -99999.99 -179968 -99999.99 -99999.99 -99999.99 -99999.99
6/20/2022 7:15:00 PM -99999.99 -179968 -99999.99 -99999.99 -99999.99 -99999.99
6/20/2022 7:30:00 PM -99999.99 -179968 -99999.99 -99999.99 -99999.99 -99999.99
6/20/2022 7:45:00 PM -99999.99 -179968 -99999.99 -99999.99 -99999.99 -99999.99
6/20/2022 8:00:00 PM -99999.99 -179968 -99999.99 -99999.99 -99999.99 -99999.99
6/20/2022 8:15:00 PM -99999.99 -179968 -99999.99 -99999.99 -99999.99 -99999.99
6/20/2022 8:30:00 PM -99999.99 -179968 -99999.99 -99999.99 -99999.99 -99999.99
6/20/2022 8:45:00 PM -99999.99 -179968 -99999.99 -99999.99 -99999.99 -99999.99
6/20/2022 9:00:00 PM -99999.99 -179968 -99999.99 -99999.99 -99999.99 -99999.99
6/20/2022 9:15:00 PM -99999.99 -179968 -99999.99 -99999.99 -99999.99 -99999.99
6/20/2022 9:30:00 PM -99999.99 -179968 -99999.99 -99999.99 -99999.99 -99999.99
6/20/2022 9:45:00 PM -99999.99 -179968 -99999.99 -99999.99 -99999.99 -99999.99
6/20/2022 10:00:00 PM -99999.99 -179968 -99999.99 -99999.99 -99999.99 -99999.99
6/20/2022 10:15:00 PM -99999.99 -179968 -99999.99 -99999.99 -99999.99 -99999.99
6/20/2022 10:30:00 PM -99999.99 -179968 -99999.99 -99999.99 -99999.99 -99999.99
6/20/2022 10:45:00 PM -99999.99 -179968 -99999.99 -99999.99 -99999.99 -99999.99
6/20/2022 11:00:00 PM -99999.99 -179968 -99999.99 -99999.99 -99999.99 -99999.99
6/20/2022 11:15:00 PM -99999.99 -179968 -99999.99 -99999.99 -99999.99 -99999.99
6/20/2022 11:30:00 PM -99999.99 -179968 -99999.99 -99999.99 -99999.99 -99999.99
6/20/2022 11:45:00 PM -99999.99 -179968 -99999.99 -99999.99 -99999.99 -99999.99
6/21/2022 12:00:00 AM -99999.99 -179968 -99999.99 -99999.99 -99999.99 -99999.99
6/21/2022 12:15:00 AM -99999.99 -179968 -99999.99 -99999.99 -99999.99 -99999.99
6/21/2022 12:30:00 AM -99999.99 -179968 -99999.99 -99999.99 -99999.99 -99999.99
6/21/2022 12:45:00 AM -99999.99 -179968 -99999.99 -99999.99 -99999.99 -99999.99
6/21/2022 1:00:00 AM -99999.99 -179968 -99999.99 -99999.99 -99999.99 -99999.99
6/21/2022 1:15:00 AM -99999.99 -179968 -99999.99 -99999.99 -99999.99 -99999.99
6/21/2022 1:30:00 AM -99999.99 -179968 -99999.99 -99999.99 -99999.99 -99999.99
6/21/2022 1:45:00 AM -99999.99 -179968 -99999.99 -99999.99 -99999.99 -99999.99
6/21/2022 2:00:00 AM -99999.99 -179968 -99999.99 -99999.99 -99999.99 -99999.99
6/21/2022 2:15:00 AM -99999.99 -179968 -99999.99 -99999.99 -99999.99 -99999.99
6/21/2022 2:30:00 AM -99999.99 -179968 -99999.99 -99999.99 -99999.99 -99999.99
6/21/2022 2:45:00 AM -99999.99 -179968 -99999.99 -99999.99 -99999.99 -99999.99
6/21/2022 3:00:00 AM -99999.99 -179968 -99999.99 -99999.99 -99999.99 -99999.99
6/21/2022 3:15:00 AM -99999.99 -179968 -99999.99 -99999.99 -99999.99 -99999.99
6/21/2022 3:30:00 AM -99999.99 -179968 -99999.99 -99999.99 -99999.99 -99999.99
6/21/2022 3:45:00 AM -99999.99 -179968 -99999.99 -99999.99 -99999.99 -99999.99
6/21/2022 4:00:00 AM -99999.99 -179968 -99999.99 -99999.99 -99999.99 -99999.99
6/21/2022 4:15:00 AM -99999.99 -179968 -99999.99 -99999.99 -99999.99 -99999.99
6/21/2022 4:30:00 AM -99999.99 -179968 -99999.99 -99999.99 -99999.99 -99999.99
6/21/2022 4:45:00 AM -99999.99 -179968 -99999.99 -99999.99 -99999.99 -99999.99
6/21/2022 5:00:00 AM -99999.99 -179968 -99999.99 -99999.99 -99999.99 -99999.99
6/21/2022 5:15:00 AM -99999.99 -179968 -99999.99 -99999.99 -99999.99 -99999.99
6/21/2022 5:30:00 AM -99999.99 -179968 -99999.99 -99999.99 -99999.99 -99999.99
6/21/2022 5:45:00 AM -99999.99 -179968 -99999.99 -99999.99 -99999.99 -99999.99
6/21/2022 6:00:00 AM -99999.99 -179968 -99999.99 -99999.99 -99999.99 -99999.99
6/21/2022 6:15:00 AM -99999.99 -179968 -99999.99 -99999.99 -99999.99 -99999.99
6/21/2022 6:30:00 AM -99999.99 -179968 -99999.99 -99999.99 -99999.99 -99999.99
6/21/2022 6:45:00 AM -99999.99 -179968 -99999.99 -99999.99 -99999.99 -99999.99
6/21/2022 7:00:00 AM -99999.99 -179968 -99999.99 -99999.99 -99999.99 -99999.99
6/21/2022 7:15:00 AM -99999.99 -179968 -99999.99 -99999.99 -99999.99 -99999.99
6/21/2022 7:30:00 AM -99999.99 -179968 -99999.99 -99999.99 -99999.99 -99999.99
6/21/2022 7:45:00 AM -99999.99 -179968 -99999.99 -99999.99 -99999.99 -99999.99
6/21/2022 8:00:00 AM -99999.99 -179968 -99999.99 -99999.99 -99999.99 -99999.99
6/21/2022 8:15:00 AM -99999.99 -179968 -99999.99 -99999.99 -99999.99 -99999.99
6/21/2022 8:30:00 AM -99999.99 -179968 -99999.99 -99999.99 -99999.99 -99999.99
6/21/2022 8:45:00 AM -99999.99 -179968 -99999.99 -99999.99 -99999.99 -99999.99
6/21/2022 9:00:00 AM -99999.99 -179968 -99999.99 -99999.99 -99999.99 -99999.99
6/21/2022 9:15:00 AM -99999.99 -179968 -99999.99 -99999.99 -99999.99 -99999.99
6/21/2022 9:30:00 AM -99999.99 -179968 -99999.99 -99999.99 -99999.99 -99999.99
6/21/2022 9:45:00 AM -99999.99 -179968 -99999.99 -99999.99 -99999.99 -99999.99
6/21/2022 10:00:00 AM -99999.99 -179968 -99999.99 -99999.99 -99999.99 -99999.99
6/21/2022 10:15:00 AM -99999.99 -179968 -99999.99 -99999.99 -99999.99 -99999.99
6/21/2022 10:30:00 AM -99999.99 -179968 -99999.99 -99999.99 -99999.99 -99999.99
6/21/2022 10:45:00 AM -99999.99 -179968 -99999.99 -99999.99 -99999.99 -99999.99
6/21/2022 11:00:00 AM -99999.99 -179968 -99999.99 -99999.99 -99999.99 -99999.99
6/21/2022 11:15:00 AM -99999.99 -179968 -99999.99 -99999.99 -99999.99 -99999.99
6/21/2022 11:30:00 AM -99999.99 -179968 -99999.99 -99999.99 -99999.99 -99999.99
6/21/2022 11:45:00 AM -99999.99 -179968 -99999.99 -99999.99 -99999.99 -99999.99
6/21/2022 12:00:00 PM -99999.99 -179968 -99999.99 -99999.99 -99999.99 -99999.99
6/21/2022 12:15:00 PM -99999.99 -179968 -99999.99 -99999.99 -99999.99 -99999.99
6/21/2022 12:30:00 PM -99999.99 -179968 -99999.99 -99999.99 -99999.99 -99999.99
6/21/2022 12:45:00 PM -99999.99 -179968 -99999.99 -99999.99 -99999.99 -99999.99
6/21/2022 1:00:00 PM -99999.99 -179968 -99999.99 -99999.99 -99999.99 -99999.99
6/21/2022 1:15:00 PM -99999.99 -179968 -99999.99 -99999.99 -99999.99 -99999.99
6/21/2022 1:30:00 PM -99999.99 -179968 -99999.99 -99999.99 -99999.99 -99999.99
6/21/2022 1:45:00 PM -99999.99 -179968 -99999.99 -99999.99 -99999.99 -99999.99
6/21/2022 2:00:00 PM -99999.99 -179968 -99999.99 -99999.99 -99999.99 -99999.99
6/21/2022 2:15:00 PM -99999.99 -179968 -99999.99 -99999.99 -99999.99 -99999.99
6/21/2022 2:30:00 PM -99999.99 -179968 -99999.99 -99999.99 -99999.99 -99999.99
6/21/2022 2:45:00 PM -99999.99 -179968 -99999.99 -99999.99 -99999.99 -99999.99
6/21/2022 3:00:00 PM -99999.99 -179968 -99999.99 -99999.99 -99999.99 -99999.99
6/21/2022 3:15:00 PM -99999.99 -179968 -99999.99 -99999.99 -99999.99 -99999.99
6/21/2022 3:30:00 PM -99999.99 -179968 -99999.99 -99999.99 -99999.99 -99999.99
6/21/2022 3:45:00 PM -99999.99 -179968 -99999.99 -99999.99 -99999.99 -99999.99
6/21/2022 4:00:00 PM -99999.99 -179968 -99999.99 -99999.99 -99999.99 -99999.99
6/21/2022 4:15:00 PM -99999.99 -179968 -99999.99 -99999.99 -99999.99 -99999.99
6/21/2022 4:30:00 PM -99999.99 -179968 -99999.99 -99999.99 -99999.99 -99999.99
6/21/2022 4:45:00 PM -99999.99 -179968 -99999.99 -99999.99 -99999.99 -99999.99
6/21/2022 5:00:00 PM -99999.99 -179968 -99999.99 -99999.99 -99999.99 -99999.99
6/21/2022 5:15:00 PM -99999.99 -179968 -99999.99 -99999.99 -99999.99 -99999.99
6/21/2022 5:30:00 PM -99999.99 -179968 -99999.99 -99999.99 -99999.99 -99999.99
6/21/2022 5:45:00 PM -99999.99 -179968 -99999.99 -99999.99 -99999.99 -99999.99
6/21/2022 6:00:00 PM -99999.99 -179968 -99999.99 -99999.99 -99999.99 -99999.99
6/21/2022 6:15:00 PM -99999.99 -179968 -99999.99 -99999.99 -99999.99 -99999.99
6/21/2022 6:30:00 PM -99999.99 -179968 -99999.99 -99999.99 -99999.99 -99999.99
6/21/2022 6:45:00 PM -99999.99 -179968 -99999.99 -99999.99 -99999.99 -99999.99
6/21/2022 7:00:00 PM -99999.99 -179968 -99999.99 -99999.99 -99999.99 -99999.99
6/21/2022 7:15:00 PM -99999.99 -179968 -99999.99 -99999.99 -99999.99 -99999.99
6/21/2022 7:30:00 PM -99999.99 -179968 -99999.99 -99999.99 -99999.99 -99999.99
6/21/2022 7:45:00 PM -99999.99 -179968 -99999.99 -99999.99 -99999.99 -99999.99
6/21/2022 8:00:00 PM -99999.99 -179968 -99999.99 -99999.99 -99999.99 -99999.99
6/21/2022 8:15:00 PM -99999.99 -179968 -99999.99 -99999.99 -99999.99 -99999.99
6/21/2022 8:30:00 PM -99999.99 -179968 -99999.99 -99999.99 -99999.99 -99999.99
6/21/2022 8:45:00 PM -99999.99 -179968 -99999.99 -99999.99 -99999.99 -99999.99
6/21/2022 9:00:00 PM -99999.99 -179968 -99999.99 -99999.99 -99999.99 -99999.99
6/21/2022 9:15:00 PM -99999.99 -179968 -99999.99 -99999.99 -99999.99 -99999.99
6/21/2022 9:30:00 PM -99999.99 -179968 -99999.99 -99999.99 -99999.99 -99999.99
6/21/2022 9:45:00 PM -99999.99 -179968 -99999.99 -99999.99 -99999.99 -99999.99
6/21/2022 10:00:00 PM -99999.99 -179968 -99999.99 -99999.99 -99999.99 -99999.99
6/21/2022 10:15:00 PM -99999.99 -179968 -99999.99 -99999.99 -99999.99 -99999.99
6/21/2022 10:30:00 PM -99999.99 -179968 -99999.99 -99999.99 -99999.99 -99999.99
6/21/2022 10:45:00 PM -99999.99 -179968 -99999.99 -99999.99 -99999.99 -99999.99
6/21/2022 11:00:00 PM -99999.99 -179968 -99999.99 -99999.99 -99999.99 -99999.99
6/21/2022 11:15:00 PM -99999.99 -179968 -99999.99 -99999.99 -99999.99 -99999.99
6/21/2022 11:30:00 PM -99999.99 -179968 -99999.99 -99999.99 -99999.99 -99999.99
6/21/2022 11:45:00 PM -99999.99 -179968 -99999.99 -99999.99 -99999.99 -99999.99
6/22/2022 12:00:00 AM -99999.99 -179968 -99999.99 -99999.99 -99999.99 -99999.99
6/22/2022 12:15:00 AM -99999.99 -179968 -99999.99 -99999.99 -99999.99 -99999.99
6/22/2022 12:30:00 AM -99999.99 -179968 -99999.99 -99999.99 -99999.99 -99999.99
6/22/2022 12:45:00 AM -99999.99 -179968 -99999.99 -99999.99 -99999.99 -99999.99
6/22/2022 1:00:00 AM -99999.99 -179968 -99999.99 -99999.99 -99999.99 -99999.99
6/22/2022 1:15:00 AM -99999.99 -179968 -99999.99 -99999.99 -99999.99 -99999.99
6/22/2022 1:30:00 AM -99999.99 -179968 -99999.99 -99999.99 -99999.99 -99999.99
6/22/2022 1:45:00 AM -99999.99 -179968 -99999.99 -99999.99 -99999.99 -99999.99
6/22/2022 2:00:00 AM -99999.99 -179968 -99999.99 -99999.99 -99999.99 -99999.99
6/22/2022 2:15:00 AM -99999.99 -179968 -99999.99 -99999.99 -99999.99 -99999.99
6/22/2022 2:30:00 AM -99999.99 -179968 -99999.99 -99999.99 -99999.99 -99999.99
6/22/2022 2:45:00 AM -99999.99 -179968 -99999.99 -99999.99 -99999.99 -99999.99
6/22/2022 3:00:00 AM -99999.99 -179968 -99999.99 -99999.99 -99999.99 -99999.99
6/22/2022 3:15:00 AM -99999.99 -179968 -99999.99 -99999.99 -99999.99 -99999.99
6/22/2022 3:30:00 AM -99999.99 -179968 -99999.99 -99999.99 -99999.99 -99999.99
6/22/2022 3:45:00 AM -99999.99 -179968 -99999.99 -99999.99 -99999.99 -99999.99
6/22/2022 4:00:00 AM -99999.99 -179968 -99999.99 -99999.99 -99999.99 -99999.99
6/22/2022 4:15:00 AM -99999.99 -179968 -99999.99 -99999.99 -99999.99 -99999.99
6/22/2022 4:30:00 AM -99999.99 -179968 -99999.99 -99999.99 -99999.99 -99999.99
6/22/2022 4:45:00 AM -99999.99 -179968 -99999.99 -99999.99 -99999.99 -99999.99
6/22/2022 5:00:00 AM -99999.99 -179968 -99999.99 -99999.99 -99999.99 -99999.99
6/22/2022 5:15:00 AM -99999.99 -179968 -99999.99 -99999.99 -99999.99 -99999.99
6/22/2022 5:30:00 AM -99999.99 -179968 -99999.99 -99999.99 -99999.99 -99999.99
6/22/2022 5:45:00 AM -99999.99 -179968 -99999.99 -99999.99 -99999.99 -99999.99
6/22/2022 6:00:00 AM -99999.99 -179968 -99999.99 -99999.99 -99999.99 -99999.99
6/22/2022 6:15:00 AM -99999.99 -179968 -99999.99 -99999.99 -99999.99 -99999.99
6/22/2022 6:30:00 AM -99999.99 -179968 -99999.99 -99999.99 -99999.99 -99999.99
6/22/2022 6:45:00 AM -99999.99 -179968 -99999.99 -99999.99 -99999.99 -99999.99
6/22/2022 7:00:00 AM -99999.99 -179968 -99999.99 -99999.99 -99999.99 -99999.99
6/22/2022 7:15:00 AM -99999.99 -179968 -99999.99 -99999.99 -99999.99 -99999.99
6/22/2022 7:30:00 AM -99999.99 -179968 -99999.99 -99999.99 -99999.99 -99999.99
6/22/2022 7:45:00 AM -99999.99 -179968 -99999.99 -99999.99 -99999.99 -99999.99
6/22/2022 8:00:00 AM -99999.99 -179968 -99999.99 -99999.99 -99999.99 -99999.99
6/22/2022 8:15:00 AM -99999.99 -179968 -99999.99 -99999.99 -99999.99 -99999.99
6/22/2022 8:30:00 AM -99999.99 -179968 -99999.99 -99999.99 -99999.99 -99999.99
6/22/2022 8:45:00 AM -99999.99 -179968 -99999.99 -99999.99 -99999.99 -99999.99
6/22/2022 9:00:00 AM -99999.99 -179968 -99999.99 -99999.99 -99999.99 -99999.99
6/22/2022 9:15:00 AM -99999.99 -179968 -99999.99 -99999.99 -99999.99 -99999.99
6/22/2022 9:30:00 AM -99999.99 -179968 -99999.99 -99999.99 -99999.99 -99999.99
6/22/2022 9:45:00 AM -99999.99 -179968 -99999.99 -99999.99 -99999.99 -99999.99
6/22/2022 10:00:00 AM -99999.99 -179968 -99999.99 -99999.99 -99999.99 -99999.99
6/22/2022 10:15:00 AM -99999.99 -179968 -99999.99 -99999.99 -99999.99 -99999.99
6/22/2022 10:30:00 AM -99999.99 -179968 -99999.99 -99999.99 -99999.99 -99999.99
6/22/2022 10:45:00 AM -99999.99 -179968 -99999.99 -99999.99 -99999.99 -99999.99
6/22/2022 11:00:00 AM -99999.99 -179968 -99999.99 -99999.99 -99999.99 -99999.99
6/22/2022 11:15:00 AM -99999.99 -179968 -99999.99 -99999.99 -99999.99 -99999.99
6/22/2022 11:30:00 AM -99999.99 -179968 -99999.99 -99999.99 -99999.99 -99999.99
6/22/2022 11:45:00 AM -99999.99 -179968 -99999.99 -99999.99 -99999.99 -99999.99
6/22/2022 12:00:00 PM -99999.99 -179968 -99999.99 -99999.99 -99999.99 -99999.99
6/22/2022 12:15:00 PM -99999.99 -179968 -99999.99 -99999.99 -99999.99 -99999.99
6/22/2022 12:30:00 PM -99999.99 -179968 -99999.99 -99999.99 -99999.99 -99999.99
6/22/2022 12:45:00 PM -99999.99 -179968 -99999.99 -99999.99 -99999.99 -99999.99
6/22/2022 1:00:00 PM -99999.99 -179968 -99999.99 -99999.99 -99999.99 -99999.99
6/22/2022 1:15:00 PM -99999.99 -179968 -99999.99 -99999.99 -99999.99 -99999.99
6/22/2022 1:30:00 PM -99999.99 -179968 -99999.99 -99999.99 -99999.99 -99999.99
6/22/2022 1:45:00 PM -99999.99 -179968 -99999.99 -99999.99 -99999.99 -99999.99
6/22/2022 2:00:00 PM -99999.99 -179968 -99999.99 -99999.99 -99999.99 -99999.99
6/22/2022 2:15:00 PM -99999.99 -179968 -99999.99 -99999.99 -99999.99 -99999.99
6/22/2022 2:30:00 PM -99999.99 -179968 -99999.99 -99999.99 -99999.99 -99999.99
6/22/2022 2:45:00 PM -99999.99 -179968 -99999.99 -99999.99 -99999.99 -99999.99
6/22/2022 3:00:00 PM -99999.99 -179968 -99999.99 -99999.99 -99999.99 -99999.99
6/22/2022 3:15:00 PM -99999.99 -179968 -99999.99 -99999.99 -99999.99 -99999.99
6/22/2022 3:30:00 PM -99999.99 -179968 -99999.99 -99999.99 -99999.99 -99999.99
6/22/2022 3:45:00 PM -99999.99 -179968 -99999.99 -99999.99 -99999.99 -99999.99
6/22/2022 4:00:00 PM -99999.99 -179968 -99999.99 -99999.99 -99999.99 -99999.99
6/22/2022 4:15:00 PM -99999.99 -179968 -99999.99 -99999.99 -99999.99 -99999.99
6/22/2022 4:30:00 PM -99999.99 -179968 -99999.99 -99999.99 -99999.99 -99999.99
6/22/2022 4:45:00 PM -99999.99 -179968 -99999.99 -99999.99 -99999.99 -99999.99
6/22/2022 5:00:00 PM -99999.99 -179968 -99999.99 -99999.99 -99999.99 -99999.99
6/22/2022 5:15:00 PM -99999.99 -179968 -99999.99 -99999.99 -99999.99 -99999.99
6/22/2022 5:30:00 PM -99999.99 -179968 -99999.99 -99999.99 -99999.99 -99999.99
6/22/2022 5:45:00 PM -99999.99 -179968 -99999.99 -99999.99 -99999.99 -99999.99
6/22/2022 6:00:00 PM -99999.99 -179968 -99999.99 -99999.99 -99999.99 -99999.99
6/22/2022 6:15:00 PM -99999.99 -179968 -99999.99 -99999.99 -99999.99 -99999.99
6/22/2022 6:30:00 PM -99999.99 -179968 -99999.99 -99999.99 -99999.99 -99999.99
6/22/2022 6:45:00 PM -99999.99 -179968 -99999.99 -99999.99 -99999.99 -99999.99
6/22/2022 7:00:00 PM -99999.99 -179968 -99999.99 -99999.99 -99999.99 -99999.99
6/22/2022 7:15:00 PM -99999.99 -179968 -99999.99 -99999.99 -99999.99 -99999.99
6/22/2022 7:30:00 PM -99999.99 -179968 -99999.99 -99999.99 -99999.99 -99999.99
6/22/2022 7:45:00 PM -99999.99 -179968 -99999.99 -99999.99 -99999.99 -99999.99
6/22/2022 8:00:00 PM -99999.99 -179968 -99999.99 -99999.99 -99999.99 -99999.99
6/22/2022 8:15:00 PM -99999.99 -179968 -99999.99 -99999.99 -99999.99 -99999.99
6/22/2022 8:30:00 PM -99999.99 -179968 -99999.99 -99999.99 -99999.99 -99999.99
6/22/2022 8:45:00 PM -99999.99 -179968 -99999.99 -99999.99 -99999.99 -99999.99
6/22/2022 9:00:00 PM -99999.99 -179968 -99999.99 -99999.99 -99999.99 -99999.99
6/22/2022 9:15:00 PM -99999.99 -179968 -99999.99 -99999.99 -99999.99 -99999.99
6/22/2022 9:30:00 PM -99999.99 -179968 -99999.99 -99999.99 -99999.99 -99999.99
6/22/2022 9:45:00 PM -99999.99 -179968 -99999.99 -99999.99 -99999.99 -99999.99
6/22/2022 10:00:00 PM -99999.99 -179968 -99999.99 -99999.99 -99999.99 -99999.99
6/22/2022 10:15:00 PM -99999.99 -179968 -99999.99 -99999.99 -99999.99 -99999.99
6/22/2022 10:30:00 PM -99999.99 -179968 -99999.99 -99999.99 -99999.99 -99999.99
6/22/2022 10:45:00 PM -99999.99 -179968 -99999.99 -99999.99 -99999.99 -99999.99
6/22/2022 11:00:00 PM -99999.99 -179968 -99999.99 -99999.99 -99999.99 -99999.99
6/22/2022 11:15:00 PM -99999.99 -179968 -99999.99 -99999.99 -99999.99 -99999.99
6/22/2022 11:30:00 PM -99999.99 -179968 -99999.99 -99999.99 -99999.99 -99999.99
6/22/2022 11:45:00 PM -99999.99 -179968 -99999.99 -99999.99 -99999.99 -99999.99
6/23/2022 12:00:00 AM -99999.99 -179968 -99999.99 -99999.99 -99999.99 -99999.99
6/23/2022 12:15:00 AM -99999.99 -179968 -99999.99 -99999.99 -99999.99 -99999.99
6/23/2022 12:30:00 AM -99999.99 -179968 -99999.99 -99999.99 -99999.99 -99999.99
6/23/2022 12:45:00 AM -99999.99 -179968 -99999.99 -99999.99 -99999.99 -99999.99
6/23/2022 1:00:00 AM -99999.99 -179968 -99999.99 -99999.99 -99999.99 -99999.99
6/23/2022 1:15:00 AM -99999.99 -179968 -99999.99 -99999.99 -99999.99 -99999.99
6/23/2022 1:30:00 AM -99999.99 -179968 -99999.99 -99999.99 -99999.99 -99999.99
6/23/2022 1:45:00 AM -99999.99 -179968 -99999.99 -99999.99 -99999.99 -99999.99
6/23/2022 2:00:00 AM -99999.99 -179968 -99999.99 -99999.99 -99999.99 -99999.99
6/23/2022 2:15:00 AM -99999.99 -179968 -99999.99 -99999.99 -99999.99 -99999.99
6/23/2022 2:30:00 AM -99999.99 -179968 -99999.99 -99999.99 -99999.99 -99999.99
6/23/2022 2:45:00 AM -99999.99 -179968 -99999.99 -99999.99 -99999.99 -99999.99
6/23/2022 3:00:00 AM -99999.99 -179968 -99999.99 -99999.99 -99999.99 -99999.99
6/23/2022 3:15:00 AM -99999.99 -179968 -99999.99 -99999.99 -99999.99 -99999.99
6/23/2022 3:30:00 AM -99999.99 -179968 -99999.99 -99999.99 -99999.99 -99999.99
6/23/2022 3:45:00 AM -99999.99 -179968 -99999.99 -99999.99 -99999.99 -99999.99
6/23/2022 4:00:00 AM -99999.99 -179968 -99999.99 -99999.99 -99999.99 -99999.99
6/23/2022 4:15:00 AM -99999.99 -179968 -99999.99 -99999.99 -99999.99 -99999.99
6/23/2022 4:30:00 AM -99999.99 -179968 -99999.99 -99999.99 -99999.99 -99999.99
6/23/2022 4:45:00 AM -99999.99 -179968 -99999.99 -99999.99 -99999.99 -99999.99
6/23/2022 5:00:00 AM -99999.99 -179968 -99999.99 -99999.99 -99999.99 -99999.99
6/23/2022 5:15:00 AM -99999.99 -179968 -99999.99 -99999.99 -99999.99 -99999.99
6/23/2022 5:30:00 AM -99999.99 -179968 -99999.99 -99999.99 -99999.99 -99999.99
6/23/2022 5:45:00 AM -99999.99 -179968 -99999.99 -99999.99 -99999.99 -99999.99
6/23/2022 6:00:00 AM -99999.99 -179968 -99999.99 -99999.99 -99999.99 -99999.99
6/23/2022 6:15:00 AM -99999.99 -179968 -99999.99 -99999.99 -99999.99 -99999.99
6/23/2022 6:30:00 AM -99999.99 -179968 -99999.99 -99999.99 -99999.99 -99999.99
6/23/2022 6:45:00 AM -99999.99 -179968 -99999.99 -99999.99 -99999.99 -99999.99
6/23/2022 7:00:00 AM -99999.99 -179968 -99999.99 -99999.99 -99999.99 -99999.99
6/23/2022 7:15:00 AM -99999.99 -179968 -99999.99 -99999.99 -99999.99 -99999.99
6/23/2022 7:30:00 AM -99999.99 -179968 -99999.99 -99999.99 -99999.99 -99999.99
6/23/2022 7:45:00 AM -99999.99 -179968 -99999.99 -99999.99 -99999.99 -99999.99
6/23/2022 8:00:00 AM -99999.99 -179968 -99999.99 -99999.99 -99999.99 -99999.99
6/23/2022 8:15:00 AM -99999.99 -179968 -99999.99 -99999.99 -99999.99 -99999.99
6/23/2022 8:30:00 AM -99999.99 -179968 -99999.99 -99999.99 -99999.99 -99999.99
6/23/2022 8:45:00 AM -99999.99 -179968 -99999.99 -99999.99 -99999.99 -99999.99
6/23/2022 9:00:00 AM -99999.99 -179968 -99999.99 -99999.99 -99999.99 -99999.99
6/23/2022 9:15:00 AM -99999.99 -179968 -99999.99 -99999.99 -99999.99 -99999.99
6/23/2022 9:30:00 AM -99999.99 -179968 -99999.99 -99999.99 -99999.99 -99999.99
6/23/2022 9:45:00 AM -99999.99 -179968 -99999.99 -99999.99 -99999.99 -99999.99
6/23/2022 10:00:00 AM -99999.99 -179968 -99999.99 -99999.99 -99999.99 -99999.99
6/23/2022 10:15:00 AM -99999.99 -179968 -99999.99 -99999.99 -99999.99 -99999.99
6/23/2022 10:30:00 AM -99999.99 -179968 -99999.99 -99999.99 -99999.99 -99999.99
6/23/2022 10:45:00 AM -99999.99 -179968 -99999.99 -99999.99 -99999.99 -99999.99
6/23/2022 11:00:00 AM -99999.99 -179968 -99999.99 -99999.99 -99999.99 -99999.99
6/23/2022 11:15:00 AM -99999.99 -179968 -99999.99 -99999.99 -99999.99 -99999.99
6/23/2022 11:30:00 AM -99999.99 -179968 -99999.99 -99999.99 -99999.99 -99999.99
6/23/2022 11:45:00 AM -99999.99 -179968 -99999.99 -99999.99 -99999.99 -99999.99
6/23/2022 12:00:00 PM -99999.99 -179968 -99999.99 -99999.99 -99999.99 -99999.99
6/23/2022 12:15:00 PM -99999.99 -179968 -99999.99 -99999.99 -99999.99 -99999.99
6/23/2022 12:30:00 PM -99999.99 -179968 -99999.99 -99999.99 -99999.99 -99999.99
6/23/2022 12:45:00 PM -99999.99 -179968 -99999.99 -99999.99 -99999.99 -99999.99
6/23/2022 1:00:00 PM -99999.99 -179968 -99999.99 -99999.99 -99999.99 -99999.99
6/23/2022 1:15:00 PM -99999.99 -179968 -99999.99 -99999.99 -99999.99 -99999.99
6/23/2022 1:30:00 PM -99999.99 -179968 -99999.99 -99999.99 -99999.99 -99999.99
6/23/2022 1:45:00 PM -99999.99 -179968 -99999.99 -99999.99 -99999.99 -99999.99
6/23/2022 2:00:00 PM -99999.99 -179968 -99999.99 -99999.99 -99999.99 -99999.99
6/23/2022 2:15:00 PM -99999.99 -179968 -99999.99 -99999.99 -99999.99 -99999.99
6/23/2022 2:30:00 PM -99999.99 -179968 -99999.99 -99999.99 -99999.99 -99999.99
6/23/2022 2:45:00 PM -99999.99 -179968 -99999.99 -99999.99 -99999.99 -99999.99
6/23/2022 3:00:00 PM -99999.99 -179968 -99999.99 -99999.99 -99999.99 -99999.99
6/23/2022 3:15:00 PM -99999.99 -179968 -99999.99 -99999.99 -99999.99 -99999.99
6/23/2022 3:30:00 PM -99999.99 -179968 -99999.99 -99999.99 -99999.99 -99999.99
6/23/2022 3:45:00 PM -99999.99 -179968 -99999.99 -99999.99 -99999.99 -99999.99
6/23/2022 4:00:00 PM -99999.99 -179968 -99999.99 -99999.99 -99999.99 -99999.99
6/23/2022 4:15:00 PM -99999.99 -179968 -99999.99 -99999.99 -99999.99 -99999.99
6/23/2022 4:30:00 PM -99999.99 -179968 -99999.99 -99999.99 -99999.99 -99999.99
6/23/2022 4:45:00 PM -99999.99 -179968 -99999.99 -99999.99 -99999.99 -99999.99
6/23/2022 5:00:00 PM -99999.99 -179968 -99999.99 -99999.99 -99999.99 -99999.99
6/23/2022 5:15:00 PM -99999.99 -179968 -99999.99 -99999.99 -99999.99 -99999.99
6/23/2022 5:30:00 PM -99999.99 -179968 -99999.99 -99999.99 -99999.99 -99999.99
6/23/2022 5:45:00 PM -99999.99 -179968 -99999.99 -99999.99 -99999.99 -99999.99
6/23/2022 6:00:00 PM -99999.99 -179968 -99999.99 -99999.99 -99999.99 -99999.99
6/23/2022 6:15:00 PM -99999.99 -179968 -99999.99 -99999.99 -99999.99 -99999.99
6/23/2022 6:30:00 PM -99999.99 -179968 -99999.99 -99999.99 -99999.99 -99999.99
6/23/2022 6:45:00 PM -99999.99 -179968 -99999.99 -99999.99 -99999.99 -99999.99
6/23/2022 7:00:00 PM -99999.99 -179968 -99999.99 -99999.99 -99999.99 -99999.99
6/23/2022 7:15:00 PM -99999.99 -179968 -99999.99 -99999.99 -99999.99 -99999.99
6/23/2022 7:30:00 PM -99999.99 -179968 -99999.99 -99999.99 -99999.99 -99999.99
6/23/2022 7:45:00 PM -99999.99 -179968 -99999.99 -99999.99 -99999.99 -99999.99
6/23/2022 8:00:00 PM -99999.99 -179968 -99999.99 -99999.99 -99999.99 -99999.99
6/23/2022 8:15:00 PM -99999.99 -179968 -99999.99 -99999.99 -99999.99 -99999.99
6/23/2022 8:30:00 PM -99999.99 -179968 -99999.99 -99999.99 -99999.99 -99999.99
6/23/2022 8:45:00 PM -99999.99 -179968 -99999.99 -99999.99 -99999.99 -99999.99
6/23/2022 9:00:00 PM -99999.99 -179968 -99999.99 -99999.99 -99999.99 -99999.99
6/23/2022 9:15:00 PM -99999.99 -179968 -99999.99 -99999.99 -99999.99 -99999.99
6/23/2022 9:30:00 PM -99999.99 -179968 -99999.99 -99999.99 -99999.99 -99999.99
6/23/2022 9:45:00 PM -99999.99 -179968 -99999.99 -99999.99 -99999.99 -99999.99
6/23/2022 10:00:00 PM -99999.99 -179968 -99999.99 -99999.99 -99999.99 -99999.99
6/23/2022 10:15:00 PM -99999.99 -179968 -99999.99 -99999.99 -99999.99 -99999.99
6/23/2022 10:30:00 PM -99999.99 -179968 -99999.99 -99999.99 -99999.99 -99999.99
6/23/2022 10:45:00 PM -99999.99 -179968 -99999.99 -99999.99 -99999.99 -99999.99
6/23/2022 11:00:00 PM -99999.99 -179968 -99999.99 -99999.99 -99999.99 -99999.99
6/23/2022 11:15:00 PM -99999.99 -179968 -99999.99 -99999.99 -99999.99 -99999.99
6/23/2022 11:30:00 PM -99999.99 -179968 -99999.99 -99999.99 -99999.99 -99999.99
6/23/2022 11:45:00 PM -99999.99 -179968 -99999.99 -99999.99 -99999.99 -99999.99
6/24/2022 12:00:00 AM -99999.99 -179968 -99999.99 -99999.99 -99999.99 -99999.99
6/24/2022 12:15:00 AM -99999.99 -179968 -99999.99 -99999.99 -99999.99 -99999.99
6/24/2022 12:30:00 AM -99999.99 -179968 -99999.99 -99999.99 -99999.99 -99999.99
6/24/2022 12:45:00 AM -99999.99 -179968 -99999.99 -99999.99 -99999.99 -99999.99
6/24/2022 1:00:00 AM -99999.99 -179968 -99999.99 -99999.99 -99999.99 -99999.99
6/24/2022 1:15:00 AM -99999.99 -179968 -99999.99 -99999.99 -99999.99 -99999.99
6/24/2022 1:30:00 AM -99999.99 -179968 -99999.99 -99999.99 -99999.99 -99999.99
6/24/2022 1:45:00 AM -99999.99 -179968 -99999.99 -99999.99 -99999.99 -99999.99
6/24/2022 2:00:00 AM -99999.99 -179968 -99999.99 -99999.99 -99999.99 -99999.99
6/24/2022 2:15:00 AM -99999.99 -179968 -99999.99 -99999.99 -99999.99 -99999.99
6/24/2022 2:30:00 AM -99999.99 -179968 -99999.99 -99999.99 -99999.99 -99999.99
6/24/2022 2:45:00 AM -99999.99 -179968 -99999.99 -99999.99 -99999.99 -99999.99
6/24/2022 3:00:00 AM -99999.99 -179968 -99999.99 -99999.99 -99999.99 -99999.99
6/24/2022 3:15:00 AM -99999.99 -179968 -99999.99 -99999.99 -99999.99 -99999.99
6/24/2022 3:30:00 AM -99999.99 -179968 -99999.99 -99999.99 -99999.99 -99999.99
6/24/2022 3:45:00 AM -99999.99 -179968 -99999.99 -99999.99 -99999.99 -99999.99
6/24/2022 4:00:00 AM -99999.99 -179968 -99999.99 -99999.99 -99999.99 -99999.99
6/24/2022 4:15:00 AM -99999.99 -179968 -99999.99 -99999.99 -99999.99 -99999.99
6/24/2022 4:30:00 AM -99999.99 -179968 -99999.99 -99999.99 -99999.99 -99999.99
6/24/2022 4:45:00 AM -99999.99 -179968 -99999.99 -99999.99 -99999.99 -99999.99
6/24/2022 5:00:00 AM -99999.99 -179968 -99999.99 -99999.99 -99999.99 -99999.99
6/24/2022 5:15:00 AM -99999.99 -179968 -99999.99 -99999.99 -99999.99 -99999.99
6/24/2022 5:30:00 AM -99999.99 -179968 -99999.99 -99999.99 -99999.99 -99999.99
6/24/2022 5:45:00 AM -99999.99 -179968 -99999.99 -99999.99 -99999.99 -99999.99
6/24/2022 6:00:00 AM -99999.99 -179968 -99999.99 -99999.99 -99999.99 -99999.99
6/24/2022 6:15:00 AM -99999.99 -179968 -99999.99 -99999.99 -99999.99 -99999.99
6/24/2022 6:30:00 AM -99999.99 -179968 -99999.99 -99999.99 -99999.99 -99999.99
6/24/2022 6:45:00 AM -99999.99 -179968 -99999.99 -99999.99 -99999.99 -99999.99
6/24/2022 7:00:00 AM -99999.99 -179968 -99999.99 -99999.99 -99999.99 -99999.99
6/24/2022 7:15:00 AM -99999.99 -179968 -99999.99 -99999.99 -99999.99 -99999.99
6/24/2022 7:30:00 AM -99999.99 -179968 -99999.99 -99999.99 -99999.99 -99999.99
6/24/2022 7:45:00 AM -99999.99 -179968 -99999.99 -99999.99 -99999.99 -99999.99
6/24/2022 8:00:00 AM -99999.99 -179968 -99999.99 -99999.99 -99999.99 -99999.99
6/24/2022 8:15:00 AM -99999.99 -179968 -99999.99 -99999.99 -99999.99 -99999.99
6/24/2022 8:30:00 AM -99999.99 -179968 -99999.99 -99999.99 -99999.99 -99999.99
6/24/2022 8:45:00 AM -99999.99 -179968 -99999.99 -99999.99 -99999.99 -99999.99
6/24/2022 9:00:00 AM -99999.99 -179968 -99999.99 -99999.99 -99999.99 -99999.99
6/24/2022 9:15:00 AM -99999.99 -179968 -99999.99 -99999.99 -99999.99 -99999.99
6/24/2022 9:30:00 AM -99999.99 -179968 -99999.99 -99999.99 -99999.99 -99999.99
6/24/2022 9:45:00 AM -99999.99 -179968 -99999.99 -99999.99 -99999.99 -99999.99
6/24/2022 10:00:00 AM -99999.99 -179968 -99999.99 -99999.99 -99999.99 -99999.99
6/24/2022 10:15:00 AM -99999.99 -179968 -99999.99 -99999.99 -99999.99 -99999.99
6/24/2022 10:30:00 AM -99999.99 -179968 -99999.99 -99999.99 -99999.99 -99999.99
6/24/2022 10:45:00 AM -99999.99 -179968 -99999.99 -99999.99 -99999.99 -99999.99
6/24/2022 11:00:00 AM -99999.99 -179968 -99999.99 -99999.99 -99999.99 -99999.99
6/24/2022 11:15:00 AM -99999.99 -179968 -99999.99 -99999.99 -99999.99 -99999.99
6/24/2022 11:30:00 AM -99999.99 -179968 -99999.99 -99999.99 -99999.99 -99999.99
6/24/2022 11:45:00 AM -99999.99 -179968 -99999.99 -99999.99 -99999.99 -99999.99
6/24/2022 12:00:00 PM -99999.99 -179968 -99999.99 -99999.99 -99999.99 -99999.99
6/24/2022 12:15:00 PM -99999.99 -179968 -99999.99 -99999.99 -99999.99 -99999.99
6/24/2022 12:30:00 PM -99999.99 -179968 -99999.99 -99999.99 -99999.99 -99999.99
6/24/2022 12:45:00 PM -99999.99 -179968 -99999.99 -99999.99 -99999.99 -99999.99
6/24/2022 1:00:00 PM -99999.99 -179968 -99999.99 -99999.99 -99999.99 -99999.99
6/24/2022 1:15:00 PM -99999.99 -179968 -99999.99 -99999.99 -99999.99 -99999.99
6/24/2022 1:30:00 PM -99999.99 -179968 -99999.99 -99999.99 -99999.99 -99999.99
6/24/2022 1:45:00 PM -99999.99 -179968 -99999.99 -99999.99 -99999.99 -99999.99
6/24/2022 2:00:00 PM -99999.99 -179968 -99999.99 -99999.99 -99999.99 -99999.99
6/24/2022 2:15:00 PM -99999.99 -179968 -99999.99 -99999.99 -99999.99 -99999.99
6/24/2022 2:30:00 PM -99999.99 -179968 -99999.99 -99999.99 -99999.99 -99999.99
6/24/2022 2:45:00 PM -99999.99 -179968 -99999.99 -99999.99 -99999.99 -99999.99
6/24/2022 3:00:00 PM -99999.99 -179968 -99999.99 -99999.99 -99999.99 -99999.99
6/24/2022 3:15:00 PM -99999.99 -179968 -99999.99 -99999.99 -99999.99 -99999.99
6/24/2022 3:30:00 PM -99999.99 -179968 -99999.99 -99999.99 -99999.99 -99999.99
6/24/2022 3:45:00 PM -99999.99 -179968 -99999.99 -99999.99 -99999.99 -99999.99
6/24/2022 4:00:00 PM -99999.99 -179968 -99999.99 -99999.99 -99999.99 -99999.99
6/24/2022 4:15:00 PM -99999.99 -179968 -99999.99 -99999.99 -99999.99 -99999.99
6/24/2022 4:30:00 PM -99999.99 -179968 -99999.99 -99999.99 -99999.99 -99999.99
6/24/2022 4:45:00 PM -99999.99 -179968 -99999.99 -99999.99 -99999.99 -99999.99
6/24/2022 5:00:00 PM -99999.99 -179968 -99999.99 -99999.99 -99999.99 -99999.99
6/24/2022 5:15:00 PM -99999.99 -179968 -99999.99 -99999.99 -99999.99 -99999.99
6/24/2022 5:30:00 PM -99999.99 -179968 -99999.99 -99999.99 -99999.99 -99999.99
6/24/2022 5:45:00 PM -99999.99 -179968 -99999.99 -99999.99 -99999.99 -99999.99
6/24/2022 6:00:00 PM -99999.99 -179968 -99999.99 -99999.99 -99999.99 -99999.99
6/24/2022 6:15:00 PM -99999.99 -179968 -99999.99 -99999.99 -99999.99 -99999.99
6/24/2022 6:30:00 PM -99999.99 -179968 -99999.99 -99999.99 -99999.99 -99999.99
6/24/2022 6:45:00 PM -99999.99 -179968 -99999.99 -99999.99 -99999.99 -99999.99
6/24/2022 7:00:00 PM -99999.99 -179968 -99999.99 -99999.99 -99999.99 -99999.99
6/24/2022 7:15:00 PM -99999.99 -179968 -99999.99 -99999.99 -99999.99 -99999.99
6/24/2022 7:30:00 PM -99999.99 -179968 -99999.99 -99999.99 -99999.99 -99999.99
6/24/2022 7:45:00 PM -99999.99 -179968 -99999.99 -99999.99 -99999.99 -99999.99
6/24/2022 8:00:00 PM -99999.99 -179968 -99999.99 -99999.99 -99999.99 -99999.99
6/24/2022 8:15:00 PM -99999.99 -179968 -99999.99 -99999.99 -99999.99 -99999.99
6/24/2022 8:30:00 PM -99999.99 -179968 -99999.99 -99999.99 -99999.99 -99999.99
6/24/2022 8:45:00 PM -99999.99 -179968 -99999.99 -99999.99 -99999.99 -99999.99
6/24/2022 9:00:00 PM -99999.99 -179968 -99999.99 -99999.99 -99999.99 -99999.99
6/24/2022 9:15:00 PM -99999.99 -179968 -99999.99 -99999.99 -99999.99 -99999.99
6/24/2022 9:30:00 PM -99999.99 -179968 -99999.99 -99999.99 -99999.99 -99999.99
6/24/2022 9:45:00 PM -99999.99 -179968 -99999.99 -99999.99 -99999.99 -99999.99
6/24/2022 10:00:00 PM -99999.99 -179968 -99999.99 -99999.99 -99999.99 -99999.99
6/24/2022 10:15:00 PM -99999.99 -179968 -99999.99 -99999.99 -99999.99 -99999.99
6/24/2022 10:30:00 PM -99999.99 -179968 -99999.99 -99999.99 -99999.99 -99999.99
6/24/2022 10:45:00 PM -99999.99 -179968 -99999.99 -99999.99 -99999.99 -99999.99
6/24/2022 11:00:00 PM -99999.99 -179968 -99999.99 -99999.99 -99999.99 -99999.99
6/24/2022 11:15:00 PM -99999.99 -179968 -99999.99 -99999.99 -99999.99 -99999.99
6/24/2022 11:30:00 PM -99999.99 -179968 -99999.99 -99999.99 -99999.99 -99999.99
6/24/2022 11:45:00 PM -99999.99 -179968 -99999.99 -99999.99 -99999.99 -99999.99
6/25/2022 12:00:00 AM -99999.99 -179968 -99999.99 -99999.99 -99999.99 -99999.99
6/25/2022 12:15:00 AM -99999.99 -179968 -99999.99 -99999.99 -99999.99 -99999.99
6/25/2022 12:30:00 AM -99999.99 -179968 -99999.99 -99999.99 -99999.99 -99999.99
6/25/2022 12:45:00 AM -99999.99 -179968 -99999.99 -99999.99 -99999.99 -99999.99
6/25/2022 1:00:00 AM -99999.99 -179968 -99999.99 -99999.99 -99999.99 -99999.99
6/25/2022 1:15:00 AM -99999.99 -179968 -99999.99 -99999.99 -99999.99 -99999.99
6/25/2022 1:30:00 AM -99999.99 -179968 -99999.99 -99999.99 -99999.99 -99999.99
6/25/2022 1:45:00 AM -99999.99 -179968 -99999.99 -99999.99 -99999.99 -99999.99
6/25/2022 2:00:00 AM -99999.99 -179968 -99999.99 -99999.99 -99999.99 -99999.99
6/25/2022 2:15:00 AM -99999.99 -179968 -99999.99 -99999.99 -99999.99 -99999.99
6/25/2022 2:30:00 AM -99999.99 -179968 -99999.99 -99999.99 -99999.99 -99999.99
6/25/2022 2:45:00 AM -99999.99 -179968 -99999.99 -99999.99 -99999.99 -99999.99
6/25/2022 3:00:00 AM -99999.99 -179968 -99999.99 -99999.99 -99999.99 -99999.99
6/25/2022 3:15:00 AM -99999.99 -179968 -99999.99 -99999.99 -99999.99 -99999.99
6/25/2022 3:30:00 AM -99999.99 -179968 -99999.99 -99999.99 -99999.99 -99999.99
6/25/2022 3:45:00 AM -99999.99 -179968 -99999.99 -99999.99 -99999.99 -99999.99
6/25/2022 4:00:00 AM -99999.99 -179968 -99999.99 -99999.99 -99999.99 -99999.99
6/25/2022 4:15:00 AM -99999.99 -179968 -99999.99 -99999.99 -99999.99 -99999.99
6/25/2022 4:30:00 AM -99999.99 -179968 -99999.99 -99999.99 -99999.99 -99999.99
6/25/2022 4:45:00 AM -99999.99 -179968 -99999.99 -99999.99 -99999.99 -99999.99
6/25/2022 5:00:00 AM -99999.99 -179968 -99999.99 -99999.99 -99999.99 -99999.99
6/25/2022 5:15:00 AM -99999.99 -179968 -99999.99 -99999.99 -99999.99 -99999.99
6/25/2022 5:30:00 AM -99999.99 -179968 -99999.99 -99999.99 -99999.99 -99999.99
6/25/2022 5:45:00 AM -99999.99 -179968 -99999.99 -99999.99 -99999.99 -99999.99
6/25/2022 6:00:00 AM -99999.99 -179968 -99999.99 -99999.99 -99999.99 -99999.99
6/25/2022 6:15:00 AM -99999.99 -179968 -99999.99 -99999.99 -99999.99 -99999.99
6/25/2022 6:30:00 AM -99999.99 -179968 -99999.99 -99999.99 -99999.99 -99999.99
6/25/2022 6:45:00 AM -99999.99 -179968 -99999.99 -99999.99 -99999.99 -99999.99
6/25/2022 7:00:00 AM -99999.99 -179968 -99999.99 -99999.99 -99999.99 -99999.99
6/25/2022 7:15:00 AM -99999.99 -179968 -99999.99 -99999.99 -99999.99 -99999.99
6/25/2022 7:30:00 AM -99999.99 -179968 -99999.99 -99999.99 -99999.99 -99999.99
6/25/2022 7:45:00 AM -99999.99 -179968 -99999.99 -99999.99 -99999.99 -99999.99
6/25/2022 8:00:00 AM -99999.99 -179968 -99999.99 -99999.99 -99999.99 -99999.99
6/25/2022 8:15:00 AM -99999.99 -179968 -99999.99 -99999.99 -99999.99 -99999.99
6/25/2022 8:30:00 AM -99999.99 -179968 -99999.99 -99999.99 -99999.99 -99999.99
6/25/2022 8:45:00 AM -99999.99 -179968 -99999.99 -99999.99 -99999.99 -99999.99
6/25/2022 9:00:00 AM -99999.99 -179968 -99999.99 -99999.99 -99999.99 -99999.99
6/25/2022 9:15:00 AM -99999.99 -179968 -99999.99 -99999.99 -99999.99 -99999.99
6/25/2022 9:30:00 AM -99999.99 -179968 -99999.99 -99999.99 -99999.99 -99999.99
6/25/2022 9:45:00 AM -99999.99 -179968 -99999.99 -99999.99 -99999.99 -99999.99
6/25/2022 10:00:00 AM -99999.99 -179968 -99999.99 -99999.99 -99999.99 -99999.99
6/25/2022 10:15:00 AM -99999.99 -179968 -99999.99 -99999.99 -99999.99 -99999.99
6/25/2022 10:30:00 AM -99999.99 -179968 -99999.99 -99999.99 -99999.99 -99999.99
6/25/2022 10:45:00 AM -99999.99 -179968 -99999.99 -99999.99 -99999.99 -99999.99
6/25/2022 11:00:00 AM -99999.99 -179968 -99999.99 -99999.99 -99999.99 -99999.99
6/25/2022 11:15:00 AM -99999.99 -179968 -99999.99 -99999.99 -99999.99 -99999.99
6/25/2022 11:30:00 AM -99999.99 -179968 -99999.99 -99999.99 -99999.99 -99999.99
6/25/2022 11:45:00 AM -99999.99 -179968 -99999.99 -99999.99 -99999.99 -99999.99
6/25/2022 12:00:00 PM -99999.99 -179968 -99999.99 -99999.99 -99999.99 -99999.99
6/25/2022 12:15:00 PM -99999.99 -179968 -99999.99 -99999.99 -99999.99 -99999.99
6/25/2022 12:30:00 PM -99999.99 -179968 -99999.99 -99999.99 -99999.99 -99999.99
6/25/2022 12:45:00 PM -99999.99 -179968 -99999.99 -99999.99 -99999.99 -99999.99
6/25/2022 1:00:00 PM -99999.99 -179968 -99999.99 -99999.99 -99999.99 -99999.99
6/25/2022 1:15:00 PM -99999.99 -179968 -99999.99 -99999.99 -99999.99 -99999.99
6/25/2022 1:30:00 PM -99999.99 -179968 -99999.99 -99999.99 -99999.99 -99999.99
6/25/2022 1:45:00 PM -99999.99 -179968 -99999.99 -99999.99 -99999.99 -99999.99
6/25/2022 2:00:00 PM -99999.99 -179968 -99999.99 -99999.99 -99999.99 -99999.99
6/25/2022 2:15:00 PM -99999.99 -179968 -99999.99 -99999.99 -99999.99 -99999.99
6/25/2022 2:30:00 PM -99999.99 -179968 -99999.99 -99999.99 -99999.99 -99999.99
6/25/2022 2:45:00 PM -99999.99 -179968 -99999.99 -99999.99 -99999.99 -99999.99
6/25/2022 3:00:00 PM -99999.99 -179968 -99999.99 -99999.99 -99999.99 -99999.99
6/25/2022 3:15:00 PM -99999.99 -179968 -99999.99 -99999.99 -99999.99 -99999.99
6/25/2022 3:30:00 PM -99999.99 -179968 -99999.99 -99999.99 -99999.99 -99999.99
6/25/2022 3:45:00 PM -99999.99 -179968 -99999.99 -99999.99 -99999.99 -99999.99
6/25/2022 4:00:00 PM -99999.99 -179968 -99999.99 -99999.99 -99999.99 -99999.99
6/25/2022 4:15:00 PM -99999.99 -179968 -99999.99 -99999.99 -99999.99 -99999.99
6/25/2022 4:30:00 PM -99999.99 -179968 -99999.99 -99999.99 -99999.99 -99999.99
6/25/2022 4:45:00 PM -99999.99 -179968 -99999.99 -99999.99 -99999.99 -99999.99
6/25/2022 5:00:00 PM -99999.99 -179968 -99999.99 -99999.99 -99999.99 -99999.99
6/25/2022 5:15:00 PM -99999.99 -179968 -99999.99 -99999.99 -99999.99 -99999.99
6/25/2022 5:30:00 PM -99999.99 -179968 -99999.99 -99999.99 -99999.99 -99999.99
6/25/2022 5:45:00 PM -99999.99 -179968 -99999.99 -99999.99 -99999.99 -99999.99
6/25/2022 6:00:00 PM -99999.99 -179968 -99999.99 -99999.99 -99999.99 -99999.99
6/25/2022 6:15:00 PM -99999.99 -179968 -99999.99 -99999.99 -99999.99 -99999.99
6/25/2022 6:30:00 PM -99999.99 -179968 -99999.99 -99999.99 -99999.99 -99999.99
6/25/2022 6:45:00 PM -99999.99 -179968 -99999.99 -99999.99 -99999.99 -99999.99
6/25/2022 7:00:00 PM -99999.99 -179968 -99999.99 -99999.99 -99999.99 -99999.99
6/25/2022 7:15:00 PM -99999.99 -179968 -99999.99 -99999.99 -99999.99 -99999.99
6/25/2022 7:30:00 PM -99999.99 -179968 -99999.99 -99999.99 -99999.99 -99999.99
6/25/2022 7:45:00 PM -99999.99 -179968 -99999.99 -99999.99 -99999.99 -99999.99
6/25/2022 8:00:00 PM -99999.99 -179968 -99999.99 -99999.99 -99999.99 -99999.99
6/25/2022 8:15:00 PM -99999.99 -179968 -99999.99 -99999.99 -99999.99 -99999.99
6/25/2022 8:30:00 PM -99999.99 -179968 -99999.99 -99999.99 -99999.99 -99999.99
6/25/2022 8:45:00 PM -99999.99 -179968 -99999.99 -99999.99 -99999.99 -99999.99
6/25/2022 9:00:00 PM -99999.99 -179968 -99999.99 -99999.99 -99999.99 -99999.99
6/25/2022 9:15:00 PM -99999.99 -179968 -99999.99 -99999.99 -99999.99 -99999.99
6/25/2022 9:30:00 PM -99999.99 -179968 -99999.99 -99999.99 -99999.99 -99999.99
6/25/2022 9:45:00 PM -99999.99 -179968 -99999.99 -99999.99 -99999.99 -99999.99
6/25/2022 10:00:00 PM -99999.99 -179968 -99999.99 -99999.99 -99999.99 -99999.99
6/25/2022 10:15:00 PM -99999.99 -179968 -99999.99 -99999.99 -99999.99 -99999.99
6/25/2022 10:30:00 PM -99999.99 -179968 -99999.99 -99999.99 -99999.99 -99999.99
6/25/2022 10:45:00 PM -99999.99 -179968 -99999.99 -99999.99 -99999.99 -99999.99
6/25/2022 11:00:00 PM -99999.99 -179968 -99999.99 -99999.99 -99999.99 -99999.99
6/25/2022 11:15:00 PM -99999.99 -179968 -99999.99 -99999.99 -99999.99 -99999.99
6/25/2022 11:30:00 PM -99999.99 -179968 -99999.99 -99999.99 -99999.99 -99999.99
6/25/2022 11:45:00 PM -99999.99 -179968 -99999.99 -99999.99 -99999.99 -99999.99
6/26/2022 12:00:00 AM -99999.99 -179968 -99999.99 -99999.99 -99999.99 -99999.99
6/26/2022 12:15:00 AM -99999.99 -179968 -99999.99 -99999.99 -99999.99 -99999.99
6/26/2022 12:30:00 AM -99999.99 -179968 -99999.99 -99999.99 -99999.99 -99999.99
6/26/2022 12:45:00 AM -99999.99 -179968 -99999.99 -99999.99 -99999.99 -99999.99
6/26/2022 1:00:00 AM -99999.99 -179968 -99999.99 -99999.99 -99999.99 -99999.99
6/26/2022 1:15:00 AM -99999.99 -179968 -99999.99 -99999.99 -99999.99 -99999.99
6/26/2022 1:30:00 AM -99999.99 -179968 -99999.99 -99999.99 -99999.99 -99999.99
6/26/2022 1:45:00 AM -99999.99 -179968 -99999.99 -99999.99 -99999.99 -99999.99
6/26/2022 2:00:00 AM -99999.99 -179968 -99999.99 -99999.99 -99999.99 -99999.99
6/26/2022 2:15:00 AM -99999.99 -179968 -99999.99 -99999.99 -99999.99 -99999.99
6/26/2022 2:30:00 AM -99999.99 -179968 -99999.99 -99999.99 -99999.99 -99999.99
6/26/2022 2:45:00 AM -99999.99 -179968 -99999.99 -99999.99 -99999.99 -99999.99
6/26/2022 3:00:00 AM -99999.99 -179968 -99999.99 -99999.99 -99999.99 -99999.99
6/26/2022 3:15:00 AM -99999.99 -179968 -99999.99 -99999.99 -99999.99 -99999.99
6/26/2022 3:30:00 AM -99999.99 -179968 -99999.99 -99999.99 -99999.99 -99999.99
6/26/2022 3:45:00 AM -99999.99 -179968 -99999.99 -99999.99 -99999.99 -99999.99
6/26/2022 4:00:00 AM -99999.99 -179968 -99999.99 -99999.99 -99999.99 -99999.99
6/26/2022 4:15:00 AM -99999.99 -179968 -99999.99 -99999.99 -99999.99 -99999.99
6/26/2022 4:30:00 AM -99999.99 -179968 -99999.99 -99999.99 -99999.99 -99999.99
6/26/2022 4:45:00 AM -99999.99 -179968 -99999.99 -99999.99 -99999.99 -99999.99
6/26/2022 5:00:00 AM -99999.99 -179968 -99999.99 -99999.99 -99999.99 -99999.99
6/26/2022 5:15:00 AM -99999.99 -179968 -99999.99 -99999.99 -99999.99 -99999.99
6/26/2022 5:30:00 AM -99999.99 -179968 -99999.99 -99999.99 -99999.99 -99999.99
6/26/2022 5:45:00 AM -99999.99 -179968 -99999.99 -99999.99 -99999.99 -99999.99
6/26/2022 6:00:00 AM -99999.99 -179968 -99999.99 -99999.99 -99999.99 -99999.99
6/26/2022 6:15:00 AM -99999.99 -179968 -99999.99 -99999.99 -99999.99 -99999.99
6/26/2022 6:30:00 AM -99999.99 -179968 -99999.99 -99999.99 -99999.99 -99999.99
6/26/2022 6:45:00 AM -99999.99 -179968 -99999.99 -99999.99 -99999.99 -99999.99
6/26/2022 7:00:00 AM -99999.99 -179968 -99999.99 -99999.99 -99999.99 -99999.99
6/26/2022 7:15:00 AM -99999.99 -179968 -99999.99 -99999.99 -99999.99 -99999.99
6/26/2022 7:30:00 AM -99999.99 -179968 -99999.99 -99999.99 -99999.99 -99999.99
6/26/2022 7:45:00 AM -99999.99 -179968 -99999.99 -99999.99 -99999.99 -99999.99
6/26/2022 8:00:00 AM -99999.99 -179968 -99999.99 -99999.99 -99999.99 -99999.99
6/26/2022 8:15:00 AM -99999.99 -179968 -99999.99 -99999.99 -99999.99 -99999.99
6/26/2022 8:30:00 AM -99999.99 -179968 -99999.99 -99999.99 -99999.99 -99999.99
6/26/2022 8:45:00 AM -99999.99 -179968 -99999.99 -99999.99 -99999.99 -99999.99
6/26/2022 9:00:00 AM -99999.99 -179968 -99999.99 -99999.99 -99999.99 -99999.99
6/26/2022 9:15:00 AM -99999.99 -179968 -99999.99 -99999.99 -99999.99 -99999.99
6/26/2022 9:30:00 AM -99999.99 -179968 -99999.99 -99999.99 -99999.99 -99999.99
6/26/2022 9:45:00 AM -99999.99 -179968 -99999.99 -99999.99 -99999.99 -99999.99
6/26/2022 10:00:00 AM -99999.99 -179968 -99999.99 -99999.99 -99999.99 -99999.99
6/26/2022 10:15:00 AM -99999.99 -179968 -99999.99 -99999.99 -99999.99 -99999.99
6/26/2022 10:30:00 AM -99999.99 -179968 -99999.99 -99999.99 -99999.99 -99999.99
6/26/2022 10:45:00 AM -99999.99 -179968 -99999.99 -99999.99 -99999.99 -99999.99
6/26/2022 11:00:00 AM -99999.99 -179968 -99999.99 -99999.99 -99999.99 -99999.99
6/26/2022 11:15:00 AM -99999.99 -179968 -99999.99 -99999.99 -99999.99 -99999.99
6/26/2022 11:30:00 AM -99999.99 -179968 -99999.99 -99999.99 -99999.99 -99999.99
6/26/2022 11:45:00 AM -99999.99 -179968 -99999.99 -99999.99 -99999.99 -99999.99
6/26/2022 12:00:00 PM -99999.99 -179968 -99999.99 -99999.99 -99999.99 -99999.99
6/26/2022 12:15:00 PM -99999.99 -179968 -99999.99 -99999.99 -99999.99 -99999.99
6/26/2022 12:30:00 PM -99999.99 -179968 -99999.99 -99999.99 -99999.99 -99999.99
6/26/2022 12:45:00 PM -99999.99 -179968 -99999.99 -99999.99 -99999.99 -99999.99
6/26/2022 1:00:00 PM -99999.99 -179968 -99999.99 -99999.99 -99999.99 -99999.99
6/26/2022 1:15:00 PM -99999.99 -179968 -99999.99 -99999.99 -99999.99 -99999.99
6/26/2022 1:30:00 PM -99999.99 -179968 -99999.99 -99999.99 -99999.99 -99999.99
6/26/2022 1:45:00 PM -99999.99 -179968 -99999.99 -99999.99 -99999.99 -99999.99
6/26/2022 2:00:00 PM -99999.99 -179968 -99999.99 -99999.99 -99999.99 -99999.99
6/26/2022 2:15:00 PM -99999.99 -179968 -99999.99 -99999.99 -99999.99 -99999.99
6/26/2022 2:30:00 PM -99999.99 -179968 -99999.99 -99999.99 -99999.99 -99999.99
6/26/2022 2:45:00 PM -99999.99 -179968 -99999.99 -99999.99 -99999.99 -99999.99
6/26/2022 3:00:00 PM -99999.99 -179968 -99999.99 -99999.99 -99999.99 -99999.99
6/26/2022 3:15:00 PM -99999.99 -179968 -99999.99 -99999.99 -99999.99 -99999.99
6/26/2022 3:30:00 PM -99999.99 -179968 -99999.99 -99999.99 -99999.99 -99999.99
6/26/2022 3:45:00 PM -99999.99 -179968 -99999.99 -99999.99 -99999.99 -99999.99
6/26/2022 4:00:00 PM -99999.99 -179968 -99999.99 -99999.99 -99999.99 -99999.99
6/26/2022 4:15:00 PM -99999.99 -179968 -99999.99 -99999.99 -99999.99 -99999.99
6/26/2022 4:30:00 PM -99999.99 -179968 -99999.99 -99999.99 -99999.99 -99999.99
6/26/2022 4:45:00 PM -99999.99 -179968 -99999.99 -99999.99 -99999.99 -99999.99
6/26/2022 5:00:00 PM -99999.99 -179968 -99999.99 -99999.99 -99999.99 -99999.99
6/26/2022 5:15:00 PM -99999.99 -179968